Darstellungsparameter: Aktuell verwendete Einstellungen:
Skalierung der Graphiken ... ?
xyx+y,   Skalierungsfaktor:      Skalierung: Modus: x, Faktor: 1
Darstellungszeitraum ... ?
Vom - - bis: - -   Zeitraum: 28.08.2009 - 27.09.2009
Min/Max/Avg-Anzeige ... ?
Zeige MMA aktuell
Zeige MMA Monat
Zeige MMA alles
Zeige --A aktuell
Zeige --A Monat
Zeige --A alles
Keine MMA-Anzeige
MMA:
Average (ber die Originaldaten)
MMA-Basis: 28.08.2009 - 27.09.2009
Quicknavigation für Darstellung... ?
Tage:      1T, 2T, 3T, 5T -1T -2T -3T -5T +1T +2T +3T +5T
Wochen: 1W, 2W, 3W -1W -2W -3W +1W +2W +3W
Monate: 1M, 3M, 6M -1M -3M -6M +1M +3M +6M
Jahre:    1J, 3J, 5J, 10J -1J -3J -5J -10J +1J +3J +5J +10J
Nutze für die Darstellung ... ?
Originaldaten oder Mittelwerte auf ...
Stundenbasis Tagesbasis Wochenbasis
Monatsbasis Jahresbasis      Datenbasis: Original-Daten
Darstellen als:
Statistik (Auto) Statistik J:M      Darstellung:
Zur Graphik,    zurück zur Übersicht aller Sensoren.
 
Tabellarische Datenbersicht: ?
 
Sensor: Nr:Datum:Temp:Abs-Feuchte:Windchill:Wind:
Aussen-T/F 1 28-08-2009 00:05:03 22.1 C 9.96 g/m*3 22.1 C 0 km/h
2 28-08-2009 00:17:03 22 C 9.9 g/m*3 22 C 0 km/h
3 28-08-2009 00:29:03 22 C 10.09 g/m*3 22 C 0 km/h
4 28-08-2009 00:41:03 22 C 10.09 g/m*3 22 C 0 km/h
5 28-08-2009 00:53:04 21.9 C 10.23 g/m*3 21.9 C 0 km/h
6 28-08-2009 01:05:04 21.8 C 10.36 g/m*3 21.8 C 0 km/h
7 28-08-2009 01:17:04 21.6 C 10.24 g/m*3 21.6 C 0 km/h
8 28-08-2009 01:29:04 21.3 C 10.25 g/m*3 21.3 C 0 km/h
9 28-08-2009 01:41:04 21.3 C 10.44 g/m*3 21.3 C 0 km/h
10 28-08-2009 01:53:04 21.2 C 10.38 g/m*3 21.2 C 0 km/h
11 28-08-2009 02:05:04 21 C 10.26 g/m*3 21 C 0 km/h
12 28-08-2009 02:17:04 21 C 10.44 g/m*3 21 C 0 km/h
13 28-08-2009 02:29:04 20.9 C 10.56 g/m*3 20.9 C 0 km/h
14 28-08-2009 02:41:04 20.9 C 10.56 g/m*3 20.9 C 0 km/h
15 28-08-2009 02:53:04 20.8 C 10.5 g/m*3 20.8 C 0 km/h
16 28-08-2009 03:05:04 20.8 C 10.5 g/m*3 20.8 C 0 km/h
17 28-08-2009 03:17:04 20.8 C 10.68 g/m*3 20.8 C 0 km/h
18 28-08-2009 03:29:04 20.6 C 10.56 g/m*3 20.6 C 0 km/h
19 28-08-2009 03:41:04 20.4 C 10.61 g/m*3 20.4 C 0 km/h
20 28-08-2009 03:53:04 20.4 C 10.61 g/m*3 20.4 C 0 km/h
21 28-08-2009 04:05:04 20.4 C 10.61 g/m*3 20.4 C 0 km/h
22 28-08-2009 04:17:04 20.3 C 10.55 g/m*3 20.3 C 0 km/h
23 28-08-2009 04:29:04 20.1 C 10.43 g/m*3 20.1 C 0 km/h
24 28-08-2009 04:41:04 20 C 10.54 g/m*3 20 C 0 km/h
25 28-08-2009 04:53:05 20 C 10.54 g/m*3 20 C 0 km/h
Sensor: Nr:Datum:Temp:Abs-Feuchte:Windchill:Wind:
Aussen-T/F 26 28-08-2009 05:05:05 19.8 C 10.59 g/m*3 19.8 C 0 km/h
27 28-08-2009 05:17:05 19.7 C 10.7 g/m*3 19.7 C 0 km/h
28 28-08-2009 05:29:05 19.7 C 10.7 g/m*3 19.7 C 0 km/h
29 28-08-2009 05:41:05 19.6 C 10.8 g/m*3 19.6 C 0 km/h
30 28-08-2009 05:53:05 19.5 C 10.74 g/m*3 19.5 C 0 km/h
31 28-08-2009 06:05:05 19.6 C 10.64 g/m*3 19.6 C 0 km/h
32 28-08-2009 06:17:05 19.7 C 10.53 g/m*3 19.7 C 0 km/h
33 28-08-2009 06:29:05 19.6 C 10.47 g/m*3 19.6 C 0 km/h
34 28-08-2009 06:41:05 19.5 C 10.57 g/m*3 19.5 C 0 km/h
35 28-08-2009 06:53:05 19.3 C 10.62 g/m*3 19.3 C 0 km/h
36 28-08-2009 07:05:03 19.2 C 10.72 g/m*3 19.2 C 0 km/h
37 28-08-2009 07:17:03 19.2 C 10.88 g/m*3 19.2 C 0 km/h
38 28-08-2009 07:29:03 19.4 C 10.84 g/m*3 19.4 C 0 km/h
39 28-08-2009 07:41:03 19.5 C 10.91 g/m*3 19.5 C 0 km/h
40 28-08-2009 07:53:02 19.5 C 10.91 g/m*3 19.5 C 0 km/h
41 28-08-2009 08:05:02 19.7 C 11.04 g/m*3 19.7 C 0 km/h
42 28-08-2009 08:17:02 20.2 C 11.02 g/m*3 20.2 C 0 km/h
43 28-08-2009 08:29:02 20.1 C 10.95 g/m*3 20.1 C 0 km/h
44 28-08-2009 08:41:02 20.3 C 10.9 g/m*3 20.3 C 0 km/h
45 28-08-2009 08:53:01 20.6 C 10.92 g/m*3 20.6 C 0 km/h
46 28-08-2009 09:05:02 21 C 10.81 g/m*3 21 C 0 km/h
47 28-08-2009 09:17:01 21.3 C 10.25 g/m*3 21.3 C 0 km/h
48 28-08-2009 09:29:01 21.7 C 10.11 g/m*3 21.7 C 0 km/h
49 28-08-2009 09:41:01 21.8 C 10.17 g/m*3 21.8 C 0 km/h
50 28-08-2009 09:53:01 22.1 C 9.96 g/m*3 22.1 C 0 km/h
Sensor: Nr:Datum:Temp:Abs-Feuchte:Windchill:Wind:
Aussen-T/F 51 28-08-2009 10:05:02 22.3 C 9.87 g/m*3 22.3 C 0 km/h
52 28-08-2009 10:17:01 22 C 9.9 g/m*3 22 C 0 km/h
53 28-08-2009 10:29:01 21.8 C 10.17 g/m*3 21.8 C 0 km/h
54 28-08-2009 10:41:02 21.9 C 9.84 g/m*3 21.9 C 0 km/h
55 28-08-2009 10:53:01 22.1 C 9.56 g/m*3 22.1 C 0 km/h
56 28-08-2009 11:05:02 22.1 C 9.56 g/m*3 22.1 C 0 km/h
57 28-08-2009 11:17:02 22.7 C 9.5 g/m*3 22.7 C 0 km/h
58 28-08-2009 11:29:02 22.4 C 9.53 g/m*3 22.4 C 0 km/h
59 28-08-2009 11:41:02 22.4 C 8.94 g/m*3 22.4 C 0 km/h
60 28-08-2009 11:53:01 23.1 C 8.27 g/m*3 23.1 C 0 km/h
61 28-08-2009 12:05:02 23.2 C 8.11 g/m*3 23.2 C 0 km/h
62 28-08-2009 12:17:02 23.3 C 7.74 g/m*3 23.3 C 0 km/h
63 28-08-2009 12:29:02 23.9 C 7.79 g/m*3 23.9 C 0 km/h
64 28-08-2009 12:41:02 23.8 C 7.53 g/m*3 23.8 C 0 km/h
65 28-08-2009 12:53:01 23.4 C 7.57 g/m*3 23.4 C 0 km/h
66 28-08-2009 13:05:02 22.9 C 7.56 g/m*3 22.9 C 0 km/h
67 28-08-2009 13:17:02 22.3 C 7.9 g/m*3 22.3 C 0 km/h
68 28-08-2009 13:29:02 21.8 C 8.06 g/m*3 21.8 C 0 km/h
69 28-08-2009 13:41:01 22 C 7.96 g/m*3 22 C 0 km/h
70 28-08-2009 13:53:02 22.8 C 8.33 g/m*3 22.8 C 0 km/h
71 28-08-2009 14:05:01 24 C 8.05 g/m*3 24 C 0 km/h
72 28-08-2009 14:17:02 24.2 C 8.14 g/m*3 24.2 C 0 km/h
73 28-08-2009 14:29:02 24.2 C 7.7 g/m*3 24.2 C 0 km/h
74 28-08-2009 14:41:01 24.5 C 7.83 g/m*3 24.5 C 0 km/h
75 28-08-2009 14:53:02 24.6 C 7.88 g/m*3 24.6 C 0 km/h
Sensor: Nr:Datum:Temp:Abs-Feuchte:Windchill:Wind:
Aussen-T/F 76 28-08-2009 15:05:01 24.3 C 7.75 g/m*3 24.3 C 0 km/h
77 28-08-2009 15:17:01 24.9 C 7.32 g/m*3 24.9 C 0 km/h
78 28-08-2009 15:29:01 25.3 C 7.02 g/m*3 25.3 C 0 km/h
79 28-08-2009 15:41:01 25.5 C 6.63 g/m*3 25.5 C 0 km/h
80 28-08-2009 15:53:02 25.7 C 6.46 g/m*3 25.7 C 0 km/h
81 28-08-2009 16:05:02 25.3 C 6.55 g/m*3 25.3 C 0 km/h
82 28-08-2009 16:17:02 25.4 C 6.12 g/m*3 25.4 C 0 km/h
83 28-08-2009 16:29:02 25.7 C 5.99 g/m*3 25.7 C 0 km/h
84 28-08-2009 16:41:02 25.7 C 5.99 g/m*3 25.7 C 0 km/h
85 28-08-2009 16:53:02 24.7 C 6.11 g/m*3 24.7 C 0 km/h
86 28-08-2009 17:05:02 24.9 C 5.95 g/m*3 24.9 C 0 km/h
87 28-08-2009 17:17:01 24.8 C 5.69 g/m*3 24.8 C 0 km/h
88 28-08-2009 17:29:01 24.7 C 5.66 g/m*3 24.7 C 0 km/h
89 28-08-2009 17:41:02 24.8 C 5.24 g/m*3 24.8 C 0 km/h
90 28-08-2009 17:53:02 23.7 C 5.35 g/m*3 23.7 C 0 km/h
91 28-08-2009 18:05:02 25.1 C 5.09 g/m*3 25.1 C 0 km/h
92 28-08-2009 18:17:02 24.8 C 4.55 g/m*3 24.8 C 0 km/h
93 28-08-2009 18:29:02 25.1 C 4.63 g/m*3 25.1 C 0 km/h
94 28-08-2009 18:41:02 24.5 C 4.48 g/m*3 24.5 C 0 km/h
95 28-08-2009 18:53:01 24 C 4.35 g/m*3 24 C 0 km/h
96 28-08-2009 19:05:02 23.7 C 4.92 g/m*3 23.7 C 0 km/h
97 28-08-2009 19:17:01 23.4 C 5.05 g/m*3 23.4 C 0 km/h
98 28-08-2009 19:29:01 22.9 C 5.11 g/m*3 22.9 C 0 km/h
99 28-08-2009 19:41:01 22.5 C 4.99 g/m*3 22.5 C 0 km/h
100 28-08-2009 19:53:01 22.4 C 5.16 g/m*3 22.4 C 0 km/h
Sensor: Nr:Datum:Temp:Abs-Feuchte:Windchill:Wind:
Aussen-T/F 101 28-08-2009 20:05:02 21.4 C 4.87 g/m*3 21.4 C 0 km/h
102 28-08-2009 20:17:01 20.8 C 5.25 g/m*3 20.8 C 0 km/h
103 28-08-2009 20:29:01 20.5 C 5.34 g/m*3 20.5 C 0 km/h
104 28-08-2009 20:41:02 20.2 C 5.42 g/m*3 20.2 C 0 km/h
105 28-08-2009 20:53:01 19.9 C 5.5 g/m*3 19.9 C 0 km/h
106 28-08-2009 21:05:02 19.7 C 5.43 g/m*3 19.7 C 0 km/h
107 28-08-2009 21:17:01 19.5 C 5.54 g/m*3 19.5 C 0 km/h
108 28-08-2009 21:29:01 19.4 C 5.34 g/m*3 19.4 C 0 km/h
109 28-08-2009 21:41:02 19.1 C 5.57 g/m*3 19.1 C 0 km/h
110 28-08-2009 21:53:01 18.9 C 5.67 g/m*3 18.9 C 0 km/h
111 28-08-2009 22:06:02 18.6 C 5.73 g/m*3 18.6 C 0 km/h
112 28-08-2009 22:18:02 18.4 C 5.98 g/m*3 18.4 C 0 km/h
113 28-08-2009 22:30:03 18.1 C 5.87 g/m*3 18.1 C 0 km/h
114 28-08-2009 22:42:03 17.9 C 6.11 g/m*3 17.9 C 0 km/h
115 28-08-2009 22:54:03 17.7 C 6.04 g/m*3 17.7 C 0 km/h
116 28-08-2009 23:06:03 17.8 C 6.07 g/m*3 17.8 C 0 km/h
117 28-08-2009 23:18:03 17.7 C 5.88 g/m*3 17.7 C 0 km/h
118 28-08-2009 23:30:03 17.6 C 5.85 g/m*3 17.6 C 0 km/h
119 28-08-2009 23:42:03 17.4 C 5.93 g/m*3 17.4 C 0 km/h
120 28-08-2009 23:54:03 17.4 C 5.93 g/m*3 17.4 C 0 km/h
121 29-08-2009 00:06:03 17.3 C 5.89 g/m*3 17.3 C 0 km/h
122 29-08-2009 00:18:03 16.9 C 6.04 g/m*3 16.9 C 0 km/h
123 29-08-2009 00:30:03 16.6 C 5.93 g/m*3 16.6 C 0 km/h
124 29-08-2009 00:42:03 16.5 C 6.04 g/m*3 16.5 C 0 km/h
125 29-08-2009 00:54:03 16.7 C 5.83 g/m*3 16.7 C 0 km/h
Sensor: Nr:Datum:Temp:Abs-Feuchte:Windchill:Wind:
Aussen-T/F 126 29-08-2009 01:06:03 16.9 C 5.9 g/m*3 16.9 C 0 km/h
127 29-08-2009 01:18:03 16.6 C 5.79 g/m*3 16.6 C 0 km/h
128 29-08-2009 01:30:03 16.2 C 5.79 g/m*3 16.2 C 0 km/h
129 29-08-2009 01:42:03 16 C 5.72 g/m*3 16 C 0 km/h
130 29-08-2009 01:54:03 15.9 C 5.82 g/m*3 15.9 C 0 km/h
131 29-08-2009 02:06:03 15.9 C 5.82 g/m*3 15.9 C 0 km/h
132 29-08-2009 02:18:03 15.7 C 5.75 g/m*3 15.7 C 0 km/h
133 29-08-2009 02:30:04 15.5 C 5.95 g/m*3 15.5 C 0 km/h
134 29-08-2009 02:42:04 15.1 C 5.93 g/m*3 15.1 C 0 km/h
135 29-08-2009 02:54:04 15 C 5.9 g/m*3 15 C 0 km/h
136 29-08-2009 03:06:04 15 C 5.9 g/m*3 15 C 0 km/h
137 29-08-2009 03:18:04 14.8 C 5.95 g/m*3 14.8 C 0 km/h
138 29-08-2009 03:30:04 14.7 C 5.92 g/m*3 14.7 C 0 km/h
139 29-08-2009 03:42:04 14.8 C 5.95 g/m*3 14.8 C 0 km/h
140 29-08-2009 03:54:04 14.7 C 6.04 g/m*3 14.7 C 0 km/h
141 29-08-2009 04:06:04 14.5 C 6.09 g/m*3 14.5 C 0 km/h
142 29-08-2009 04:18:04 14.4 C 6.18 g/m*3 14.4 C 0 km/h
143 29-08-2009 04:30:04 14.2 C 6.23 g/m*3 14.2 C 0 km/h
144 29-08-2009 04:42:04 14 C 6.39 g/m*3 14 C 0 km/h
145 29-08-2009 04:54:04 13.8 C 6.55 g/m*3 13.8 C 0 km/h
146 29-08-2009 05:06:04 13.8 C 6.67 g/m*3 13.8 C 0 km/h
147 29-08-2009 05:18:04 13.6 C 6.71 g/m*3 13.6 C 0 km/h
148 29-08-2009 05:30:04 13.6 C 6.71 g/m*3 13.6 C 0 km/h
149 29-08-2009 05:42:04 13.5 C 6.78 g/m*3 13.5 C 0 km/h
150 29-08-2009 05:54:04 13.5 C 6.78 g/m*3 13.5 C 0 km/h
Sensor: Nr:Datum:Temp:Abs-Feuchte:Windchill:Wind:
Aussen-T/F 151 29-08-2009 06:06:04 13.3 C 6.82 g/m*3 13.3 C 0 km/h
152 29-08-2009 06:18:04 13.2 C 6.89 g/m*3 13.2 C 0 km/h
153 29-08-2009 06:30:05 13 C 6.92 g/m*3 13 C 0 km/h
154 29-08-2009 06:42:05 12.8 C 7.06 g/m*3 12.8 C 0 km/h
155 29-08-2009 06:54:05 12.6 C 7.19 g/m*3 12.6 C 0 km/h
156 29-08-2009 07:06:05 12.7 C 7.24 g/m*3 12.7 C 0 km/h
157 29-08-2009 07:18:02 12.7 C 7.24 g/m*3 12.7 C 0 km/h
158 29-08-2009 07:30:02 12.7 C 7.35 g/m*3 12.7 C 0 km/h
159 29-08-2009 07:42:02 12.7 C 7.35 g/m*3 12.7 C 0 km/h
160 29-08-2009 07:54:01 12.8 C 7.39 g/m*3 12.8 C 0 km/h
161 29-08-2009 08:06:02 12.9 C 7.44 g/m*3 12.9 C 0 km/h
162 29-08-2009 08:18:01 13.1 C 7.42 g/m*3 13.1 C 0 km/h
163 29-08-2009 08:30:01 13.3 C 7.51 g/m*3 13.3 C 0 km/h
164 29-08-2009 08:42:01 13.7 C 7.58 g/m*3 13.7 C 0 km/h
165 29-08-2009 08:54:02 14 C 7.48 g/m*3 14 C 0 km/h
166 29-08-2009 09:06:02 14.5 C 7.46 g/m*3 14.5 C 0 km/h
167 29-08-2009 09:18:01 14.8 C 7.22 g/m*3 14.8 C 0 km/h
168 29-08-2009 09:30:01 15 C 7.05 g/m*3 15 C 0 km/h
169 29-08-2009 09:42:02 15 C 7.18 g/m*3 15 C 0 km/h
170 29-08-2009 09:54:02 15.6 C 7.05 g/m*3 15.6 C 0 km/h
171 29-08-2009 10:06:02 16.1 C 6.85 g/m*3 16.1 C 0 km/h
172 29-08-2009 10:18:01 16.6 C 6.78 g/m*3 16.6 C 0 km/h
173 29-08-2009 10:30:01 16.8 C 6.72 g/m*3 16.8 C 0 km/h
174 29-08-2009 10:42:02 17 C 6.8 g/m*3 17 C 0 km/h
175 29-08-2009 10:54:01 17.8 C 6.83 g/m*3 17.8 C 0 km/h
Sensor: Nr:Datum:Temp:Abs-Feuchte:Windchill:Wind:
Aussen-T/F 176 29-08-2009 11:06:02 17.9 C 6.26 g/m*3 17.9 C 0 km/h
177 29-08-2009 11:18:02 17.8 C 6.07 g/m*3 17.8 C 0 km/h
178 29-08-2009 11:30:02 18.1 C 5.87 g/m*3 18.1 C 0 km/h
179 29-08-2009 11:42:02 18.4 C 5.82 g/m*3 18.4 C 0 km/h
180 29-08-2009 11:54:01 18.4 C 5.5 g/m*3 18.4 C 0 km/h
181 29-08-2009 12:06:02 18.1 C 5.72 g/m*3 18.1 C 0 km/h
182 29-08-2009 12:18:02 18.4 C 5.98 g/m*3 18.4 C 0 km/h
183 29-08-2009 12:30:02 19.2 C 5.77 g/m*3 19.2 C 0 km/h
184 29-08-2009 12:42:02 19.1 C 5.57 g/m*3 19.1 C 0 km/h
185 29-08-2009 12:54:02 19.3 C 5.14 g/m*3 19.3 C 0 km/h
186 29-08-2009 13:06:01 19.4 C 5.34 g/m*3 19.4 C 0 km/h
187 29-08-2009 13:18:02 19.4 C 5.51 g/m*3 19.4 C 0 km/h
188 29-08-2009 13:30:02 20.5 C 5.16 g/m*3 20.5 C 0 km/h
189 29-08-2009 13:42:01 20.2 C 5.07 g/m*3 20.2 C 0 km/h
190 29-08-2009 13:54:02 19.6 C 5.06 g/m*3 19.6 C 0 km/h
191 29-08-2009 14:06:01 19.3 C 5.31 g/m*3 19.3 C 0 km/h
192 29-08-2009 14:18:02 20.6 C 5.19 g/m*3 20.6 C 0 km/h
193 29-08-2009 14:30:02 20 C 4.49 g/m*3 20 C 0 km/h
194 29-08-2009 14:42:01 20.4 C 4.95 g/m*3 20.4 C 0 km/h
195 29-08-2009 14:54:02 20.4 C 4.78 g/m*3 20.4 C 0 km/h
196 29-08-2009 15:06:02 20.8 C 4.89 g/m*3 20.8 C 0 km/h
197 29-08-2009 15:18:02 21.6 C 4.74 g/m*3 21.6 C 0 km/h
198 29-08-2009 15:30:02 22.6 C 4.22 g/m*3 22.6 C 0 km/h
199 29-08-2009 15:42:02 22.6 C 4.22 g/m*3 22.6 C 0 km/h
200 29-08-2009 15:54:02 21.3 C 4.1 g/m*3 21.3 C 0 km/h
Sensor: Nr:Datum:Temp:Abs-Feuchte:Windchill:Wind:
Aussen-T/F 201 29-08-2009 16:06:02 21.1 C 4.97 g/m*3 21.1 C 0 km/h
202 29-08-2009 16:18:01 20.9 C 5.46 g/m*3 20.9 C 0 km/h
203 29-08-2009 16:30:01 21 C 5.13 g/m*3 21 C 0 km/h
204 29-08-2009 16:42:02 21.5 C 5.28 g/m*3 21.5 C 0 km/h
205 29-08-2009 16:54:02 20.5 C 5.34 g/m*3 20.5 C 0 km/h
206 29-08-2009 17:06:02 20.4 C 5.31 g/m*3 20.4 C 0 km/h
207 29-08-2009 17:18:02 20.7 C 5.4 g/m*3 20.7 C 0 km/h
208 29-08-2009 17:30:02 21.5 C 5.09 g/m*3 21.5 C 0 km/h
209 29-08-2009 17:42:02 20.6 C 5.19 g/m*3 20.6 C 0 km/h
210 29-08-2009 17:54:01 20.7 C 5.04 g/m*3 20.7 C 0 km/h
211 29-08-2009 18:06:02 20.7 C 5.22 g/m*3 20.7 C 0 km/h
212 29-08-2009 18:18:01 20.3 C 5.1 g/m*3 20.3 C 0 km/h
213 29-08-2009 18:30:01 19.4 C 6.01 g/m*3 19.4 C 0 km/h
214 29-08-2009 18:42:01 15.8 C 9.02 g/m*3 15.8 C 0 km/h
215 29-08-2009 18:54:01 15.4 C 9.72 g/m*3 15.4 C 0 km/h
216 29-08-2009 19:06:02 16.6 C 10.17 g/m*3 16.6 C 0 km/h
217 29-08-2009 19:18:01 17.2 C 9.37 g/m*3 17.2 C 0 km/h
218 29-08-2009 19:30:01 17 C 9.12 g/m*3 17 C 0 km/h
219 29-08-2009 19:42:02 16.3 C 8.74 g/m*3 16.3 C 0 km/h
220 29-08-2009 19:54:02 15.6 C 8.51 g/m*3 15.6 C 0 km/h
221 29-08-2009 20:06:02 14.8 C 8.23 g/m*3 14.8 C 0 km/h
222 29-08-2009 20:18:01 14.2 C 7.94 g/m*3 14.2 C 0 km/h
223 29-08-2009 20:30:01 13.9 C 7.79 g/m*3 13.9 C 0 km/h
224 29-08-2009 20:42:02 13.6 C 7.53 g/m*3 13.6 C 0 km/h
225 29-08-2009 20:54:02 13.3 C 7.39 g/m*3 13.3 C 0 km/h
Sensor: Nr:Datum:Temp:Abs-Feuchte:Windchill:Wind:
Aussen-T/F 226 29-08-2009 21:06:02 13.2 C 7.12 g/m*3 13.2 C 0 km/h
227 29-08-2009 21:18:02 13.2 C 6.89 g/m*3 13.2 C 0 km/h
228 29-08-2009 21:30:02 13 C 6.8 g/m*3 13 C 0 km/h
229 29-08-2009 21:42:02 12.9 C 7.21 g/m*3 12.9 C 0 km/h
230 29-08-2009 21:54:02 13 C 6.69 g/m*3 13 C 0 km/h
231 29-08-2009 22:06:02 13 C 6.92 g/m*3 13 C 0 km/h
232 29-08-2009 22:18:02 12.8 C 6.94 g/m*3 12.8 C 0 km/h
233 29-08-2009 22:30:02 12.7 C 6.68 g/m*3 12.7 C 0 km/h
234 29-08-2009 22:42:02 12.5 C 6.71 g/m*3 12.5 C 0 km/h
235 29-08-2009 22:55:02 12.3 C 6.52 g/m*3 12.3 C 0 km/h
236 29-08-2009 23:07:02 12.3 C 6.62 g/m*3 12.3 C 0 km/h
237 29-08-2009 23:19:02 12.1 C 6.43 g/m*3 12.1 C 0 km/h
238 29-08-2009 23:31:02 12 C 6.61 g/m*3 12 C 0 km/h
239 29-08-2009 23:43:02 11.8 C 6.53 g/m*3 11.8 C 0 km/h
240 29-08-2009 23:55:02 11.8 C 6.53 g/m*3 11.8 C 0 km/h
241 30-08-2009 00:07:02 11.6 C 6.44 g/m*3 11.6 C 0 km/h
242 30-08-2009 00:19:02 11.5 C 6.4 g/m*3 11.5 C 0 km/h
243 30-08-2009 00:31:02 11.4 C 6.36 g/m*3 11.4 C 0 km/h
244 30-08-2009 00:43:02 11.2 C 6.39 g/m*3 11.2 C 0 km/h
245 30-08-2009 00:55:02 11 C 6.31 g/m*3 11 C 0 km/h
246 30-08-2009 01:07:02 10.8 C 6.33 g/m*3 10.8 C 0 km/h
247 30-08-2009 01:19:02 10.6 C 6.34 g/m*3 10.6 C 0 km/h
248 30-08-2009 01:31:02 10.4 C 6.36 g/m*3 10.4 C 0 km/h
249 30-08-2009 01:43:02 10.5 C 6.5 g/m*3 10.5 C 0 km/h
250 30-08-2009 01:55:02 10.4 C 6.46 g/m*3 10.4 C 0 km/h
Sensor: Nr:Datum:Temp:Abs-Feuchte:Windchill:Wind:
Aussen-T/F 251 30-08-2009 02:07:02 10.3 C 6.42 g/m*3 10.3 C 0 km/h
252 30-08-2009 02:19:02 10.4 C 6.46 g/m*3 10.4 C 0 km/h
253 30-08-2009 02:31:03 10.2 C 6.38 g/m*3 10.2 C 0 km/h
254 30-08-2009 02:43:03 9.9 C 6.44 g/m*3 9.9 C 0 km/h
255 30-08-2009 02:55:03 9.7 C 6.45 g/m*3 9.7 C 0 km/h
256 30-08-2009 03:07:03 9.5 C 6.55 g/m*3 9.5 C 0 km/h
257 30-08-2009 03:19:03 9.4 C 6.6 g/m*3 9.4 C 0 km/h
258 30-08-2009 03:31:03 9.3 C 6.56 g/m*3 9.3 C 0 km/h
259 30-08-2009 03:43:03 9.1 C 6.57 g/m*3 9.1 C 0 km/h
260 30-08-2009 03:55:03 9.1 C 6.65 g/m*3 9.1 C 0 km/h
261 30-08-2009 04:07:03 9.1 C 6.74 g/m*3 9.1 C 0 km/h
262 30-08-2009 04:19:03 8.9 C 6.75 g/m*3 8.9 C 0 km/h
263 30-08-2009 04:31:03 8.9 C 6.75 g/m*3 8.9 C 0 km/h
264 30-08-2009 04:43:03 8.7 C 6.66 g/m*3 8.7 C 0 km/h
265 30-08-2009 04:55:03 8.8 C 6.88 g/m*3 8.8 C 0 km/h
266 30-08-2009 05:07:03 8.8 C 7.05 g/m*3 8.8 C 0 km/h
267 30-08-2009 05:19:03 8.7 C 7.09 g/m*3 8.7 C 0 km/h
268 30-08-2009 05:31:03 8.7 C 7.01 g/m*3 8.7 C 0 km/h
269 30-08-2009 05:43:03 8.7 C 7.01 g/m*3 8.7 C 0 km/h
270 30-08-2009 05:55:03 8.6 C 6.96 g/m*3 8.6 C 0 km/h
271 30-08-2009 06:07:03 8.6 C 6.96 g/m*3 8.6 C 0 km/h
272 30-08-2009 06:19:03 8.6 C 7.05 g/m*3 8.6 C 0 km/h
273 30-08-2009 06:31:03 8.7 C 7.01 g/m*3 8.7 C 0 km/h
274 30-08-2009 06:43:04 8.6 C 6.87 g/m*3 8.6 C 0 km/h
275 30-08-2009 06:55:01 8.5 C 6.83 g/m*3 8.5 C 0 km/h
Sensor: Nr:Datum:Temp:Abs-Feuchte:Windchill:Wind:
Aussen-T/F 276 30-08-2009 07:07:02 8.6 C 6.96 g/m*3 8.6 C 0 km/h
277 30-08-2009 07:19:01 8.8 C 7.05 g/m*3 8.8 C 0 km/h
278 30-08-2009 07:31:01 9 C 6.88 g/m*3 9 C 0 km/h
279 30-08-2009 07:43:01 9.1 C 6.92 g/m*3 9.1 C 0 km/h
280 30-08-2009 07:55:01 9.6 C 7.15 g/m*3 9.6 C 0 km/h
281 30-08-2009 08:07:02 9.9 C 7.19 g/m*3 9.9 C 0 km/h
282 30-08-2009 08:19:02 10.3 C 7.09 g/m*3 10.3 C 0 km/h
283 30-08-2009 08:31:01 10.8 C 7.02 g/m*3 10.8 C 0 km/h
284 30-08-2009 08:43:01 11.2 C 6.99 g/m*3 11.2 C 0 km/h
285 30-08-2009 08:55:01 11.4 C 7.08 g/m*3 11.4 C 0 km/h
286 30-08-2009 09:07:02 11.7 C 7.22 g/m*3 11.7 C 0 km/h
287 30-08-2009 09:19:02 12.4 C 6.99 g/m*3 12.4 C 0 km/h
288 30-08-2009 09:31:02 12.8 C 7.06 g/m*3 12.8 C 0 km/h
289 30-08-2009 09:43:02 13.4 C 6.86 g/m*3 13.4 C 0 km/h
290 30-08-2009 09:55:02 13.8 C 6.91 g/m*3 13.8 C 0 km/h
291 30-08-2009 10:07:02 14.3 C 6.88 g/m*3 14.3 C 0 km/h
292 30-08-2009 10:19:01 14.7 C 6.55 g/m*3 14.7 C 0 km/h
293 30-08-2009 10:31:01 15.2 C 6.62 g/m*3 15.2 C 0 km/h
294 30-08-2009 10:43:01 15.7 C 6.42 g/m*3 15.7 C 0 km/h
295 30-08-2009 10:55:01 16.2 C 6.34 g/m*3 16.2 C 0 km/h
296 30-08-2009 11:07:02 16.6 C 6.07 g/m*3 16.6 C 0 km/h
297 30-08-2009 11:19:02 17 C 6.08 g/m*3 17 C 0 km/h
298 30-08-2009 11:31:01 17.7 C 6.19 g/m*3 17.7 C 0 km/h
299 30-08-2009 11:43:01 18.1 C 6.33 g/m*3 18.1 C 0 km/h
300 30-08-2009 11:55:01 18.4 C 6.29 g/m*3 18.4 C 0 km/h
Sensor: Nr:Datum:Temp:Abs-Feuchte:Windchill:Wind:
Aussen-T/F 301 30-08-2009 12:07:02 18.9 C 6.16 g/m*3 18.9 C 0 km/h
302 30-08-2009 12:19:02 19.2 C 5.94 g/m*3 19.2 C 0 km/h
303 30-08-2009 12:31:01 19.3 C 5.97 g/m*3 19.3 C 0 km/h
304 30-08-2009 12:43:01 20.1 C 5.91 g/m*3 20.1 C 0 km/h
305 30-08-2009 12:55:02 20.7 C 5.94 g/m*3 20.7 C 0 km/h
306 30-08-2009 13:07:01 20.8 C 5.61 g/m*3 20.8 C 0 km/h
307 30-08-2009 13:19:02 20.8 C 5.61 g/m*3 20.8 C 0 km/h
308 30-08-2009 13:31:01 21.4 C 5.62 g/m*3 21.4 C 0 km/h
309 30-08-2009 13:43:01 21.4 C 5.44 g/m*3 21.4 C 0 km/h
310 30-08-2009 13:55:02 22 C 5.24 g/m*3 22 C 0 km/h
311 30-08-2009 14:07:01 22.3 C 5.13 g/m*3 22.3 C 0 km/h
312 30-08-2009 14:19:01 22.9 C 4.7 g/m*3 22.9 C 0 km/h
313 30-08-2009 14:31:01 22.8 C 4.27 g/m*3 22.8 C 0 km/h
314 30-08-2009 14:43:01 23.5 C 4.23 g/m*3 23.5 C 0 km/h
315 30-08-2009 14:55:02 23.7 C 4.28 g/m*3 23.7 C 0 km/h
316 30-08-2009 15:07:02 23.9 C 4.33 g/m*3 23.9 C 0 km/h
317 30-08-2009 15:19:02 24.2 C 4.4 g/m*3 24.2 C 0 km/h
318 30-08-2009 15:31:02 24.5 C 4.48 g/m*3 24.5 C 0 km/h
319 30-08-2009 15:43:02 24.7 C 4.53 g/m*3 24.7 C 0 km/h
320 30-08-2009 15:55:02 25.4 C 4.71 g/m*3 25.4 C 0 km/h
321 30-08-2009 16:07:01 25.1 C 4.63 g/m*3 25.1 C 0 km/h
322 30-08-2009 16:19:02 26.3 C 4.95 g/m*3 26.3 C 0 km/h
323 30-08-2009 16:31:01 26.2 C 4.92 g/m*3 26.2 C 0 km/h
324 30-08-2009 16:43:01 26.1 C 4.9 g/m*3 26.1 C 0 km/h
325 30-08-2009 16:55:02 25.9 C 4.84 g/m*3 25.9 C 0 km/h
Sensor: Nr:Datum:Temp:Abs-Feuchte:Windchill:Wind:
Aussen-T/F 326 30-08-2009 17:07:01 26.2 C 4.92 g/m*3 26.2 C 0 km/h
327 30-08-2009 17:19:02 27.2 C 5.2 g/m*3 27.2 C 0 km/h
328 30-08-2009 17:31:02 27.2 C 5.2 g/m*3 27.2 C 0 km/h
329 30-08-2009 17:43:02 28.7 C 5.65 g/m*3 28.7 C 0 km/h
330 30-08-2009 17:55:02 27 C 5.15 g/m*3 27 C 0 km/h
331 30-08-2009 18:07:01 26.5 C 5.01 g/m*3 26.5 C 0 km/h
332 30-08-2009 18:19:01 26.9 C 5.12 g/m*3 26.9 C 0 km/h
333 30-08-2009 18:31:02 27.3 C 5.23 g/m*3 27.3 C 0 km/h
334 30-08-2009 18:43:02 26.8 C 5.09 g/m*3 26.8 C 0 km/h
335 30-08-2009 18:55:02 27.3 C 5.23 g/m*3 27.3 C 0 km/h
336 30-08-2009 19:07:02 26.7 C 5.06 g/m*3 26.7 C 0 km/h
337 30-08-2009 19:19:02 26.4 C 4.98 g/m*3 26.4 C 0 km/h
338 30-08-2009 19:31:02 26.6 C 5.03 g/m*3 26.6 C 0 km/h
339 30-08-2009 19:43:02 24.7 C 4.98 g/m*3 24.7 C 0 km/h
340 30-08-2009 19:55:01 23.9 C 5.62 g/m*3 23.9 C 0 km/h
341 30-08-2009 20:07:02 22.9 C 5.93 g/m*3 22.9 C 0 km/h
342 30-08-2009 20:19:01 21.7 C 6.1 g/m*3 21.7 C 0 km/h
343 30-08-2009 20:31:01 21 C 6.05 g/m*3 21 C 0 km/h
344 30-08-2009 20:43:01 20.3 C 6.33 g/m*3 20.3 C 0 km/h
345 30-08-2009 20:55:01 19.9 C 6.36 g/m*3 19.9 C 0 km/h
346 30-08-2009 21:08:03 19.5 C 6.55 g/m*3 19.5 C 0 km/h
347 30-08-2009 21:20:03 18.9 C 6.48 g/m*3 18.9 C 0 km/h
348 30-08-2009 21:32:03 18.4 C 6.61 g/m*3 18.4 C 0 km/h
349 30-08-2009 21:44:03 18.1 C 6.49 g/m*3 18.1 C 0 km/h
350 30-08-2009 21:56:03 17.9 C 6.72 g/m*3 17.9 C 0 km/h
Sensor: Nr:Datum:Temp:Abs-Feuchte:Windchill:Wind:
Aussen-T/F 351 30-08-2009 22:08:03 17.5 C 6.86 g/m*3 17.5 C 0 km/h
352 30-08-2009 22:20:03 17.4 C 6.82 g/m*3 17.4 C 0 km/h
353 30-08-2009 22:32:03 17 C 6.8 g/m*3 17 C 0 km/h
354 30-08-2009 22:44:03 16.8 C 6.86 g/m*3 16.8 C 0 km/h
355 30-08-2009 22:56:03 16.7 C 6.82 g/m*3 16.7 C 0 km/h
356 30-08-2009 23:08:03 16.4 C 6.7 g/m*3 16.4 C 0 km/h
357 30-08-2009 23:20:03 16 C 6.68 g/m*3 16 C 0 km/h
358 30-08-2009 23:32:03 15.8 C 6.87 g/m*3 15.8 C 0 km/h
359 30-08-2009 23:44:03 15.6 C 6.92 g/m*3 15.6 C 0 km/h
360 30-08-2009 23:56:03 15.4 C 6.96 g/m*3 15.4 C 0 km/h
361 31-08-2009 00:08:03 15.1 C 6.97 g/m*3 15.1 C 0 km/h
362 31-08-2009 00:20:03 14.8 C 7.09 g/m*3 14.8 C 0 km/h
363 31-08-2009 00:32:03 14.7 C 7.05 g/m*3 14.7 C 0 km/h
364 31-08-2009 00:44:03 14.5 C 7.09 g/m*3 14.5 C 0 km/h
365 31-08-2009 00:56:04 14.3 C 7 g/m*3 14.3 C 0 km/h
366 31-08-2009 01:08:04 14.1 C 7.28 g/m*3 14.1 C 0 km/h
367 31-08-2009 01:20:04 13.9 C 7.19 g/m*3 13.9 C 0 km/h
368 31-08-2009 01:32:04 13.7 C 7.22 g/m*3 13.7 C 0 km/h
369 31-08-2009 01:44:04 13.6 C 7.18 g/m*3 13.6 C 0 km/h
370 31-08-2009 01:56:04 13.4 C 7.21 g/m*3 13.4 C 0 km/h
371 31-08-2009 02:08:04 13.2 C 7.12 g/m*3 13.2 C 0 km/h
372 31-08-2009 02:20:04 13 C 7.14 g/m*3 13 C 0 km/h
373 31-08-2009 02:32:04 12.9 C 7.21 g/m*3 12.9 C 0 km/h
374 31-08-2009 02:44:04 12.6 C 7.19 g/m*3 12.6 C 0 km/h
375 31-08-2009 02:56:04 12.4 C 7.21 g/m*3 12.4 C 0 km/h
Sensor: Nr:Datum:Temp:Abs-Feuchte:Windchill:Wind:
Aussen-T/F 376 31-08-2009 03:08:04 12.3 C 7.17 g/m*3 12.3 C 0 km/h
377 31-08-2009 03:20:04 12.2 C 7.12 g/m*3 12.2 C 0 km/h
378 31-08-2009 03:32:04 12.2 C 7.12 g/m*3 12.2 C 0 km/h
379 31-08-2009 03:44:04 12.3 C 7.28 g/m*3 12.3 C 0 km/h
380 31-08-2009 03:56:04 12 C 7.25 g/m*3 12 C 0 km/h
381 31-08-2009 04:08:04 11.7 C 7.22 g/m*3 11.7 C 0 km/h
382 31-08-2009 04:20:04 11.6 C 7.17 g/m*3 11.6 C 0 km/h
383 31-08-2009 04:32:04 11.5 C 7.13 g/m*3 11.5 C 0 km/h
384 31-08-2009 04:44:05 11.4 C 7.08 g/m*3 11.4 C 0 km/h
385 31-08-2009 04:56:05 11.2 C 6.99 g/m*3 11.2 C 0 km/h
386 31-08-2009 05:08:05 11.1 C 7.05 g/m*3 11.1 C 0 km/h
387 31-08-2009 05:20:05 10.9 C 7.16 g/m*3 10.9 C 0 km/h
388 31-08-2009 05:32:05 10.8 C 7.12 g/m*3 10.8 C 0 km/h
389 31-08-2009 05:44:05 10.6 C 7.03 g/m*3 10.6 C 0 km/h
390 31-08-2009 05:56:05 10.6 C 7.03 g/m*3 10.6 C 0 km/h
391 31-08-2009 06:08:05 10.5 C 7.08 g/m*3 10.5 C 0 km/h
392 31-08-2009 06:20:05 10.3 C 7.09 g/m*3 10.3 C 0 km/h
393 31-08-2009 06:32:05 10.1 C 7 g/m*3 10.1 C 0 km/h
394 31-08-2009 06:44:05 10.1 C 7 g/m*3 10.1 C 0 km/h
395 31-08-2009 06:56:05 10.1 C 7 g/m*3 10.1 C 0 km/h
396 31-08-2009 07:08:05 10.2 C 7.04 g/m*3 10.2 C 0 km/h
397 31-08-2009 07:20:05 10.2 C 7.04 g/m*3 10.2 C 0 km/h
398 31-08-2009 07:32:05 10.2 C 7.04 g/m*3 10.2 C 0 km/h
399 31-08-2009 07:44:05 10.3 C 7.09 g/m*3 10.3 C 0 km/h
400 31-08-2009 07:56:05 10.4 C 7.13 g/m*3 10.4 C 0 km/h
Sensor: Nr:Datum:Temp:Abs-Feuchte:Windchill:Wind:
Aussen-T/F 401 31-08-2009 08:08:05 10.4 C 7.13 g/m*3 10.4 C 0 km/h
402 31-08-2009 08:20:05 10.5 C 7.18 g/m*3 10.5 C 0 km/h
403 31-08-2009 08:32:05 10.8 C 7.31 g/m*3 10.8 C 0 km/h
404 31-08-2009 08:44:06 11 C 7.21 g/m*3 11 C 0 km/h
405 31-08-2009 08:56:06 11.2 C 7.2 g/m*3 11.2 C 0 km/h
406 31-08-2009 09:08:06 11.5 C 7.33 g/m*3 11.5 C 0 km/h
407 31-08-2009 09:20:03 11.9 C 7.52 g/m*3 11.9 C 0 km/h
408 31-08-2009 09:32:03 12.5 C 7.59 g/m*3 12.5 C 0 km/h
409 31-08-2009 09:44:03 13.2 C 7.46 g/m*3 13.2 C 0 km/h
410 31-08-2009 09:56:02 13.9 C 7.43 g/m*3 13.9 C 0 km/h
411 31-08-2009 10:08:02 14.7 C 7.43 g/m*3 14.7 C 0 km/h
412 31-08-2009 10:20:02 15.6 C 7.45 g/m*3 15.6 C 0 km/h
413 31-08-2009 10:32:01 16.4 C 7.54 g/m*3 16.4 C 0 km/h
414 31-08-2009 10:44:01 17.1 C 7.42 g/m*3 17.1 C 0 km/h
415 31-08-2009 10:56:02 17.8 C 7.59 g/m*3 17.8 C 0 km/h
416 31-08-2009 11:08:01 18.5 C 7.59 g/m*3 18.5 C 0 km/h
417 31-08-2009 11:20:02 19.1 C 7.54 g/m*3 19.1 C 0 km/h
418 31-08-2009 11:32:01 19.7 C 7.64 g/m*3 19.7 C 0 km/h
419 31-08-2009 11:44:01 20.2 C 7.87 g/m*3 20.2 C 0 km/h
420 31-08-2009 11:56:02 21.1 C 7.37 g/m*3 21.1 C 0 km/h
421 31-08-2009 12:08:01 21.9 C 7.53 g/m*3 21.9 C 0 km/h
422 31-08-2009 12:20:01 22.5 C 7.39 g/m*3 22.5 C 0 km/h
423 31-08-2009 12:32:01 22.9 C 6.34 g/m*3 22.9 C 0 km/h
424 31-08-2009 12:44:01 23.4 C 6.52 g/m*3 23.4 C 0 km/h
425 31-08-2009 12:56:02 23.7 C 5.56 g/m*3 23.7 C 0 km/h
Sensor: Nr:Datum:Temp:Abs-Feuchte:Windchill:Wind:
Aussen-T/F 426 31-08-2009 13:08:02 24.5 C 5.82 g/m*3 24.5 C 0 km/h
427 31-08-2009 13:20:02 24.9 C 6.18 g/m*3 24.9 C 0 km/h
428 31-08-2009 13:32:02 25.6 C 5.71 g/m*3 25.6 C 0 km/h
429 31-08-2009 13:44:02 25.9 C 5.57 g/m*3 25.9 C 0 km/h
430 31-08-2009 13:56:02 26.6 C 5.54 g/m*3 26.6 C 0 km/h
431 31-08-2009 14:08:01 26.9 C 5.37 g/m*3 26.9 C 0 km/h
432 31-08-2009 14:20:01 27.3 C 5.23 g/m*3 27.3 C 0 km/h
433 31-08-2009 14:32:02 28 C 5.44 g/m*3 28 C 0 km/h
434 31-08-2009 14:44:02 28.2 C 5.5 g/m*3 28.2 C 0 km/h
435 31-08-2009 14:56:02 28.7 C 5.65 g/m*3 28.7 C 0 km/h
436 31-08-2009 15:08:02 28.4 C 5.56 g/m*3 28.4 C 0 km/h
437 31-08-2009 15:20:02 28.5 C 5.59 g/m*3 28.5 C 0 km/h
438 31-08-2009 15:32:02 29.2 C 5.81 g/m*3 29.2 C 0 km/h
439 31-08-2009 15:44:02 29.5 C 5.9 g/m*3 29.5 C 0 km/h
440 31-08-2009 15:56:01 30 C 6.06 g/m*3 30 C 0 km/h
441 31-08-2009 16:08:02 30.6 C 6.26 g/m*3 30.6 C 0 km/h
442 31-08-2009 16:20:01 31 C 6.4 g/m*3 31 C 0 km/h
443 31-08-2009 16:32:01 31.6 C 6.61 g/m*3 31.6 C 0 km/h
444 31-08-2009 16:44:02 31.5 C 6.57 g/m*3 31.5 C 0 km/h
445 31-08-2009 16:56:01 31.9 C 6.72 g/m*3 31.9 C 0 km/h
446 31-08-2009 17:08:02 31.7 C 6.64 g/m*3 31.7 C 0 km/h
447 31-08-2009 17:20:01 31.9 C 6.72 g/m*3 31.9 C 0 km/h
448 31-08-2009 17:32:02 31.9 C 6.72 g/m*3 31.9 C 0 km/h
449 31-08-2009 17:44:02 31.7 C 6.64 g/m*3 31.7 C 0 km/h
450 31-08-2009 17:56:02 31.7 C 6.64 g/m*3 31.7 C 0 km/h
Sensor: Nr:Datum:Temp:Abs-Feuchte:Windchill:Wind:
Aussen-T/F 451 31-08-2009 18:08:02 31.8 C 6.68 g/m*3 31.8 C 0 km/h
452 31-08-2009 18:20:01 31.7 C 6.64 g/m*3 31.7 C 0 km/h
453 31-08-2009 18:32:02 31.4 C 6.54 g/m*3 31.4 C 0 km/h
454 31-08-2009 18:44:02 31.5 C 6.57 g/m*3 31.5 C 0 km/h
455 31-08-2009 18:56:01 31 C 6.4 g/m*3 31 C 0 km/h
456 31-08-2009 19:08:02 30.9 C 6.37 g/m*3 30.9 C 0 km/h
457 31-08-2009 19:20:02 30.7 C 6.3 g/m*3 30.7 C 0 km/h
458 31-08-2009 19:32:02 30.3 C 6.16 g/m*3 30.3 C 0 km/h
459 31-08-2009 19:44:02 29.1 C 5.78 g/m*3 29.1 C 0 km/h
460 31-08-2009 19:56:01 27.2 C 5.46 g/m*3 27.2 C 0 km/h
461 31-08-2009 20:08:02 25.6 C 5.71 g/m*3 25.6 C 0 km/h
462 31-08-2009 20:20:02 24.5 C 5.6 g/m*3 24.5 C 0 km/h
463 31-08-2009 20:32:02 23.7 C 5.56 g/m*3 23.7 C 0 km/h
464 31-08-2009 20:44:02 22.9 C 5.52 g/m*3 22.9 C 0 km/h
465 31-08-2009 20:56:02 22.6 C 5.62 g/m*3 22.6 C 0 km/h
466 31-08-2009 21:08:02 22.3 C 5.53 g/m*3 22.3 C 0 km/h
467 31-08-2009 21:20:02 21.8 C 5.76 g/m*3 21.8 C 0 km/h
468 31-08-2009 21:32:01 21.5 C 5.66 g/m*3 21.5 C 0 km/h
469 31-08-2009 21:44:01 21.2 C 5.56 g/m*3 21.2 C 0 km/h
470 31-08-2009 21:57:02 20.8 C 5.79 g/m*3 20.8 C 0 km/h
471 31-08-2009 22:09:02 20.5 C 5.69 g/m*3 20.5 C 0 km/h
472 31-08-2009 22:21:03 20.2 C 5.77 g/m*3 20.2 C 0 km/h
473 31-08-2009 22:33:03 19.9 C 6.01 g/m*3 19.9 C 0 km/h
474 31-08-2009 22:45:03 19.7 C 5.94 g/m*3 19.7 C 0 km/h
475 31-08-2009 22:57:03 19.5 C 6.04 g/m*3 19.5 C 0 km/h
Sensor: Nr:Datum:Temp:Abs-Feuchte:Windchill:Wind:
Aussen-T/F 476 31-08-2009 23:09:03 19.2 C 6.27 g/m*3 19.2 C 0 km/h
477 31-08-2009 23:21:03 18.9 C 6.48 g/m*3 18.9 C 0 km/h
478 31-08-2009 23:33:03 18.6 C 6.68 g/m*3 18.6 C 0 km/h
479 31-08-2009 23:45:03 18.3 C 6.57 g/m*3 18.3 C 0 km/h
480 31-08-2009 23:57:03 18.1 C 6.49 g/m*3 18.1 C 0 km/h
481 01-09-2009 00:09:03 17.9 C 6.57 g/m*3 17.9 C 0 km/h
482 01-09-2009 00:21:03 17.7 C 6.79 g/m*3 17.7 C 0 km/h
483 01-09-2009 00:33:03 17.3 C 6.78 g/m*3 17.3 C 0 km/h
484 01-09-2009 00:45:03 17.2 C 6.74 g/m*3 17.2 C 0 km/h
485 01-09-2009 00:57:03 16.9 C 6.9 g/m*3 16.9 C 0 km/h
486 01-09-2009 01:09:03 16.8 C 6.86 g/m*3 16.8 C 0 km/h
487 01-09-2009 01:21:03 16.6 C 6.92 g/m*3 16.6 C 0 km/h
488 01-09-2009 01:33:03 16.4 C 6.84 g/m*3 16.4 C 0 km/h
489 01-09-2009 01:45:03 16.2 C 6.9 g/m*3 16.2 C 0 km/h
490 01-09-2009 01:57:03 16.1 C 7.13 g/m*3 16.1 C 0 km/h
491 01-09-2009 02:09:03 16.2 C 7.17 g/m*3 16.2 C 0 km/h
492 01-09-2009 02:21:04 15.9 C 7.31 g/m*3 15.9 C 0 km/h
493 01-09-2009 02:33:04 15.8 C 7.27 g/m*3 15.8 C 0 km/h
494 01-09-2009 02:45:04 15.6 C 7.31 g/m*3 15.6 C 0 km/h
495 01-09-2009 02:57:04 15.5 C 7.27 g/m*3 15.5 C 0 km/h
496 01-09-2009 03:09:04 15.4 C 7.09 g/m*3 15.4 C 0 km/h
497 01-09-2009 03:21:04 15.4 C 6.96 g/m*3 15.4 C 0 km/h
498 01-09-2009 03:33:04 15.4 C 7.09 g/m*3 15.4 C 0 km/h
499 01-09-2009 03:45:04 15.2 C 7.01 g/m*3 15.2 C 0 km/h
500 01-09-2009 03:57:04 15.2 C 7.4 g/m*3 15.2 C 0 km/h
Sensor: Nr:Datum:Temp:Abs-Feuchte:Windchill:Wind:
Aussen-T/F 501 01-09-2009 04:09:04 14.9 C 7.39 g/m*3 14.9 C 0 km/h
502 01-09-2009 04:21:04 14.8 C 7.6 g/m*3 14.8 C 0 km/h
503 01-09-2009 04:33:04 14.7 C 7.55 g/m*3 14.7 C 0 km/h
504 01-09-2009 04:45:04 14.4 C 7.54 g/m*3 14.4 C 0 km/h
505 01-09-2009 04:57:04 14.2 C 7.57 g/m*3 14.2 C 0 km/h
506 01-09-2009 05:09:04 14.3 C 7.62 g/m*3 14.3 C 0 km/h
507 01-09-2009 05:21:04 14.2 C 7.57 g/m*3 14.2 C 0 km/h
508 01-09-2009 05:33:04 14.1 C 7.65 g/m*3 14.1 C 0 km/h
509 01-09-2009 05:45:04 14 C 7.72 g/m*3 14 C 0 km/h
510 01-09-2009 05:57:04 13.9 C 7.79 g/m*3 13.9 C 0 km/h
511 01-09-2009 06:09:04 13.8 C 7.74 g/m*3 13.8 C 0 km/h
512 01-09-2009 06:21:04 13.7 C 7.82 g/m*3 13.7 C 0 km/h
513 01-09-2009 06:33:05 13.6 C 8 g/m*3 13.6 C 0 km/h
514 01-09-2009 06:45:05 13.5 C 8.07 g/m*3 13.5 C 0 km/h
515 01-09-2009 06:57:05 13.5 C 8.07 g/m*3 13.5 C 0 km/h
516 01-09-2009 07:09:01 13.6 C 8.24 g/m*3 13.6 C 0 km/h
517 01-09-2009 07:21:02 13.8 C 8.34 g/m*3 13.8 C 0 km/h
518 01-09-2009 07:33:02 13.9 C 8.39 g/m*3 13.9 C 0 km/h
519 01-09-2009 07:45:02 14 C 8.32 g/m*3 14 C 0 km/h
520 01-09-2009 07:57:03 14.1 C 8.37 g/m*3 14.1 C 0 km/h
521 01-09-2009 08:09:02 14.2 C 8.3 g/m*3 14.2 C 0 km/h
522 01-09-2009 08:21:02 14.4 C 8.53 g/m*3 14.4 C 0 km/h
523 01-09-2009 08:33:02 14.4 C 8.41 g/m*3 14.4 C 0 km/h
524 01-09-2009 08:45:02 15.1 C 8.77 g/m*3 15.1 C 0 km/h
525 01-09-2009 08:57:02 15.5 C 8.86 g/m*3 15.5 C 0 km/h
Sensor: Nr:Datum:Temp:Abs-Feuchte:Windchill:Wind:
Aussen-T/F 526 01-09-2009 09:09:02 15.9 C 8.94 g/m*3 15.9 C 0 km/h
527 01-09-2009 09:21:02 16.4 C 9.07 g/m*3 16.4 C 0 km/h
528 01-09-2009 09:33:01 17 C 8.97 g/m*3 17 C 0 km/h
529 01-09-2009 09:45:02 17.7 C 9.2 g/m*3 17.7 C 0 km/h
530 01-09-2009 09:57:02 18.2 C 9.17 g/m*3 18.2 C 0 km/h
531 01-09-2009 10:09:01 18.9 C 9.23 g/m*3 18.9 C 0 km/h
532 01-09-2009 10:21:01 19.6 C 9.45 g/m*3 19.6 C 0 km/h
533 01-09-2009 10:33:01 20.6 C 9.84 g/m*3 20.6 C 0 km/h
534 01-09-2009 10:45:02 23.2 C 9.77 g/m*3 23.2 C 0 km/h
535 01-09-2009 10:57:02 24.4 C 9.12 g/m*3 24.4 C 0 km/h
536 01-09-2009 11:09:01 25 C 8.98 g/m*3 25 C 0 km/h
537 01-09-2009 11:21:02 25.4 C 8.95 g/m*3 25.4 C 0 km/h
538 01-09-2009 11:33:02 25.7 C 8.86 g/m*3 25.7 C 0 km/h
539 01-09-2009 11:45:01 26.4 C 8.96 g/m*3 26.4 C 0 km/h
540 01-09-2009 11:57:01 26.6 C 8.81 g/m*3 26.6 C 0 km/h
541 01-09-2009 12:09:02 27.5 C 8.47 g/m*3 27.5 C 0 km/h
542 01-09-2009 12:21:01 28.3 C 8.29 g/m*3 28.3 C 0 km/h
543 01-09-2009 12:33:02 28.8 C 8.52 g/m*3 28.8 C 0 km/h
544 01-09-2009 12:45:02 28.7 C 8.48 g/m*3 28.7 C 0 km/h
545 01-09-2009 12:57:02 28.9 C 8.28 g/m*3 28.9 C 0 km/h
546 01-09-2009 13:09:02 29.1 C 8.09 g/m*3 29.1 C 0 km/h
547 01-09-2009 13:21:01 29.2 C 8.13 g/m*3 29.2 C 0 km/h
548 01-09-2009 13:33:02 29.1 C 8.66 g/m*3 29.1 C 0 km/h
549 01-09-2009 13:45:02 30 C 8.49 g/m*3 30 C 0 km/h
550 01-09-2009 13:57:02 29.9 C 8.45 g/m*3 29.9 C 0 km/h
Sensor: Nr:Datum:Temp:Abs-Feuchte:Windchill:Wind:
Aussen-T/F 551 01-09-2009 14:09:02 29.5 C 8.26 g/m*3 29.5 C 0 km/h
552 01-09-2009 14:21:01 29.4 C 8.51 g/m*3 29.4 C 0 km/h
553 01-09-2009 14:33:02 30.1 C 8.54 g/m*3 30.1 C 0 km/h
554 01-09-2009 14:45:02 29.9 C 8.14 g/m*3 29.9 C 0 km/h
555 01-09-2009 14:57:02 30.2 C 8.28 g/m*3 30.2 C 0 km/h
556 01-09-2009 15:09:02 29.5 C 8.26 g/m*3 29.5 C 0 km/h
557 01-09-2009 15:21:01 28.3 C 8.57 g/m*3 28.3 C 0 km/h
558 01-09-2009 15:33:02 27.8 C 8.61 g/m*3 27.8 C 0 km/h
559 01-09-2009 15:45:02 27.7 C 8.83 g/m*3 27.7 C 0 km/h
560 01-09-2009 15:57:02 27.1 C 8.8 g/m*3 27.1 C 0 km/h
561 01-09-2009 16:09:02 25.2 C 10.01 g/m*3 25.2 C 0 km/h
562 01-09-2009 16:21:02 24.2 C 11 g/m*3 24.2 C 0 km/h
563 01-09-2009 16:33:02 23.4 C 11.57 g/m*3 23.4 C 0 km/h
564 01-09-2009 16:45:02 23.1 C 11.37 g/m*3 23.1 C 0 km/h
565 01-09-2009 16:57:02 22.9 C 12.06 g/m*3 22.9 C 0 km/h
566 01-09-2009 17:09:02 21.4 C 12.94 g/m*3 21.4 C 0 km/h
567 01-09-2009 17:21:02 20.8 C 13.4 g/m*3 20.8 C 0 km/h
568 01-09-2009 17:33:01 20.5 C 14.06 g/m*3 20.5 C 0 km/h
569 01-09-2009 17:45:02 20.3 C 14.07 g/m*3 20.3 C 0 km/h
570 01-09-2009 17:57:02 20.3 C 14.25 g/m*3 20.3 C 0 km/h
571 01-09-2009 18:09:01 20.1 C 14.08 g/m*3 20.1 C 0 km/h
572 01-09-2009 18:21:02 20.1 C 14.25 g/m*3 20.1 C 0 km/h
573 01-09-2009 18:33:01 20 C 14.34 g/m*3 20 C 0 km/h
574 01-09-2009 18:45:02 19.9 C 14.43 g/m*3 19.9 C 0 km/h
575 01-09-2009 18:57:02 20.1 C 14.6 g/m*3 20.1 C 0 km/h
Sensor: Nr:Datum:Temp:Abs-Feuchte:Windchill:Wind:
Aussen-T/F 576 01-09-2009 19:09:02 20 C 14.52 g/m*3 20 C 0 km/h
577 01-09-2009 19:21:02 19.8 C 14.52 g/m*3 19.8 C 0 km/h
578 01-09-2009 19:33:03 20.1 C 14.78 g/m*3 20.1 C 0 km/h
579 01-09-2009 19:45:02 19.9 C 14.78 g/m*3 19.9 C 0 km/h
580 01-09-2009 19:57:02 20 C 14.52 g/m*3 20 C 0 km/h
581 01-09-2009 20:09:02 19.7 C 14.43 g/m*3 19.7 C 0 km/h
582 01-09-2009 20:21:02 19.8 C 14.52 g/m*3 19.8 C 0 km/h
583 01-09-2009 20:33:02 20 C 14.34 g/m*3 20 C 0 km/h
584 01-09-2009 20:45:02 19.8 C 14.35 g/m*3 19.8 C 0 km/h
585 01-09-2009 20:57:02 19.8 C 14.18 g/m*3 19.8 C 0 km/h
586 01-09-2009 21:10:02 19.8 C 14.18 g/m*3 19.8 C 0 km/h
587 01-09-2009 21:22:02 19.7 C 13.92 g/m*3 19.7 C 0 km/h
588 01-09-2009 21:34:02 19.7 C 13.92 g/m*3 19.7 C 0 km/h
589 01-09-2009 21:46:02 19.7 C 13.58 g/m*3 19.7 C 0 km/h
590 01-09-2009 21:58:02 19.5 C 13.26 g/m*3 19.5 C 0 km/h
591 01-09-2009 22:10:02 19.6 C 13.51 g/m*3 19.6 C 0 km/h
592 01-09-2009 22:22:02 19.5 C 13.43 g/m*3 19.5 C 0 km/h
593 01-09-2009 22:34:02 19.7 C 13.41 g/m*3 19.7 C 0 km/h
594 01-09-2009 22:46:02 19.7 C 13.25 g/m*3 19.7 C 0 km/h
595 01-09-2009 22:58:02 19.4 C 13.18 g/m*3 19.4 C 0 km/h
596 01-09-2009 23:10:02 19.3 C 13.27 g/m*3 19.3 C 0 km/h
597 01-09-2009 23:22:03 19.4 C 13.01 g/m*3 19.4 C 0 km/h
598 01-09-2009 23:34:03 19.1 C 12.62 g/m*3 19.1 C 0 km/h
599 01-09-2009 23:46:03 18.7 C 12.65 g/m*3 18.7 C 0 km/h
600 01-09-2009 23:58:03 18.5 C 12.66 g/m*3 18.5 C 0 km/h
Sensor: Nr:Datum:Temp:Abs-Feuchte:Windchill:Wind:
Aussen-T/F 601 02-09-2009 00:10:03 18.8 C 13.05 g/m*3 18.8 C 0 km/h
602 02-09-2009 00:22:03 18.6 C 12.73 g/m*3 18.6 C 0 km/h
603 02-09-2009 00:34:03 18.4 C 12.74 g/m*3 18.4 C 0 km/h
604 02-09-2009 00:46:03 18.2 C 12.59 g/m*3 18.2 C 0 km/h
605 02-09-2009 00:58:03 17.8 C 12.6 g/m*3 17.8 C 0 km/h
606 02-09-2009 01:10:03 17.6 C 12.6 g/m*3 17.6 C 0 km/h
607 02-09-2009 01:22:03 17.3 C 12.23 g/m*3 17.3 C 0 km/h
608 02-09-2009 01:34:03 17.2 C 12.01 g/m*3 17.2 C 0 km/h
609 02-09-2009 01:46:03 17.2 C 11.72 g/m*3 17.2 C 0 km/h
610 02-09-2009 01:58:03 17.2 C 11.72 g/m*3 17.2 C 0 km/h
611 02-09-2009 02:10:03 17 C 11.58 g/m*3 17 C 0 km/h
612 02-09-2009 02:22:03 17 C 11.29 g/m*3 17 C 0 km/h
613 02-09-2009 02:34:03 16.8 C 11.15 g/m*3 16.8 C 0 km/h
614 02-09-2009 02:46:03 16.8 C 11.15 g/m*3 16.8 C 0 km/h
615 02-09-2009 02:58:03 16.7 C 11.08 g/m*3 16.7 C 0 km/h
616 02-09-2009 03:10:04 16.4 C 11.17 g/m*3 16.4 C 0 km/h
617 02-09-2009 03:22:04 16.2 C 11.17 g/m*3 16.2 C 0 km/h
618 02-09-2009 03:34:04 16.4 C 11.31 g/m*3 16.4 C 0 km/h
619 02-09-2009 03:46:04 16.6 C 11.44 g/m*3 16.6 C 0 km/h
620 02-09-2009 03:58:04 16.4 C 11.17 g/m*3 16.4 C 0 km/h
621 02-09-2009 04:10:04 16.2 C 11.03 g/m*3 16.2 C 0 km/h
622 02-09-2009 04:22:04 15.9 C 11.1 g/m*3 15.9 C 0 km/h
623 02-09-2009 04:34:04 15.9 C 11.1 g/m*3 15.9 C 0 km/h
624 02-09-2009 04:46:04 15.8 C 11.04 g/m*3 15.8 C 0 km/h
625 02-09-2009 04:58:04 15.6 C 11.04 g/m*3 15.6 C 0 km/h
Sensor: Nr:Datum:Temp:Abs-Feuchte:Windchill:Wind:
Aussen-T/F 626 02-09-2009 05:10:04 15.5 C 10.97 g/m*3 15.5 C 0 km/h
627 02-09-2009 05:22:04 15.4 C 11.04 g/m*3 15.4 C 0 km/h
628 02-09-2009 05:34:04 15.2 C 10.9 g/m*3 15.2 C 0 km/h
629 02-09-2009 05:46:04 15.2 C 11.03 g/m*3 15.2 C 0 km/h
630 02-09-2009 05:58:04 15.3 C 11.1 g/m*3 15.3 C 0 km/h
631 02-09-2009 06:10:04 15.3 C 11.1 g/m*3 15.3 C 0 km/h
632 02-09-2009 06:22:04 15.2 C 10.9 g/m*3 15.2 C 0 km/h
633 02-09-2009 06:34:03 15.1 C 10.84 g/m*3 15.1 C 0 km/h
634 02-09-2009 06:46:02 15 C 10.77 g/m*3 15 C 0 km/h
635 02-09-2009 06:58:03 15.1 C 10.84 g/m*3 15.1 C 0 km/h
636 02-09-2009 07:10:01 15.2 C 10.77 g/m*3 15.2 C 0 km/h
637 02-09-2009 07:22:01 15.1 C 10.71 g/m*3 15.1 C 0 km/h
638 02-09-2009 07:34:02 15.1 C 10.71 g/m*3 15.1 C 0 km/h
639 02-09-2009 07:46:02 15.3 C 10.84 g/m*3 15.3 C 0 km/h
640 02-09-2009 07:58:02 15.5 C 10.97 g/m*3 15.5 C 0 km/h
641 02-09-2009 08:10:02 15.7 C 10.97 g/m*3 15.7 C 0 km/h
642 02-09-2009 08:22:02 15.8 C 10.9 g/m*3 15.8 C 0 km/h
643 02-09-2009 08:34:02 16 C 10.76 g/m*3 16 C 0 km/h
644 02-09-2009 08:46:01 16.5 C 10.81 g/m*3 16.5 C 0 km/h
645 02-09-2009 08:58:01 17 C 10.71 g/m*3 17 C 0 km/h
646 02-09-2009 09:10:02 17.2 C 10.54 g/m*3 17.2 C 0 km/h
647 02-09-2009 09:22:02 17.5 C 10.29 g/m*3 17.5 C 0 km/h
648 02-09-2009 09:34:01 17.9 C 10.38 g/m*3 17.9 C 0 km/h
649 02-09-2009 09:46:02 18.2 C 9.79 g/m*3 18.2 C 0 km/h
650 02-09-2009 09:58:02 18.4 C 9.59 g/m*3 18.4 C 0 km/h
Sensor: Nr:Datum:Temp:Abs-Feuchte:Windchill:Wind:
Aussen-T/F 651 02-09-2009 10:10:02 18.7 C 9.61 g/m*3 18.7 C 0 km/h
652 02-09-2009 10:22:02 18.9 C 9.56 g/m*3 18.9 C 0 km/h
653 02-09-2009 10:34:02 19.1 C 9.51 g/m*3 19.1 C 0 km/h
654 02-09-2009 10:46:02 19.3 C 9.45 g/m*3 19.3 C 0 km/h
655 02-09-2009 10:58:02 19.4 C 9.34 g/m*3 19.4 C 0 km/h
656 02-09-2009 11:10:01 19.8 C 9.39 g/m*3 19.8 C 0 km/h
657 02-09-2009 11:22:02 19.9 C 9.28 g/m*3 19.9 C 0 km/h
658 02-09-2009 11:34:02 20.3 C 9.15 g/m*3 20.3 C 0 km/h
659 02-09-2009 11:46:02 20.8 C 8.87 g/m*3 20.8 C 0 km/h
660 02-09-2009 11:58:02 20.8 C 8.69 g/m*3 20.8 C 0 km/h
661 02-09-2009 12:10:02 21.3 C 7.83 g/m*3 21.3 C 0 km/h
662 02-09-2009 12:22:02 21.9 C 8.1 g/m*3 21.9 C 0 km/h
663 02-09-2009 12:34:03 22 C 7.96 g/m*3 22 C 0 km/h
664 02-09-2009 12:46:02 21.9 C 8.3 g/m*3 21.9 C 0 km/h
665 02-09-2009 12:58:02 22 C 7.96 g/m*3 22 C 0 km/h
666 02-09-2009 13:10:02 22.1 C 6.83 g/m*3 22.1 C 0 km/h
667 02-09-2009 13:22:01 22 C 6.4 g/m*3 22 C 0 km/h
668 02-09-2009 13:34:02 23.1 C 6.61 g/m*3 23.1 C 0 km/h
669 02-09-2009 13:46:02 23.2 C 6.03 g/m*3 23.2 C 0 km/h
670 02-09-2009 13:58:02 23.2 C 6.44 g/m*3 23.2 C 0 km/h
671 02-09-2009 14:10:02 23.2 C 6.44 g/m*3 23.2 C 0 km/h
672 02-09-2009 14:22:02 23.2 C 6.65 g/m*3 23.2 C 0 km/h
673 02-09-2009 14:34:02 22.8 C 6.71 g/m*3 22.8 C 0 km/h
674 02-09-2009 14:46:02 22.5 C 6.39 g/m*3 22.5 C 0 km/h
675 02-09-2009 14:58:02 22.3 C 6.52 g/m*3 22.3 C 0 km/h
Sensor: Nr:Datum:Temp:Abs-Feuchte:Windchill:Wind:
Aussen-T/F 676 02-09-2009 15:10:02 22.4 C 6.55 g/m*3 22.4 C 0 km/h
677 02-09-2009 15:22:02 22.9 C 6.95 g/m*3 22.9 C 0 km/h
678 02-09-2009 15:34:02 23.3 C 7.11 g/m*3 23.3 C 0 km/h
679 02-09-2009 15:46:02 23.3 C 6.9 g/m*3 23.3 C 0 km/h
680 02-09-2009 15:58:02 23.5 C 6.77 g/m*3 23.5 C 0 km/h
681 02-09-2009 16:10:02 23.5 C 6.34 g/m*3 23.5 C 0 km/h
682 02-09-2009 16:22:02 23 C 6.17 g/m*3 23 C 0 km/h
683 02-09-2009 16:34:02 22.8 C 6.5 g/m*3 22.8 C 0 km/h
684 02-09-2009 16:46:02 22.5 C 6.19 g/m*3 22.5 C 0 km/h
685 02-09-2009 16:58:02 22.4 C 5.96 g/m*3 22.4 C 0 km/h
686 02-09-2009 17:10:02 22.6 C 6.23 g/m*3 22.6 C 0 km/h
687 02-09-2009 17:22:03 22.1 C 5.86 g/m*3 22.1 C 0 km/h
688 02-09-2009 17:34:02 22.1 C 6.05 g/m*3 22.1 C 0 km/h
689 02-09-2009 17:46:02 22.2 C 6.09 g/m*3 22.2 C 0 km/h
690 02-09-2009 17:58:02 22 C 6.02 g/m*3 22 C 0 km/h
691 02-09-2009 18:10:02 21.7 C 6.1 g/m*3 21.7 C 0 km/h
692 02-09-2009 18:22:02 21.6 C 6.26 g/m*3 21.6 C 0 km/h
693 02-09-2009 18:34:02 22 C 6.02 g/m*3 22 C 0 km/h
694 02-09-2009 18:46:02 22.9 C 6.13 g/m*3 22.9 C 0 km/h
695 02-09-2009 18:58:02 21.6 C 5.88 g/m*3 21.6 C 0 km/h
696 02-09-2009 19:10:02 21.1 C 5.71 g/m*3 21.1 C 0 km/h
697 02-09-2009 19:22:02 20.9 C 6.01 g/m*3 20.9 C 0 km/h
698 02-09-2009 19:34:01 20.5 C 6.23 g/m*3 20.5 C 0 km/h
699 02-09-2009 19:46:02 20 C 6.22 g/m*3 20 C 0 km/h
700 02-09-2009 19:58:02 19.4 C 6.34 g/m*3 19.4 C 0 km/h
Sensor: Nr:Datum:Temp:Abs-Feuchte:Windchill:Wind:
Aussen-T/F 701 02-09-2009 20:10:01 18.8 C 6.44 g/m*3 18.8 C 0 km/h
702 02-09-2009 20:22:02 18.3 C 6.57 g/m*3 18.3 C 0 km/h
703 02-09-2009 20:34:02 17.9 C 6.57 g/m*3 17.9 C 0 km/h
704 02-09-2009 20:46:02 17.7 C 6.79 g/m*3 17.7 C 0 km/h
705 02-09-2009 20:58:02 17.9 C 6.87 g/m*3 17.9 C 0 km/h
706 02-09-2009 21:10:03 18.1 C 6.95 g/m*3 18.1 C 0 km/h
707 02-09-2009 21:22:02 18.1 C 6.95 g/m*3 18.1 C 0 km/h
708 02-09-2009 21:34:02 18.1 C 7.11 g/m*3 18.1 C 0 km/h
709 02-09-2009 21:46:01 18 C 7.07 g/m*3 18 C 0 km/h
710 02-09-2009 21:58:01 17.9 C 7.33 g/m*3 17.9 C 0 km/h
711 02-09-2009 22:10:02 17.8 C 7.29 g/m*3 17.8 C 0 km/h
712 02-09-2009 22:23:02 16.9 C 8.05 g/m*3 16.9 C 0 km/h
713 02-09-2009 22:35:02 16.2 C 9.52 g/m*3 16.2 C 0 km/h
714 02-09-2009 22:47:03 15.3 C 9.53 g/m*3 15.3 C 0 km/h
715 02-09-2009 22:59:03 15.7 C 10.3 g/m*3 15.7 C 0 km/h
716 02-09-2009 23:11:03 16 C 10.08 g/m*3 16 C 0 km/h
717 02-09-2009 23:23:03 16.2 C 9.79 g/m*3 16.2 C 0 km/h
718 02-09-2009 23:35:03 16 C 9.4 g/m*3 16 C 0 km/h
719 02-09-2009 23:47:03 16 C 9.4 g/m*3 16 C 0 km/h
720 02-09-2009 23:59:03 16.2 C 9.38 g/m*3 16.2 C 0 km/h
721 03-09-2009 00:11:03 16.2 C 9.65 g/m*3 16.2 C 0 km/h
722 03-09-2009 00:23:03 16.4 C 9.21 g/m*3 16.4 C 0 km/h
723 03-09-2009 00:35:03 16.6 C 9.04 g/m*3 16.6 C 0 km/h
724 03-09-2009 00:47:03 16.7 C 8.95 g/m*3 16.7 C 0 km/h
725 03-09-2009 00:59:03 16.8 C 9.15 g/m*3 16.8 C 0 km/h
Sensor: Nr:Datum:Temp:Abs-Feuchte:Windchill:Wind:
Aussen-T/F 726 03-09-2009 01:11:03 16.6 C 9.04 g/m*3 16.6 C 0 km/h
727 03-09-2009 01:23:03 16.5 C 8.99 g/m*3 16.5 C 0 km/h
728 03-09-2009 01:35:03 16.6 C 9.04 g/m*3 16.6 C 0 km/h
729 03-09-2009 01:47:03 16.5 C 8.99 g/m*3 16.5 C 0 km/h
730 03-09-2009 01:59:03 16.5 C 8.99 g/m*3 16.5 C 0 km/h
731 03-09-2009 02:11:03 16.4 C 9.07 g/m*3 16.4 C 0 km/h
732 03-09-2009 02:23:03 16.5 C 8.99 g/m*3 16.5 C 0 km/h
733 03-09-2009 02:35:04 15.6 C 9.44 g/m*3 15.6 C 0 km/h
734 03-09-2009 02:47:04 15 C 9.75 g/m*3 15 C 0 km/h
735 03-09-2009 02:59:04 15 C 10 g/m*3 15 C 0 km/h
736 03-09-2009 03:11:04 15 C 10.26 g/m*3 15 C 0 km/h
737 03-09-2009 03:23:04 14.9 C 10.58 g/m*3 14.9 C 0 km/h
738 03-09-2009 03:35:04 15 C 10.51 g/m*3 15 C 0 km/h
739 03-09-2009 03:47:04 15.1 C 10.58 g/m*3 15.1 C 0 km/h
740 03-09-2009 03:59:04 15.1 C 10.58 g/m*3 15.1 C 0 km/h
741 03-09-2009 04:11:04 15.3 C 10.45 g/m*3 15.3 C 0 km/h
742 03-09-2009 04:23:04 15.3 C 10.45 g/m*3 15.3 C 0 km/h
743 03-09-2009 04:35:04 15.3 C 10.45 g/m*3 15.3 C 0 km/h
744 03-09-2009 04:47:04 15.4 C 10.51 g/m*3 15.4 C 0 km/h
745 03-09-2009 04:59:04 15 C 10.39 g/m*3 15 C 0 km/h
746 03-09-2009 05:11:04 15 C 10.64 g/m*3 15 C 0 km/h
747 03-09-2009 05:23:04 14.9 C 10.83 g/m*3 14.9 C 0 km/h
748 03-09-2009 05:35:04 14.8 C 10.89 g/m*3 14.8 C 0 km/h
749 03-09-2009 05:47:04 14.8 C 10.89 g/m*3 14.8 C 0 km/h
750 03-09-2009 05:59:04 14.7 C 10.83 g/m*3 14.7 C 0 km/h
Sensor: Nr:Datum:Temp:Abs-Feuchte:Windchill:Wind:
Aussen-T/F 751 03-09-2009 06:11:04 14.7 C 11.08 g/m*3 14.7 C 0 km/h
752 03-09-2009 06:23:05 14.7 C 11.08 g/m*3 14.7 C 0 km/h
753 03-09-2009 06:35:05 15 C 11.16 g/m*3 15 C 0 km/h
754 03-09-2009 06:47:05 15 C 11.16 g/m*3 15 C 0 km/h
755 03-09-2009 06:59:05 14.8 C 11.15 g/m*3 14.8 C 0 km/h
756 03-09-2009 07:11:02 14.8 C 11.15 g/m*3 14.8 C 0 km/h
757 03-09-2009 07:23:03 14.7 C 11.21 g/m*3 14.7 C 0 km/h
758 03-09-2009 07:35:02 14.9 C 11.47 g/m*3 14.9 C 0 km/h
759 03-09-2009 07:47:02 15.2 C 11.68 g/m*3 15.2 C 0 km/h
760 03-09-2009 07:59:02 15.4 C 11.69 g/m*3 15.4 C 0 km/h
761 03-09-2009 08:11:02 15.6 C 11.7 g/m*3 15.6 C 0 km/h
762 03-09-2009 08:23:02 15.7 C 11.64 g/m*3 15.7 C 0 km/h
763 03-09-2009 08:35:03 15.8 C 11.44 g/m*3 15.8 C 0 km/h
764 03-09-2009 08:47:02 15.8 C 11.44 g/m*3 15.8 C 0 km/h
765 03-09-2009 08:59:03 15.7 C 11.51 g/m*3 15.7 C 0 km/h
766 03-09-2009 09:11:01 16 C 11.31 g/m*3 16 C 0 km/h
767 03-09-2009 09:23:01 16.4 C 11.17 g/m*3 16.4 C 0 km/h
768 03-09-2009 09:35:02 16.8 C 11.15 g/m*3 16.8 C 0 km/h
769 03-09-2009 09:47:02 17.7 C 10.71 g/m*3 17.7 C 0 km/h
770 03-09-2009 09:59:02 17.8 C 10.62 g/m*3 17.8 C 0 km/h
771 03-09-2009 10:11:02 17.9 C 10.38 g/m*3 17.9 C 0 km/h
772 03-09-2009 10:23:01 18.3 C 10.01 g/m*3 18.3 C 0 km/h
773 03-09-2009 10:35:02 18.6 C 10.03 g/m*3 18.6 C 0 km/h
774 03-09-2009 10:47:01 17 C 10.56 g/m*3 17 C 0 km/h
775 03-09-2009 10:59:01 17.2 C 10.98 g/m*3 17.2 C 0 km/h
Sensor: Nr:Datum:Temp:Abs-Feuchte:Windchill:Wind:
Aussen-T/F 776 03-09-2009 11:11:02 17.7 C 10.11 g/m*3 17.7 C 0 km/h
777 03-09-2009 11:23:02 18 C 9.37 g/m*3 18 C 0 km/h
778 03-09-2009 11:35:02 18.2 C 8.7 g/m*3 18.2 C 0 km/h
779 03-09-2009 11:47:01 18.8 C 8.86 g/m*3 18.8 C 0 km/h
780 03-09-2009 11:59:01 18.5 C 8.39 g/m*3 18.5 C 0 km/h
781 03-09-2009 12:11:02 18.7 C 7.68 g/m*3 18.7 C 0 km/h
782 03-09-2009 12:23:02 19.2 C 7.26 g/m*3 19.2 C 0 km/h
783 03-09-2009 12:35:02 19.4 C 6.84 g/m*3 19.4 C 0 km/h
784 03-09-2009 12:47:02 19.3 C 6.47 g/m*3 19.3 C 0 km/h
785 03-09-2009 12:59:02 19.5 C 6.38 g/m*3 19.5 C 0 km/h
786 03-09-2009 13:11:01 19.4 C 6.17 g/m*3 19.4 C 0 km/h
787 03-09-2009 13:23:02 19.7 C 6.62 g/m*3 19.7 C 0 km/h
788 03-09-2009 13:35:01 19.5 C 6.21 g/m*3 19.5 C 0 km/h
789 03-09-2009 13:47:02 19.9 C 6.36 g/m*3 19.9 C 0 km/h
790 03-09-2009 13:59:02 20.6 C 6.44 g/m*3 20.6 C 0 km/h
791 03-09-2009 14:11:01 20.8 C 6.34 g/m*3 20.8 C 0 km/h
792 03-09-2009 14:23:02 20.9 C 6.37 g/m*3 20.9 C 0 km/h
793 03-09-2009 14:35:01 21.4 C 6.19 g/m*3 21.4 C 0 km/h
794 03-09-2009 14:47:02 21.3 C 5.96 g/m*3 21.3 C 0 km/h
795 03-09-2009 14:59:03 20.8 C 5.98 g/m*3 20.8 C 0 km/h
796 03-09-2009 15:11:02 21.8 C 5.76 g/m*3 21.8 C 0 km/h
797 03-09-2009 15:23:02 22.5 C 5.79 g/m*3 22.5 C 0 km/h
798 03-09-2009 15:35:02 22.5 C 5.19 g/m*3 22.5 C 0 km/h
799 03-09-2009 15:47:02 21.7 C 4.96 g/m*3 21.7 C 0 km/h
800 03-09-2009 15:59:02 21.8 C 5.37 g/m*3 21.8 C 0 km/h
Sensor: Nr:Datum:Temp:Abs-Feuchte:Windchill:Wind:
Aussen-T/F 801 03-09-2009 16:11:02 20.8 C 5.43 g/m*3 20.8 C 0 km/h
802 03-09-2009 16:23:01 20.3 C 5.63 g/m*3 20.3 C 0 km/h
803 03-09-2009 16:35:02 20.2 C 5.6 g/m*3 20.2 C 0 km/h
804 03-09-2009 16:47:02 20.1 C 5.56 g/m*3 20.1 C 0 km/h
805 03-09-2009 16:59:02 19.9 C 5.84 g/m*3 19.9 C 0 km/h
806 03-09-2009 17:11:02 19.7 C 5.77 g/m*3 19.7 C 0 km/h
807 03-09-2009 17:23:02 19.6 C 5.91 g/m*3 19.6 C 0 km/h
808 03-09-2009 17:35:02 19.6 C 5.91 g/m*3 19.6 C 0 km/h
809 03-09-2009 17:47:02 19.5 C 5.87 g/m*3 19.5 C 0 km/h
810 03-09-2009 17:59:02 19.4 C 5.84 g/m*3 19.4 C 0 km/h
811 03-09-2009 18:11:02 18.5 C 6.65 g/m*3 18.5 C 0 km/h
812 03-09-2009 18:23:02 17.6 C 7.5 g/m*3 17.6 C 0 km/h
813 03-09-2009 18:35:02 18.1 C 7.42 g/m*3 18.1 C 0 km/h
814 03-09-2009 18:47:02 18.3 C 7.19 g/m*3 18.3 C 0 km/h
815 03-09-2009 18:59:02 18.2 C 7.15 g/m*3 18.2 C 0 km/h
816 03-09-2009 19:11:02 18.4 C 7.39 g/m*3 18.4 C 0 km/h
817 03-09-2009 19:23:02 18 C 7.22 g/m*3 18 C 0 km/h
818 03-09-2009 19:35:02 17.7 C 7.09 g/m*3 17.7 C 0 km/h
819 03-09-2009 19:47:02 17.7 C 7.09 g/m*3 17.7 C 0 km/h
820 03-09-2009 19:59:02 17.5 C 7.01 g/m*3 17.5 C 0 km/h
821 03-09-2009 20:11:02 17.5 C 7.01 g/m*3 17.5 C 0 km/h
822 03-09-2009 20:23:03 17.5 C 7.01 g/m*3 17.5 C 0 km/h
823 03-09-2009 20:35:02 17.5 C 7.01 g/m*3 17.5 C 0 km/h
824 03-09-2009 20:47:03 17.3 C 6.78 g/m*3 17.3 C 0 km/h
825 03-09-2009 20:59:03 17.1 C 6.7 g/m*3 17.1 C 0 km/h
Sensor: Nr:Datum:Temp:Abs-Feuchte:Windchill:Wind:
Aussen-T/F 826 03-09-2009 21:11:02 17.1 C 6.55 g/m*3 17.1 C 0 km/h
827 03-09-2009 21:23:02 17.1 C 6.55 g/m*3 17.1 C 0 km/h
828 03-09-2009 21:35:02 17 C 6.51 g/m*3 17 C 0 km/h
829 03-09-2009 21:48:04 17 C 6.51 g/m*3 17 C 0 km/h
830 03-09-2009 22:00:04 16.6 C 6.5 g/m*3 16.6 C 0 km/h
831 03-09-2009 22:12:04 16.4 C 6.7 g/m*3 16.4 C 0 km/h
832 03-09-2009 22:24:04 16.2 C 6.62 g/m*3 16.2 C 0 km/h
833 03-09-2009 22:36:04 16.2 C 6.62 g/m*3 16.2 C 0 km/h
834 03-09-2009 22:48:04 16.3 C 6.52 g/m*3 16.3 C 0 km/h
835 03-09-2009 23:00:04 16.3 C 6.66 g/m*3 16.3 C 0 km/h
836 03-09-2009 23:12:04 16.1 C 6.58 g/m*3 16.1 C 0 km/h
837 03-09-2009 23:24:04 16.2 C 6.76 g/m*3 16.2 C 0 km/h
838 03-09-2009 23:36:04 16.2 C 6.9 g/m*3 16.2 C 0 km/h
839 03-09-2009 23:48:05 16.2 C 6.9 g/m*3 16.2 C 0 km/h
840 04-09-2009 00:00:05 16.1 C 6.72 g/m*3 16.1 C 0 km/h
841 04-09-2009 00:12:05 16.1 C 6.72 g/m*3 16.1 C 0 km/h
842 04-09-2009 00:24:05 16.1 C 6.58 g/m*3 16.1 C 0 km/h
843 04-09-2009 00:36:05 16 C 6.54 g/m*3 16 C 0 km/h
844 04-09-2009 00:48:05 15.9 C 6.64 g/m*3 15.9 C 0 km/h
845 04-09-2009 01:00:05 15.8 C 6.73 g/m*3 15.8 C 0 km/h
846 04-09-2009 01:12:05 15.7 C 6.82 g/m*3 15.7 C 0 km/h
847 04-09-2009 01:24:05 15.6 C 6.92 g/m*3 15.6 C 0 km/h
848 04-09-2009 01:36:05 15.6 C 7.05 g/m*3 15.6 C 0 km/h
849 04-09-2009 01:48:05 15.6 C 7.18 g/m*3 15.6 C 0 km/h
850 04-09-2009 02:00:05 15.5 C 7.27 g/m*3 15.5 C 0 km/h
Sensor: Nr:Datum:Temp:Abs-Feuchte:Windchill:Wind:
Aussen-T/F 851 04-09-2009 02:12:05 15.4 C 7.36 g/m*3 15.4 C 0 km/h
852 04-09-2009 02:24:05 15.2 C 7.53 g/m*3 15.2 C 0 km/h
853 04-09-2009 02:36:05 15.1 C 7.48 g/m*3 15.1 C 0 km/h
854 04-09-2009 02:48:05 15.1 C 7.61 g/m*3 15.1 C 0 km/h
855 04-09-2009 03:00:05 15.1 C 7.61 g/m*3 15.1 C 0 km/h
856 04-09-2009 03:12:05 15.1 C 7.61 g/m*3 15.1 C 0 km/h
857 04-09-2009 03:24:05 15.1 C 7.61 g/m*3 15.1 C 0 km/h
858 04-09-2009 03:36:05 15 C 7.69 g/m*3 15 C 0 km/h
859 04-09-2009 03:48:06 15.1 C 7.87 g/m*3 15.1 C 0 km/h
860 04-09-2009 04:00:06 15 C 7.82 g/m*3 15 C 0 km/h
861 04-09-2009 04:12:06 15 C 7.82 g/m*3 15 C 0 km/h
862 04-09-2009 04:24:06 15 C 7.95 g/m*3 15 C 0 km/h
863 04-09-2009 04:36:06 15 C 7.95 g/m*3 15 C 0 km/h
864 04-09-2009 04:48:06 14.9 C 7.9 g/m*3 14.9 C 0 km/h
865 04-09-2009 05:00:06 14.8 C 7.73 g/m*3 14.8 C 0 km/h
866 04-09-2009 05:12:06 14.8 C 7.73 g/m*3 14.8 C 0 km/h
867 04-09-2009 05:24:06 14.6 C 7.76 g/m*3 14.6 C 0 km/h
868 04-09-2009 05:36:06 14.5 C 7.71 g/m*3 14.5 C 0 km/h
869 04-09-2009 05:48:06 14.3 C 7.74 g/m*3 14.3 C 0 km/h
870 04-09-2009 06:00:06 14 C 7.72 g/m*3 14 C 0 km/h
871 04-09-2009 06:12:06 13.8 C 7.63 g/m*3 13.8 C 0 km/h
872 04-09-2009 06:24:06 13.7 C 7.46 g/m*3 13.7 C 0 km/h
873 04-09-2009 06:36:04 13.6 C 7.53 g/m*3 13.6 C 0 km/h
874 04-09-2009 06:48:02 13.7 C 7.58 g/m*3 13.7 C 0 km/h
875 04-09-2009 07:00:02 13.7 C 7.58 g/m*3 13.7 C 0 km/h
Sensor: Nr:Datum:Temp:Abs-Feuchte:Windchill:Wind:
Aussen-T/F 876 04-09-2009 07:12:03 13.8 C 7.63 g/m*3 13.8 C 0 km/h
877 04-09-2009 07:24:02 13.7 C 7.58 g/m*3 13.7 C 0 km/h
878 04-09-2009 07:36:01 13.4 C 7.44 g/m*3 13.4 C 0 km/h
879 04-09-2009 07:48:02 13.3 C 7.39 g/m*3 13.3 C 0 km/h
880 04-09-2009 08:00:02 13.2 C 7.35 g/m*3 13.2 C 0 km/h
881 04-09-2009 08:12:01 13.3 C 7.39 g/m*3 13.3 C 0 km/h
882 04-09-2009 08:24:02 13.5 C 7.37 g/m*3 13.5 C 0 km/h
883 04-09-2009 08:36:01 13.8 C 7.27 g/m*3 13.8 C 0 km/h
884 04-09-2009 08:48:01 13.9 C 7.31 g/m*3 13.9 C 0 km/h
885 04-09-2009 09:00:01 13.8 C 7.27 g/m*3 13.8 C 0 km/h
886 04-09-2009 09:12:01 13.9 C 7.31 g/m*3 13.9 C 0 km/h
887 04-09-2009 09:24:01 14 C 7.12 g/m*3 14 C 0 km/h
888 04-09-2009 09:36:01 14.2 C 7.2 g/m*3 14.2 C 0 km/h
889 04-09-2009 09:48:02 14.4 C 7.17 g/m*3 14.4 C 0 km/h
890 04-09-2009 10:00:02 14.7 C 6.92 g/m*3 14.7 C 0 km/h
891 04-09-2009 10:12:03 15.2 C 6.88 g/m*3 15.2 C 0 km/h
892 04-09-2009 10:24:02 15.5 C 6.74 g/m*3 15.5 C 0 km/h
893 04-09-2009 10:36:02 16.5 C 6.6 g/m*3 16.5 C 0 km/h
894 04-09-2009 10:48:01 17 C 6.66 g/m*3 17 C 0 km/h
895 04-09-2009 11:00:01 17.2 C 6.74 g/m*3 17.2 C 0 km/h
896 04-09-2009 11:12:01 17.5 C 6.86 g/m*3 17.5 C 0 km/h
897 04-09-2009 11:24:01 17.7 C 6.79 g/m*3 17.7 C 0 km/h
898 04-09-2009 11:36:01 18 C 6.45 g/m*3 18 C 0 km/h
899 04-09-2009 11:48:01 17.8 C 6.53 g/m*3 17.8 C 0 km/h
900 04-09-2009 12:00:01 17.6 C 6.75 g/m*3 17.6 C 0 km/h
Sensor: Nr:Datum:Temp:Abs-Feuchte:Windchill:Wind:
Aussen-T/F 901 04-09-2009 12:12:01 17.7 C 6.79 g/m*3 17.7 C 0 km/h
902 04-09-2009 12:24:02 17.7 C 6.79 g/m*3 17.7 C 0 km/h
903 04-09-2009 12:36:01 17.6 C 6.9 g/m*3 17.6 C 0 km/h
904 04-09-2009 12:48:02 17.3 C 6.78 g/m*3 17.3 C 0 km/h
905 04-09-2009 13:00:02 16.8 C 7.15 g/m*3 16.8 C 0 km/h
906 04-09-2009 13:12:02 16.2 C 7.72 g/m*3 16.2 C 0 km/h
907 04-09-2009 13:24:03 15.6 C 8.51 g/m*3 15.6 C 0 km/h
908 04-09-2009 13:36:02 15.8 C 9.02 g/m*3 15.8 C 0 km/h
909 04-09-2009 13:48:02 15.5 C 8.99 g/m*3 15.5 C 0 km/h
910 04-09-2009 14:00:02 14.3 C 9.21 g/m*3 14.3 C 0 km/h
911 04-09-2009 14:12:02 14.1 C 9.71 g/m*3 14.1 C 0 km/h
912 04-09-2009 14:24:02 14 C 10.01 g/m*3 14 C 0 km/h
913 04-09-2009 14:36:02 13.8 C 10.13 g/m*3 13.8 C 0 km/h
914 04-09-2009 14:48:02 13.8 C 10.37 g/m*3 13.8 C 0 km/h
915 04-09-2009 15:00:02 13.7 C 10.42 g/m*3 13.7 C 0 km/h
916 04-09-2009 15:12:01 13.8 C 10.6 g/m*3 13.8 C 0 km/h
917 04-09-2009 15:24:02 13.8 C 10.72 g/m*3 13.8 C 0 km/h
918 04-09-2009 15:36:02 14 C 10.86 g/m*3 14 C 0 km/h
919 04-09-2009 15:48:01 14.1 C 10.92 g/m*3 14.1 C 0 km/h
920 04-09-2009 16:00:02 14.5 C 11.19 g/m*3 14.5 C 0 km/h
921 04-09-2009 16:12:01 14.9 C 11.47 g/m*3 14.9 C 0 km/h
922 04-09-2009 16:24:01 15.5 C 11.76 g/m*3 15.5 C 0 km/h
923 04-09-2009 16:36:02 15.8 C 11.04 g/m*3 15.8 C 0 km/h
924 04-09-2009 16:48:02 15.6 C 10.51 g/m*3 15.6 C 0 km/h
925 04-09-2009 17:00:02 16 C 10.63 g/m*3 16 C 0 km/h
Sensor: Nr:Datum:Temp:Abs-Feuchte:Windchill:Wind:
Aussen-T/F 926 04-09-2009 17:12:02 15.7 C 10.7 g/m*3 15.7 C 0 km/h
927 04-09-2009 17:24:02 15.1 C 10.19 g/m*3 15.1 C 0 km/h
928 04-09-2009 17:36:02 14.4 C 10.38 g/m*3 14.4 C 0 km/h
929 04-09-2009 17:48:02 14.2 C 10.38 g/m*3 14.2 C 0 km/h
930 04-09-2009 18:00:02 14 C 10.25 g/m*3 14 C 0 km/h
931 04-09-2009 18:12:02 14.2 C 10.5 g/m*3 14.2 C 0 km/h
932 04-09-2009 18:24:02 14.5 C 10.82 g/m*3 14.5 C 0 km/h
933 04-09-2009 18:36:02 14.2 C 10.5 g/m*3 14.2 C 0 km/h
934 04-09-2009 18:48:02 14 C 9.77 g/m*3 14 C 0 km/h
935 04-09-2009 19:00:02 14.1 C 9.95 g/m*3 14.1 C 0 km/h
936 04-09-2009 19:12:03 14.6 C 9.89 g/m*3 14.6 C 0 km/h
937 04-09-2009 19:24:02 15 C 9.1 g/m*3 15 C 0 km/h
938 04-09-2009 19:36:02 14.5 C 8.46 g/m*3 14.5 C 0 km/h
939 04-09-2009 19:48:01 13.9 C 7.79 g/m*3 13.9 C 0 km/h
940 04-09-2009 20:00:01 13.3 C 8.2 g/m*3 13.3 C 0 km/h
941 04-09-2009 20:12:02 12.7 C 8.13 g/m*3 12.7 C 0 km/h
942 04-09-2009 20:24:02 12.3 C 8.25 g/m*3 12.3 C 0 km/h
943 04-09-2009 20:36:01 11.9 C 8.37 g/m*3 11.9 C 0 km/h
944 04-09-2009 20:48:01 12 C 7.99 g/m*3 12 C 0 km/h
945 04-09-2009 21:00:01 12.3 C 7.82 g/m*3 12.3 C 0 km/h
946 04-09-2009 21:12:01 12.5 C 7.81 g/m*3 12.5 C 0 km/h
947 04-09-2009 21:24:02 12.5 C 7.7 g/m*3 12.5 C 0 km/h
948 04-09-2009 21:36:01 12.4 C 7.76 g/m*3 12.4 C 0 km/h
949 04-09-2009 21:49:02 12.5 C 7.81 g/m*3 12.5 C 0 km/h
950 04-09-2009 22:01:02 12.4 C 7.76 g/m*3 12.4 C 0 km/h
Sensor: Nr:Datum:Temp:Abs-Feuchte:Windchill:Wind:
Aussen-T/F 951 04-09-2009 22:13:02 12 C 7.67 g/m*3 12 C 0 km/h
952 04-09-2009 22:25:02 11.8 C 7.89 g/m*3 11.8 C 0 km/h
953 04-09-2009 22:37:02 11.9 C 7.94 g/m*3 11.9 C 0 km/h
954 04-09-2009 22:49:02 11.9 C 8.05 g/m*3 11.9 C 0 km/h
955 04-09-2009 23:01:02 11.9 C 8.05 g/m*3 11.9 C 0 km/h
956 04-09-2009 23:13:02 12.1 C 7.94 g/m*3 12.1 C 0 km/h
957 04-09-2009 23:25:02 12.5 C 7.81 g/m*3 12.5 C 0 km/h
958 04-09-2009 23:37:02 12.4 C 7.54 g/m*3 12.4 C 0 km/h
959 04-09-2009 23:49:02 12.5 C 7.59 g/m*3 12.5 C 0 km/h
960 05-09-2009 00:01:02 12.7 C 7.68 g/m*3 12.7 C 0 km/h
961 05-09-2009 00:13:02 12.8 C 7.73 g/m*3 12.8 C 0 km/h
962 05-09-2009 00:25:03 12.8 C 7.84 g/m*3 12.8 C 0 km/h
963 05-09-2009 00:37:03 12.9 C 7.78 g/m*3 12.9 C 0 km/h
964 05-09-2009 00:49:03 12.7 C 7.79 g/m*3 12.7 C 0 km/h
965 05-09-2009 01:01:03 12.5 C 7.81 g/m*3 12.5 C 0 km/h
966 05-09-2009 01:13:03 12.5 C 7.81 g/m*3 12.5 C 0 km/h
967 05-09-2009 01:25:03 12.5 C 7.7 g/m*3 12.5 C 0 km/h
968 05-09-2009 01:37:03 12.6 C 7.74 g/m*3 12.6 C 0 km/h
969 05-09-2009 01:49:03 12.5 C 7.7 g/m*3 12.5 C 0 km/h
970 05-09-2009 02:01:03 12.5 C 7.7 g/m*3 12.5 C 0 km/h
971 05-09-2009 02:13:03 12.6 C 7.63 g/m*3 12.6 C 0 km/h
972 05-09-2009 02:25:03 12.5 C 7.7 g/m*3 12.5 C 0 km/h
973 05-09-2009 02:37:03 12.5 C 7.7 g/m*3 12.5 C 0 km/h
974 05-09-2009 02:49:03 12.6 C 7.63 g/m*3 12.6 C 0 km/h
975 05-09-2009 03:01:03 12.6 C 7.74 g/m*3 12.6 C 0 km/h
Sensor: Nr:Datum:Temp:Abs-Feuchte:Windchill:Wind:
Aussen-T/F 976 05-09-2009 03:13:03 12.7 C 7.68 g/m*3 12.7 C 0 km/h
977 05-09-2009 03:25:03 12.8 C 7.73 g/m*3 12.8 C 0 km/h
978 05-09-2009 03:37:03 12.7 C 7.79 g/m*3 12.7 C 0 km/h
979 05-09-2009 03:49:03 12.7 C 7.79 g/m*3 12.7 C 0 km/h
980 05-09-2009 04:01:03 12.8 C 7.84 g/m*3 12.8 C 0 km/h
981 05-09-2009 04:13:04 12.8 C 7.73 g/m*3 12.8 C 0 km/h
982 05-09-2009 04:25:04 12.8 C 7.84 g/m*3 12.8 C 0 km/h
983 05-09-2009 04:37:04 12.7 C 7.79 g/m*3 12.7 C 0 km/h
984 05-09-2009 04:49:04 12.7 C 7.79 g/m*3 12.7 C 0 km/h
985 05-09-2009 05:01:04 12.7 C 7.79 g/m*3 12.7 C 0 km/h
986 05-09-2009 05:13:04 12.7 C 7.79 g/m*3 12.7 C 0 km/h
987 05-09-2009 05:25:04 12.6 C 7.85 g/m*3 12.6 C 0 km/h
988 05-09-2009 05:37:04 12.6 C 7.85 g/m*3 12.6 C 0 km/h
989 05-09-2009 05:49:04 12.6 C 7.85 g/m*3 12.6 C 0 km/h
990 05-09-2009 06:01:04 12.7 C 7.79 g/m*3 12.7 C 0 km/h
991 05-09-2009 06:13:04 12.5 C 7.7 g/m*3 12.5 C 0 km/h
992 05-09-2009 06:25:04 12.3 C 7.82 g/m*3 12.3 C 0 km/h
993 05-09-2009 06:37:04 12.4 C 7.87 g/m*3 12.4 C 0 km/h
994 05-09-2009 06:49:04 12.5 C 7.81 g/m*3 12.5 C 0 km/h
995 05-09-2009 07:01:04 12.6 C 7.85 g/m*3 12.6 C 0 km/h
996 05-09-2009 07:13:04 12.7 C 7.79 g/m*3 12.7 C 0 km/h
997 05-09-2009 07:25:04 12.5 C 7.7 g/m*3 12.5 C 0 km/h
998 05-09-2009 07:37:04 12.5 C 7.81 g/m*3 12.5 C 0 km/h
999 05-09-2009 07:49:04 12.4 C 7.76 g/m*3 12.4 C 0 km/h
1000 05-09-2009 08:01:05 12.4 C 7.87 g/m*3 12.4 C 0 km/h
Sensor: Nr:Datum:Temp:Abs-Feuchte:Windchill:Wind:
Aussen-T/F 1001 05-09-2009 08:13:05 12.6 C 7.97 g/m*3 12.6 C 0 km/h
1002 05-09-2009 08:25:05 12.6 C 7.97 g/m*3 12.6 C 0 km/h
1003 05-09-2009 08:37:05 13.1 C 7.99 g/m*3 13.1 C 0 km/h
1004 05-09-2009 08:49:05 13.2 C 7.92 g/m*3 13.2 C 0 km/h
1005 05-09-2009 09:01:02 13.6 C 8.12 g/m*3 13.6 C 0 km/h
1006 05-09-2009 09:13:02 14.1 C 8.01 g/m*3 14.1 C 0 km/h
1007 05-09-2009 09:25:01 14.7 C 7.93 g/m*3 14.7 C 0 km/h
1008 05-09-2009 09:37:02 14.7 C 7.81 g/m*3 14.7 C 0 km/h
1009 05-09-2009 09:49:02 15.1 C 7.87 g/m*3 15.1 C 0 km/h
1010 05-09-2009 10:01:02 15.4 C 8.01 g/m*3 15.4 C 0 km/h
1011 05-09-2009 10:13:02 15.1 C 7.74 g/m*3 15.1 C 0 km/h
1012 05-09-2009 10:25:02 15.2 C 7.79 g/m*3 15.2 C 0 km/h
1013 05-09-2009 10:37:02 15.7 C 7.89 g/m*3 15.7 C 0 km/h
1014 05-09-2009 10:49:01 16.3 C 7.63 g/m*3 16.3 C 0 km/h
1015 05-09-2009 11:01:02 16.9 C 7.62 g/m*3 16.9 C 0 km/h
1016 05-09-2009 11:13:02 17.5 C 7.45 g/m*3 17.5 C 0 km/h
1017 05-09-2009 11:25:01 17.3 C 7.51 g/m*3 17.3 C 0 km/h
1018 05-09-2009 11:37:01 16.8 C 7.58 g/m*3 16.8 C 0 km/h
1019 05-09-2009 11:49:02 16.8 C 7.43 g/m*3 16.8 C 0 km/h
1020 05-09-2009 12:01:02 17.3 C 6.92 g/m*3 17.3 C 0 km/h
1021 05-09-2009 12:13:02 17.7 C 6.64 g/m*3 17.7 C 0 km/h
1022 05-09-2009 12:25:02 17.7 C 6.49 g/m*3 17.7 C 0 km/h
1023 05-09-2009 12:37:02 17.7 C 6.34 g/m*3 17.7 C 0 km/h
1024 05-09-2009 12:49:02 18 C 6.3 g/m*3 18 C 0 km/h
1025 05-09-2009 13:01:02 18.2 C 6.37 g/m*3 18.2 C 0 km/h
Sensor: Nr:Datum:Temp:Abs-Feuchte:Windchill:Wind:
Aussen-T/F 1026 05-09-2009 13:13:03 18.4 C 6.61 g/m*3 18.4 C 0 km/h
1027 05-09-2009 13:25:02 18.2 C 6.22 g/m*3 18.2 C 0 km/h
1028 05-09-2009 13:37:02 18 C 5.99 g/m*3 18 C 0 km/h
1029 05-09-2009 13:49:01 18.1 C 6.33 g/m*3 18.1 C 0 km/h
1030 05-09-2009 14:01:01 18 C 6.3 g/m*3 18 C 0 km/h
1031 05-09-2009 14:13:01 18.6 C 5.89 g/m*3 18.6 C 0 km/h
1032 05-09-2009 14:25:01 19.9 C 6.01 g/m*3 19.9 C 0 km/h
1033 05-09-2009 14:37:01 20.2 C 5.94 g/m*3 20.2 C 0 km/h
1034 05-09-2009 14:49:02 20.3 C 5.28 g/m*3 20.3 C 0 km/h
1035 05-09-2009 15:01:02 21 C 5.31 g/m*3 21 C 0 km/h
1036 05-09-2009 15:13:02 21.8 C 5.18 g/m*3 21.8 C 0 km/h
1037 05-09-2009 15:25:03 21 C 4.95 g/m*3 21 C 0 km/h
1038 05-09-2009 15:37:02 22.1 C 5.08 g/m*3 22.1 C 0 km/h
1039 05-09-2009 15:49:03 21.8 C 5.18 g/m*3 21.8 C 0 km/h
1040 05-09-2009 16:01:02 20 C 5.88 g/m*3 20 C 0 km/h
1041 05-09-2009 16:13:02 18.5 C 6.8 g/m*3 18.5 C 0 km/h
1042 05-09-2009 16:25:02 16.8 C 7.15 g/m*3 16.8 C 0 km/h
1043 05-09-2009 16:37:02 16.9 C 7.48 g/m*3 16.9 C 0 km/h
1044 05-09-2009 16:49:02 17.4 C 6.97 g/m*3 17.4 C 0 km/h
1045 05-09-2009 17:01:02 17.4 C 6.82 g/m*3 17.4 C 0 km/h
1046 05-09-2009 17:13:02 16.8 C 6.86 g/m*3 16.8 C 0 km/h
1047 05-09-2009 17:25:02 16.9 C 6.9 g/m*3 16.9 C 0 km/h
1048 05-09-2009 17:37:02 18.5 C 6.49 g/m*3 18.5 C 0 km/h
1049 05-09-2009 17:49:02 19.5 C 6.21 g/m*3 19.5 C 0 km/h
1050 05-09-2009 18:01:01 18.7 C 6.24 g/m*3 18.7 C 0 km/h
Sensor: Nr:Datum:Temp:Abs-Feuchte:Windchill:Wind:
Aussen-T/F 1051 05-09-2009 18:13:01 17.9 C 6.57 g/m*3 17.9 C 0 km/h
1052 05-09-2009 18:25:02 17.9 C 6.26 g/m*3 17.9 C 0 km/h
1053 05-09-2009 18:37:02 18.6 C 5.89 g/m*3 18.6 C 0 km/h
1054 05-09-2009 18:49:01 18.3 C 6.1 g/m*3 18.3 C 0 km/h
1055 05-09-2009 19:01:02 17.8 C 6.53 g/m*3 17.8 C 0 km/h
1056 05-09-2009 19:13:02 17.1 C 6.84 g/m*3 17.1 C 0 km/h
1057 05-09-2009 19:25:01 17.3 C 7.22 g/m*3 17.3 C 0 km/h
1058 05-09-2009 19:37:02 17.3 C 7.37 g/m*3 17.3 C 0 km/h
1059 05-09-2009 19:49:02 16.4 C 7.68 g/m*3 16.4 C 0 km/h
1060 05-09-2009 20:01:02 15.8 C 7.94 g/m*3 15.8 C 0 km/h
1061 05-09-2009 20:13:02 15.3 C 7.84 g/m*3 15.3 C 0 km/h
1062 05-09-2009 20:25:02 14.8 C 7.98 g/m*3 14.8 C 0 km/h
1063 05-09-2009 20:37:02 14.6 C 7.88 g/m*3 14.6 C 0 km/h
1064 05-09-2009 20:49:02 14 C 7.96 g/m*3 14 C 0 km/h
1065 05-09-2009 21:01:02 13.9 C 8.03 g/m*3 13.9 C 0 km/h
1066 05-09-2009 21:13:02 13.8 C 8.22 g/m*3 13.8 C 0 km/h
1067 05-09-2009 21:25:02 13.7 C 8.17 g/m*3 13.7 C 0 km/h
1068 05-09-2009 21:37:02 13.7 C 8.29 g/m*3 13.7 C 0 km/h
1069 05-09-2009 21:49:02 13.5 C 8.42 g/m*3 13.5 C 0 km/h
1070 05-09-2009 22:01:02 13.2 C 8.38 g/m*3 13.2 C 0 km/h
1071 05-09-2009 22:13:02 13.1 C 8.44 g/m*3 13.1 C 0 km/h
1072 05-09-2009 22:25:02 12.8 C 8.4 g/m*3 12.8 C 0 km/h
1073 05-09-2009 22:37:02 12.8 C 8.29 g/m*3 12.8 C 0 km/h
1074 05-09-2009 22:49:02 12.7 C 8.24 g/m*3 12.7 C 0 km/h
1075 05-09-2009 23:01:01 12.6 C 8.3 g/m*3 12.6 C 0 km/h
Sensor: Nr:Datum:Temp:Abs-Feuchte:Windchill:Wind:
Aussen-T/F 1076 05-09-2009 23:13:01 12.5 C 8.14 g/m*3 12.5 C 0 km/h
1077 05-09-2009 23:25:02 12.3 C 8.04 g/m*3 12.3 C 0 km/h
1078 05-09-2009 23:37:02 12.2 C 8.2 g/m*3 12.2 C 0 km/h
1079 05-09-2009 23:49:01 11.8 C 8.1 g/m*3 11.8 C 0 km/h
1080 06-09-2009 00:01:02 11.7 C 8.26 g/m*3 11.7 C 0 km/h
1081 06-09-2009 00:13:02 11.6 C 8.32 g/m*3 11.6 C 0 km/h
1082 06-09-2009 00:25:01 11.4 C 8.42 g/m*3 11.4 C 0 km/h
1083 06-09-2009 00:37:02 11.5 C 8.57 g/m*3 11.5 C 0 km/h
1084 06-09-2009 00:49:02 11.3 C 8.47 g/m*3 11.3 C 0 km/h
1085 06-09-2009 01:01:02 11.2 C 8.41 g/m*3 11.2 C 0 km/h
1086 06-09-2009 01:13:02 11 C 8.41 g/m*3 11 C 0 km/h
1087 06-09-2009 01:25:01 10.9 C 8.36 g/m*3 10.9 C 0 km/h
1088 06-09-2009 01:37:02 10.8 C 8.4 g/m*3 10.8 C 0 km/h
1089 06-09-2009 01:49:02 10.8 C 8.4 g/m*3 10.8 C 0 km/h
1090 06-09-2009 02:01:02 10.9 C 8.45 g/m*3 10.9 C 0 km/h
1091 06-09-2009 02:13:02 10.9 C 8.45 g/m*3 10.9 C 0 km/h
1092 06-09-2009 02:25:02 10.8 C 8.4 g/m*3 10.8 C 0 km/h
1093 06-09-2009 02:37:02 10.7 C 8.35 g/m*3 10.7 C 0 km/h
1094 06-09-2009 02:50:04 10.6 C 8.39 g/m*3 10.6 C 0 km/h
1095 06-09-2009 03:02:04 10.4 C 8.29 g/m*3 10.4 C 0 km/h
1096 06-09-2009 03:14:04 10.3 C 8.33 g/m*3 10.3 C 0 km/h
1097 06-09-2009 03:26:04 10.2 C 8.37 g/m*3 10.2 C 0 km/h
1098 06-09-2009 03:38:02 10.1 C 8.32 g/m*3 10.1 C 0 km/h
1099 06-09-2009 03:50:02 10.1 C 8.32 g/m*3 10.1 C 0 km/h
1100 06-09-2009 04:02:01 9.9 C 8.4 g/m*3 9.9 C 0 km/h
Sensor: Nr:Datum:Temp:Abs-Feuchte:Windchill:Wind:
Aussen-T/F 1101 06-09-2009 04:14:01 10 C 8.36 g/m*3 10 C 0 km/h
1102 06-09-2009 04:26:01 9.9 C 8.5 g/m*3 9.9 C 0 km/h
1103 06-09-2009 04:38:02 9.7 C 8.39 g/m*3 9.7 C 0 km/h
1104 06-09-2009 04:50:02 10 C 8.46 g/m*3 10 C 0 km/h
1105 06-09-2009 05:02:02 9.7 C 8.48 g/m*3 9.7 C 0 km/h
1106 06-09-2009 05:14:02 9.5 C 8.37 g/m*3 9.5 C 0 km/h
1107 06-09-2009 05:26:02 9.5 C 8.37 g/m*3 9.5 C 0 km/h
1108 06-09-2009 05:38:02 9.4 C 8.32 g/m*3 9.4 C 0 km/h
1109 06-09-2009 05:50:01 9.4 C 8.32 g/m*3 9.4 C 0 km/h
1110 06-09-2009 06:02:02 9.5 C 8.37 g/m*3 9.5 C 0 km/h
1111 06-09-2009 06:14:02 9.5 C 8.47 g/m*3 9.5 C 0 km/h
1112 06-09-2009 06:26:01 9.3 C 8.36 g/m*3 9.3 C 0 km/h
1113 06-09-2009 06:38:01 9.3 C 8.36 g/m*3 9.3 C 0 km/h
1114 06-09-2009 06:50:01 9.2 C 8.3 g/m*3 9.2 C 0 km/h
1115 06-09-2009 07:02:02 9.2 C 8.3 g/m*3 9.2 C 0 km/h
1116 06-09-2009 07:14:02 9.1 C 8.25 g/m*3 9.1 C 0 km/h
1117 06-09-2009 07:26:01 9.1 C 8.25 g/m*3 9.1 C 0 km/h
1118 06-09-2009 07:38:01 9.2 C 8.3 g/m*3 9.2 C 0 km/h
1119 06-09-2009 07:50:01 9.3 C 8.36 g/m*3 9.3 C 0 km/h
1120 06-09-2009 08:02:02 9.4 C 8.41 g/m*3 9.4 C 0 km/h
1121 06-09-2009 08:14:02 9.6 C 8.52 g/m*3 9.6 C 0 km/h
1122 06-09-2009 08:26:01 10.2 C 8.76 g/m*3 10.2 C 0 km/h
1123 06-09-2009 08:38:01 10.7 C 9.04 g/m*3 10.7 C 0 km/h
1124 06-09-2009 08:50:01 11.1 C 9.27 g/m*3 11.1 C 0 km/h
1125 06-09-2009 09:02:01 11.4 C 9.44 g/m*3 11.4 C 0 km/h
Sensor: Nr:Datum:Temp:Abs-Feuchte:Windchill:Wind:
Aussen-T/F 1126 06-09-2009 09:14:01 11.8 C 9.47 g/m*3 11.8 C 0 km/h
1127 06-09-2009 09:26:02 11.8 C 9.05 g/m*3 11.8 C 0 km/h
1128 06-09-2009 09:38:01 12.3 C 8.9 g/m*3 12.3 C 0 km/h
1129 06-09-2009 09:50:02 12.4 C 8.63 g/m*3 12.4 C 0 km/h
1130 06-09-2009 10:02:02 12.7 C 8.57 g/m*3 12.7 C 0 km/h
1131 06-09-2009 10:14:02 12.9 C 8.57 g/m*3 12.9 C 0 km/h
1132 06-09-2009 10:26:02 13.1 C 8.44 g/m*3 13.1 C 0 km/h
1133 06-09-2009 10:38:01 13.4 C 8.49 g/m*3 13.4 C 0 km/h
1134 06-09-2009 10:50:02 13.8 C 8.58 g/m*3 13.8 C 0 km/h
1135 06-09-2009 11:02:01 14.3 C 8.48 g/m*3 14.3 C 0 km/h
1136 06-09-2009 11:14:01 14.7 C 8.31 g/m*3 14.7 C 0 km/h
1137 06-09-2009 11:26:01 15 C 8.08 g/m*3 15 C 0 km/h
1138 06-09-2009 11:38:02 15.3 C 8.1 g/m*3 15.3 C 0 km/h
1139 06-09-2009 11:50:02 15.8 C 8.08 g/m*3 15.8 C 0 km/h
1140 06-09-2009 12:02:01 16.1 C 7.95 g/m*3 16.1 C 0 km/h
1141 06-09-2009 12:14:01 16.6 C 8.05 g/m*3 16.6 C 0 km/h
1142 06-09-2009 12:26:02 16.8 C 7.86 g/m*3 16.8 C 0 km/h
1143 06-09-2009 12:38:02 17.1 C 7.42 g/m*3 17.1 C 0 km/h
1144 06-09-2009 12:50:02 17.5 C 7.6 g/m*3 17.5 C 0 km/h
1145 06-09-2009 13:02:03 17.9 C 7.63 g/m*3 17.9 C 0 km/h
1146 06-09-2009 13:14:03 18.3 C 7.04 g/m*3 18.3 C 0 km/h
1147 06-09-2009 13:26:02 18.7 C 6.88 g/m*3 18.7 C 0 km/h
1148 06-09-2009 13:38:02 19.2 C 6.93 g/m*3 19.2 C 0 km/h
1149 06-09-2009 13:50:01 19.7 C 7.13 g/m*3 19.7 C 0 km/h
1150 06-09-2009 14:02:03 19.7 C 7.13 g/m*3 19.7 C 0 km/h
Sensor: Nr:Datum:Temp:Abs-Feuchte:Windchill:Wind:
Aussen-T/F 1151 06-09-2009 14:14:03 20 C 6.91 g/m*3 20 C 0 km/h
1152 06-09-2009 14:26:01 20 C 7.09 g/m*3 20 C 0 km/h
1153 06-09-2009 14:38:02 20.1 C 7.13 g/m*3 20.1 C 0 km/h
1154 06-09-2009 14:50:02 20 C 7.26 g/m*3 20 C 0 km/h
1155 06-09-2009 15:02:02 20 C 7.26 g/m*3 20 C 0 km/h
1156 06-09-2009 15:14:02 22 C 7.18 g/m*3 22 C 0 km/h
1157 06-09-2009 15:26:01 22.5 C 6.99 g/m*3 22.5 C 0 km/h
1158 06-09-2009 15:38:02 20.7 C 7.2 g/m*3 20.7 C 0 km/h
1159 06-09-2009 15:50:02 20.1 C 6.61 g/m*3 20.1 C 0 km/h
1160 06-09-2009 16:02:01 20.3 C 6.51 g/m*3 20.3 C 0 km/h
1161 06-09-2009 16:14:01 21 C 6.41 g/m*3 21 C 0 km/h
1162 06-09-2009 16:26:02 22 C 6.21 g/m*3 22 C 0 km/h
1163 06-09-2009 16:38:01 22.6 C 6.23 g/m*3 22.6 C 0 km/h
1164 06-09-2009 16:50:01 23.1 C 5.58 g/m*3 23.1 C 0 km/h
1165 06-09-2009 17:02:02 22 C 5.05 g/m*3 22 C 0 km/h
1166 06-09-2009 17:14:02 21.6 C 5.12 g/m*3 21.6 C 0 km/h
1167 06-09-2009 17:26:01 21.6 C 5.31 g/m*3 21.6 C 0 km/h
1168 06-09-2009 17:38:02 22 C 5.24 g/m*3 22 C 0 km/h
1169 06-09-2009 17:50:02 22.3 C 5.73 g/m*3 22.3 C 0 km/h
1170 06-09-2009 18:02:02 21.7 C 5.72 g/m*3 21.7 C 0 km/h
1171 06-09-2009 18:14:02 21.9 C 5.79 g/m*3 21.9 C 0 km/h
1172 06-09-2009 18:26:01 21.3 C 5.78 g/m*3 21.3 C 0 km/h
1173 06-09-2009 18:38:02 21.4 C 5.81 g/m*3 21.4 C 0 km/h
1174 06-09-2009 18:50:02 21.2 C 5.74 g/m*3 21.2 C 0 km/h
1175 06-09-2009 19:02:02 20.8 C 6.34 g/m*3 20.8 C 0 km/h
Sensor: Nr:Datum:Temp:Abs-Feuchte:Windchill:Wind:
Aussen-T/F 1176 06-09-2009 19:14:02 20.1 C 6.61 g/m*3 20.1 C 0 km/h
1177 06-09-2009 19:26:02 19.5 C 6.88 g/m*3 19.5 C 0 km/h
1178 06-09-2009 19:38:02 18.8 C 6.93 g/m*3 18.8 C 0 km/h
1179 06-09-2009 19:50:02 18 C 7.07 g/m*3 18 C 0 km/h
1180 06-09-2009 20:02:02 17.3 C 6.92 g/m*3 17.3 C 0 km/h
1181 06-09-2009 20:14:02 16.9 C 7.19 g/m*3 16.9 C 0 km/h
1182 06-09-2009 20:26:02 16.7 C 7.25 g/m*3 16.7 C 0 km/h
1183 06-09-2009 20:38:02 16.5 C 7.3 g/m*3 16.5 C 0 km/h
1184 06-09-2009 20:50:02 16.2 C 7.45 g/m*3 16.2 C 0 km/h
1185 06-09-2009 21:02:02 16.1 C 7.4 g/m*3 16.1 C 0 km/h
1186 06-09-2009 21:14:02 15.9 C 7.58 g/m*3 15.9 C 0 km/h
1187 06-09-2009 21:26:01 15.9 C 7.58 g/m*3 15.9 C 0 km/h
1188 06-09-2009 21:39:02 15.7 C 7.63 g/m*3 15.7 C 0 km/h
1189 06-09-2009 21:51:02 15.6 C 7.71 g/m*3 15.6 C 0 km/h
1190 06-09-2009 22:03:03 15.3 C 7.7 g/m*3 15.3 C 0 km/h
1191 06-09-2009 22:15:03 15 C 7.95 g/m*3 15 C 0 km/h
1192 06-09-2009 22:27:03 14.7 C 8.06 g/m*3 14.7 C 0 km/h
1193 06-09-2009 22:39:03 14.5 C 8.08 g/m*3 14.5 C 0 km/h
1194 06-09-2009 22:51:03 14.3 C 8.11 g/m*3 14.3 C 0 km/h
1195 06-09-2009 23:03:03 14 C 8.08 g/m*3 14 C 0 km/h
1196 06-09-2009 23:15:03 13.8 C 8.22 g/m*3 13.8 C 0 km/h
1197 06-09-2009 23:27:03 13.6 C 8.24 g/m*3 13.6 C 0 km/h
1198 06-09-2009 23:39:03 13.4 C 8.14 g/m*3 13.4 C 0 km/h
1199 06-09-2009 23:51:03 13.3 C 8.2 g/m*3 13.3 C 0 km/h
1200 07-09-2009 00:03:03 13.1 C 8.22 g/m*3 13.1 C 0 km/h
Sensor: Nr:Datum:Temp:Abs-Feuchte:Windchill:Wind:
Aussen-T/F 1201 07-09-2009 00:15:03 12.9 C 8.23 g/m*3 12.9 C 0 km/h
1202 07-09-2009 00:27:03 12.7 C 8.24 g/m*3 12.7 C 0 km/h
1203 07-09-2009 00:39:03 12.5 C 8.25 g/m*3 12.5 C 0 km/h
1204 07-09-2009 00:51:03 12.3 C 8.25 g/m*3 12.3 C 0 km/h
1205 07-09-2009 01:03:03 12.2 C 8.2 g/m*3 12.2 C 0 km/h
1206 07-09-2009 01:15:03 12.1 C 8.15 g/m*3 12.1 C 0 km/h
1207 07-09-2009 01:27:03 11.8 C 8.1 g/m*3 11.8 C 0 km/h
1208 07-09-2009 01:39:03 11.7 C 8.26 g/m*3 11.7 C 0 km/h
1209 07-09-2009 01:51:03 11.5 C 8.16 g/m*3 11.5 C 0 km/h
1210 07-09-2009 02:03:04 11.5 C 8.26 g/m*3 11.5 C 0 km/h
1211 07-09-2009 02:15:04 11.3 C 8.16 g/m*3 11.3 C 0 km/h
1212 07-09-2009 02:27:04 11.2 C 8.01 g/m*3 11.2 C 0 km/h
1213 07-09-2009 02:39:04 11.1 C 7.96 g/m*3 11.1 C 0 km/h
1214 07-09-2009 02:51:04 11 C 8.01 g/m*3 11 C 0 km/h
1215 07-09-2009 03:03:04 10.9 C 8.06 g/m*3 10.9 C 0 km/h
1216 07-09-2009 03:15:04 10.7 C 8.05 g/m*3 10.7 C 0 km/h
1217 07-09-2009 03:27:04 10.7 C 8.15 g/m*3 10.7 C 0 km/h
1218 07-09-2009 03:39:04 10.4 C 8 g/m*3 10.4 C 0 km/h
1219 07-09-2009 03:51:04 10.5 C 8.15 g/m*3 10.5 C 0 km/h
1220 07-09-2009 04:03:04 10.4 C 8 g/m*3 10.4 C 0 km/h
1221 07-09-2009 04:15:04 10.2 C 7.99 g/m*3 10.2 C 0 km/h
1222 07-09-2009 04:27:04 10.1 C 7.94 g/m*3 10.1 C 0 km/h
1223 07-09-2009 04:39:04 9.9 C 7.94 g/m*3 9.9 C 0 km/h
1224 07-09-2009 04:51:04 9.8 C 7.89 g/m*3 9.8 C 0 km/h
1225 07-09-2009 05:03:04 9.7 C 7.84 g/m*3 9.7 C 0 km/h
Sensor: Nr:Datum:Temp:Abs-Feuchte:Windchill:Wind:
Aussen-T/F 1226 07-09-2009 05:15:04 9.7 C 7.84 g/m*3 9.7 C 0 km/h
1227 07-09-2009 05:27:04 9.4 C 7.69 g/m*3 9.4 C 0 km/h
1228 07-09-2009 05:39:04 9.3 C 7.64 g/m*3 9.3 C 0 km/h
1229 07-09-2009 05:51:04 9.1 C 7.54 g/m*3 9.1 C 0 km/h
1230 07-09-2009 06:03:04 9.2 C 7.68 g/m*3 9.2 C 0 km/h
1231 07-09-2009 06:15:02 9.3 C 7.73 g/m*3 9.3 C 0 km/h
1232 07-09-2009 06:27:02 9.6 C 7.97 g/m*3 9.6 C 0 km/h
1233 07-09-2009 06:39:03 9.6 C 7.88 g/m*3 9.6 C 0 km/h
1234 07-09-2009 06:51:02 9.5 C 7.83 g/m*3 9.5 C 0 km/h
1235 07-09-2009 07:03:01 9.6 C 7.88 g/m*3 9.6 C 0 km/h
1236 07-09-2009 07:15:02 9.6 C 7.88 g/m*3 9.6 C 0 km/h
1237 07-09-2009 07:27:02 9.6 C 7.88 g/m*3 9.6 C 0 km/h
1238 07-09-2009 07:39:02 9.3 C 7.82 g/m*3 9.3 C 0 km/h
1239 07-09-2009 07:51:01 9.4 C 7.96 g/m*3 9.4 C 0 km/h
1240 07-09-2009 08:03:02 9.5 C 8.01 g/m*3 9.5 C 0 km/h
1241 07-09-2009 08:15:01 9.5 C 7.92 g/m*3 9.5 C 0 km/h
1242 07-09-2009 08:27:01 9.7 C 8.02 g/m*3 9.7 C 0 km/h
1243 07-09-2009 08:39:02 9.9 C 8.12 g/m*3 9.9 C 0 km/h
1244 07-09-2009 08:51:01 10 C 7.99 g/m*3 10 C 0 km/h
1245 07-09-2009 09:03:02 10.3 C 8.04 g/m*3 10.3 C 0 km/h
1246 07-09-2009 09:15:01 10.6 C 8.1 g/m*3 10.6 C 0 km/h
1247 07-09-2009 09:27:01 11.3 C 8.36 g/m*3 11.3 C 0 km/h
1248 07-09-2009 09:39:02 11.2 C 8.11 g/m*3 11.2 C 0 km/h
1249 07-09-2009 09:51:01 11.2 C 8.21 g/m*3 11.2 C 0 km/h
1250 07-09-2009 10:03:02 11.7 C 8.58 g/m*3 11.7 C 0 km/h
Sensor: Nr:Datum:Temp:Abs-Feuchte:Windchill:Wind:
Aussen-T/F 1251 07-09-2009 10:15:02 12.3 C 8.58 g/m*3 12.3 C 0 km/h
1252 07-09-2009 10:27:02 13 C 8.73 g/m*3 13 C 0 km/h
1253 07-09-2009 10:39:02 13.7 C 8.76 g/m*3 13.7 C 0 km/h
1254 07-09-2009 10:51:01 14.3 C 8.85 g/m*3 14.3 C 0 km/h
1255 07-09-2009 11:03:02 14.7 C 8.56 g/m*3 14.7 C 0 km/h
1256 07-09-2009 11:15:02 15.6 C 8.78 g/m*3 15.6 C 0 km/h
1257 07-09-2009 11:27:02 16.3 C 8.88 g/m*3 16.3 C 0 km/h
1258 07-09-2009 11:39:01 16.7 C 8.95 g/m*3 16.7 C 0 km/h
1259 07-09-2009 11:51:02 17.5 C 8.8 g/m*3 17.5 C 0 km/h
1260 07-09-2009 12:03:01 18.5 C 8.7 g/m*3 18.5 C 0 km/h
1261 07-09-2009 12:15:02 19.4 C 8.68 g/m*3 19.4 C 0 km/h
1262 07-09-2009 12:27:02 19.8 C 8.2 g/m*3 19.8 C 0 km/h
1263 07-09-2009 12:39:01 20.6 C 8.41 g/m*3 20.6 C 0 km/h
1264 07-09-2009 12:51:02 21.3 C 8.2 g/m*3 21.3 C 0 km/h
1265 07-09-2009 13:03:02 21.8 C 8.44 g/m*3 21.8 C 0 km/h
1266 07-09-2009 13:15:02 22.2 C 8.05 g/m*3 22.2 C 0 km/h
1267 07-09-2009 13:27:02 22.9 C 8.38 g/m*3 22.9 C 0 km/h
1268 07-09-2009 13:39:03 23.3 C 8.15 g/m*3 23.3 C 0 km/h
1269 07-09-2009 13:51:02 23.9 C 7.79 g/m*3 23.9 C 0 km/h
1270 07-09-2009 14:03:02 24.5 C 7.83 g/m*3 24.5 C 0 km/h
1271 07-09-2009 14:15:01 25.4 C 7.77 g/m*3 25.4 C 0 km/h
1272 07-09-2009 14:27:01 25.9 C 7.51 g/m*3 25.9 C 0 km/h
1273 07-09-2009 14:39:02 26.1 C 7.59 g/m*3 26.1 C 0 km/h
1274 07-09-2009 14:51:02 27 C 7.72 g/m*3 27 C 0 km/h
1275 07-09-2009 15:03:02 27.8 C 7.26 g/m*3 27.8 C 0 km/h
Sensor: Nr:Datum:Temp:Abs-Feuchte:Windchill:Wind:
Aussen-T/F 1276 07-09-2009 15:15:01 28.2 C 6.6 g/m*3 28.2 C 0 km/h
1277 07-09-2009 15:27:01 27.8 C 6.72 g/m*3 27.8 C 0 km/h
1278 07-09-2009 15:39:02 27.5 C 6.88 g/m*3 27.5 C 0 km/h
1279 07-09-2009 15:51:02 27.7 C 7.22 g/m*3 27.7 C 0 km/h
1280 07-09-2009 16:03:02 28.7 C 6.22 g/m*3 28.7 C 0 km/h
1281 07-09-2009 16:15:02 29.3 C 6.13 g/m*3 29.3 C 0 km/h
1282 07-09-2009 16:27:02 28.8 C 6.25 g/m*3 28.8 C 0 km/h
1283 07-09-2009 16:39:02 27.9 C 5.41 g/m*3 27.9 C 0 km/h
1284 07-09-2009 16:51:02 29 C 6.89 g/m*3 29 C 0 km/h
1285 07-09-2009 17:03:02 29.7 C 6.56 g/m*3 29.7 C 0 km/h
1286 07-09-2009 17:15:02 30.3 C 6.47 g/m*3 30.3 C 0 km/h
1287 07-09-2009 17:27:02 29.1 C 6.64 g/m*3 29.1 C 0 km/h
1288 07-09-2009 17:39:02 29.4 C 6.75 g/m*3 29.4 C 0 km/h
1289 07-09-2009 17:51:02 29.5 C 6.79 g/m*3 29.5 C 0 km/h
1290 07-09-2009 18:03:02 29.1 C 6.64 g/m*3 29.1 C 0 km/h
1291 07-09-2009 18:15:02 29.7 C 7.16 g/m*3 29.7 C 0 km/h
1292 07-09-2009 18:27:02 29.8 C 6.9 g/m*3 29.8 C 0 km/h
1293 07-09-2009 18:39:02 29.4 C 7.93 g/m*3 29.4 C 0 km/h
1294 07-09-2009 18:51:02 28.9 C 8 g/m*3 28.9 C 0 km/h
1295 07-09-2009 19:03:01 28.4 C 7.51 g/m*3 28.4 C 0 km/h
1296 07-09-2009 19:15:02 27.4 C 8.16 g/m*3 27.4 C 0 km/h
1297 07-09-2009 19:27:02 26.2 C 7.88 g/m*3 26.2 C 0 km/h
1298 07-09-2009 19:39:02 24.7 C 7.92 g/m*3 24.7 C 0 km/h
1299 07-09-2009 19:51:02 23.3 C 8.15 g/m*3 23.3 C 0 km/h
1300 07-09-2009 20:03:03 22.7 C 8.28 g/m*3 22.7 C 0 km/h
Sensor: Nr:Datum:Temp:Abs-Feuchte:Windchill:Wind:
Aussen-T/F 1301 07-09-2009 20:15:02 22 C 8.15 g/m*3 22 C 0 km/h
1302 07-09-2009 20:27:02 21.7 C 8.39 g/m*3 21.7 C 0 km/h
1303 07-09-2009 20:39:02 21.4 C 8.44 g/m*3 21.4 C 0 km/h
1304 07-09-2009 20:51:02 21.2 C 8.52 g/m*3 21.2 C 0 km/h
1305 07-09-2009 21:03:01 20.9 C 8.56 g/m*3 20.9 C 0 km/h
1306 07-09-2009 21:15:02 20.7 C 8.46 g/m*3 20.7 C 0 km/h
1307 07-09-2009 21:27:02 20.5 C 8.72 g/m*3 20.5 C 0 km/h
1308 07-09-2009 21:39:01 20 C 8.81 g/m*3 20 C 0 km/h
1309 07-09-2009 21:51:02 19.6 C 8.78 g/m*3 19.6 C 0 km/h
1310 07-09-2009 22:03:01 19.5 C 8.73 g/m*3 19.5 C 0 km/h
1311 07-09-2009 22:15:01 19 C 8.96 g/m*3 19 C 0 km/h
1312 07-09-2009 22:27:01 18.6 C 9.07 g/m*3 18.6 C 0 km/h
1313 07-09-2009 22:40:01 18.4 C 9.12 g/m*3 18.4 C 0 km/h
1314 07-09-2009 22:52:01 18.2 C 9.01 g/m*3 18.2 C 0 km/h
1315 07-09-2009 23:04:01 18 C 8.75 g/m*3 18 C 0 km/h
1316 07-09-2009 23:16:01 17.9 C 8.86 g/m*3 17.9 C 0 km/h
1317 07-09-2009 23:28:01 17.8 C 8.95 g/m*3 17.8 C 0 km/h
1318 07-09-2009 23:40:01 17.4 C 8.89 g/m*3 17.4 C 0 km/h
1319 07-09-2009 23:52:01 17 C 8.97 g/m*3 17 C 0 km/h
1320 08-09-2009 00:04:01 16.7 C 9.1 g/m*3 16.7 C 0 km/h
1321 08-09-2009 00:16:01 16.4 C 9.21 g/m*3 16.4 C 0 km/h
1322 08-09-2009 00:28:02 16.2 C 9.1 g/m*3 16.2 C 0 km/h
1323 08-09-2009 00:40:02 15.9 C 9.21 g/m*3 15.9 C 0 km/h
1324 08-09-2009 00:52:02 15.7 C 9.23 g/m*3 15.7 C 0 km/h
1325 08-09-2009 01:04:02 15.3 C 9.14 g/m*3 15.3 C 0 km/h
Sensor: Nr:Datum:Temp:Abs-Feuchte:Windchill:Wind:
Aussen-T/F 1326 08-09-2009 01:16:02 15.2 C 9.09 g/m*3 15.2 C 0 km/h
1327 08-09-2009 01:28:02 15.2 C 9.22 g/m*3 15.2 C 0 km/h
1328 08-09-2009 01:40:02 15 C 9.23 g/m*3 15 C 0 km/h
1329 08-09-2009 01:52:02 14.9 C 9.3 g/m*3 14.9 C 0 km/h
1330 08-09-2009 02:04:02 14.6 C 9.26 g/m*3 14.6 C 0 km/h
1331 08-09-2009 02:16:02 14.4 C 9.15 g/m*3 14.4 C 0 km/h
1332 08-09-2009 02:28:02 14.1 C 8.98 g/m*3 14.1 C 0 km/h
1333 08-09-2009 02:40:02 14.1 C 9.1 g/m*3 14.1 C 0 km/h
1334 08-09-2009 02:52:02 13.9 C 9.11 g/m*3 13.9 C 0 km/h
1335 08-09-2009 03:04:02 13.8 C 9.06 g/m*3 13.8 C 0 km/h
1336 08-09-2009 03:16:02 13.5 C 9.12 g/m*3 13.5 C 0 km/h
1337 08-09-2009 03:28:02 13.4 C 9.07 g/m*3 13.4 C 0 km/h
1338 08-09-2009 03:40:02 13.2 C 8.96 g/m*3 13.2 C 0 km/h
1339 08-09-2009 03:52:02 13.1 C 9.01 g/m*3 13.1 C 0 km/h
1340 08-09-2009 04:04:02 13 C 8.96 g/m*3 13 C 0 km/h
1341 08-09-2009 04:16:02 12.8 C 8.85 g/m*3 12.8 C 0 km/h
1342 08-09-2009 04:28:02 12.7 C 8.79 g/m*3 12.7 C 0 km/h
1343 08-09-2009 04:40:03 12.5 C 8.8 g/m*3 12.5 C 0 km/h
1344 08-09-2009 04:52:03 12.4 C 8.74 g/m*3 12.4 C 0 km/h
1345 08-09-2009 05:04:03 12.2 C 8.74 g/m*3 12.2 C 0 km/h
1346 08-09-2009 05:16:03 12.1 C 8.69 g/m*3 12.1 C 0 km/h
1347 08-09-2009 05:28:03 11.9 C 8.68 g/m*3 11.9 C 0 km/h
1348 08-09-2009 05:40:03 11.8 C 8.63 g/m*3 11.8 C 0 km/h
1349 08-09-2009 05:52:03 11.7 C 8.58 g/m*3 11.7 C 0 km/h
1350 08-09-2009 06:04:03 11.7 C 8.68 g/m*3 11.7 C 0 km/h
Sensor: Nr:Datum:Temp:Abs-Feuchte:Windchill:Wind:
Aussen-T/F 1351 08-09-2009 06:16:03 11.6 C 8.73 g/m*3 11.6 C 0 km/h
1352 08-09-2009 06:28:03 11.5 C 8.68 g/m*3 11.5 C 0 km/h
1353 08-09-2009 06:40:03 11.5 C 8.78 g/m*3 11.5 C 0 km/h
1354 08-09-2009 06:52:03 11.5 C 8.68 g/m*3 11.5 C 0 km/h
1355 08-09-2009 07:04:02 11.6 C 8.73 g/m*3 11.6 C 0 km/h
1356 08-09-2009 07:16:02 11.5 C 8.68 g/m*3 11.5 C 0 km/h
1357 08-09-2009 07:28:02 11.5 C 8.68 g/m*3 11.5 C 0 km/h
1358 08-09-2009 07:40:01 11.7 C 8.79 g/m*3 11.7 C 0 km/h
1359 08-09-2009 07:52:01 11.8 C 8.74 g/m*3 11.8 C 0 km/h
1360 08-09-2009 08:04:01 12 C 8.85 g/m*3 12 C 0 km/h
1361 08-09-2009 08:16:02 12.1 C 8.9 g/m*3 12.1 C 0 km/h
1362 08-09-2009 08:28:02 12.2 C 8.85 g/m*3 12.2 C 0 km/h
1363 08-09-2009 08:40:01 11.9 C 8.9 g/m*3 11.9 C 0 km/h
1364 08-09-2009 08:52:02 11.9 C 9 g/m*3 11.9 C 0 km/h
1365 08-09-2009 09:04:01 12 C 9.06 g/m*3 12 C 0 km/h
1366 08-09-2009 09:16:01 12.5 C 9.35 g/m*3 12.5 C 0 km/h
1367 08-09-2009 09:28:02 12.7 C 9.24 g/m*3 12.7 C 0 km/h
1368 08-09-2009 09:40:01 13 C 9.3 g/m*3 13 C 0 km/h
1369 08-09-2009 09:52:02 12.8 C 9.3 g/m*3 12.8 C 0 km/h
1370 08-09-2009 10:04:02 13.1 C 9.47 g/m*3 13.1 C 0 km/h
1371 08-09-2009 10:16:02 13.6 C 9.77 g/m*3 13.6 C 0 km/h
1372 08-09-2009 10:28:02 14.2 C 9.89 g/m*3 14.2 C 0 km/h
1373 08-09-2009 10:40:02 14.9 C 10.07 g/m*3 14.9 C 0 km/h
1374 08-09-2009 10:52:02 15.8 C 10.36 g/m*3 15.8 C 0 km/h
1375 08-09-2009 11:04:02 16.5 C 10.39 g/m*3 16.5 C 0 km/h
Sensor: Nr:Datum:Temp:Abs-Feuchte:Windchill:Wind:
Aussen-T/F 1376 08-09-2009 11:16:01 17.3 C 10.16 g/m*3 17.3 C 0 km/h
1377 08-09-2009 11:28:01 18.5 C 9.97 g/m*3 18.5 C 0 km/h
1378 08-09-2009 11:40:02 19.1 C 9.84 g/m*3 19.1 C 0 km/h
1379 08-09-2009 11:52:02 19.9 C 9.97 g/m*3 19.9 C 0 km/h
1380 08-09-2009 12:04:02 20.4 C 10.08 g/m*3 20.4 C 0 km/h
1381 08-09-2009 12:16:01 20.9 C 10.56 g/m*3 20.9 C 0 km/h
1382 08-09-2009 12:28:01 21.6 C 10.43 g/m*3 21.6 C 0 km/h
1383 08-09-2009 12:40:02 22.3 C 9.28 g/m*3 22.3 C 0 km/h
1384 08-09-2009 12:52:02 22.9 C 10.01 g/m*3 22.9 C 0 km/h
1385 08-09-2009 13:04:02 23.3 C 10.25 g/m*3 23.3 C 0 km/h
1386 08-09-2009 13:16:01 24.2 C 9.68 g/m*3 24.2 C 0 km/h
1387 08-09-2009 13:28:01 24.8 C 9.56 g/m*3 24.8 C 0 km/h
1388 08-09-2009 13:40:02 25.6 C 8.57 g/m*3 25.6 C 0 km/h
1389 08-09-2009 13:52:02 26.5 C 7.76 g/m*3 26.5 C 0 km/h
1390 08-09-2009 14:04:02 27.5 C 9 g/m*3 27.5 C 0 km/h
1391 08-09-2009 14:16:02 27.9 C 8.11 g/m*3 27.9 C 0 km/h
1392 08-09-2009 14:28:02 28.8 C 7.67 g/m*3 28.8 C 0 km/h
1393 08-09-2009 14:40:02 29.5 C 7.38 g/m*3 29.5 C 0 km/h
1394 08-09-2009 14:52:01 29.8 C 6.6 g/m*3 29.8 C 0 km/h
1395 08-09-2009 15:04:02 30.3 C 6.78 g/m*3 30.3 C 0 km/h
1396 08-09-2009 15:16:02 30.6 C 6.58 g/m*3 30.6 C 0 km/h
1397 08-09-2009 15:28:02 30.6 C 6.26 g/m*3 30.6 C 0 km/h
1398 08-09-2009 15:40:01 31 C 6.4 g/m*3 31 C 0 km/h
1399 08-09-2009 15:52:02 31.2 C 6.47 g/m*3 31.2 C 0 km/h
1400 08-09-2009 16:04:01 31.4 C 6.54 g/m*3 31.4 C 0 km/h
Sensor: Nr:Datum:Temp:Abs-Feuchte:Windchill:Wind:
Aussen-T/F 1401 08-09-2009 16:16:02 31.6 C 6.61 g/m*3 31.6 C 0 km/h
1402 08-09-2009 16:28:02 31.7 C 6.64 g/m*3 31.7 C 0 km/h
1403 08-09-2009 16:40:01 32 C 6.75 g/m*3 32 C 0 km/h
1404 08-09-2009 16:52:02 32 C 6.75 g/m*3 32 C 0 km/h
1405 08-09-2009 17:04:02 31.9 C 6.72 g/m*3 31.9 C 0 km/h
1406 08-09-2009 17:16:02 31.9 C 6.72 g/m*3 31.9 C 0 km/h
1407 08-09-2009 17:28:02 32 C 6.75 g/m*3 32 C 0 km/h
1408 08-09-2009 17:40:03 32 C 6.75 g/m*3 32 C 0 km/h
1409 08-09-2009 17:52:02 31.9 C 6.72 g/m*3 31.9 C 0 km/h
1410 08-09-2009 18:04:02 31.9 C 6.72 g/m*3 31.9 C 0 km/h
1411 08-09-2009 18:16:02 31.6 C 6.61 g/m*3 31.6 C 0 km/h
1412 08-09-2009 18:28:02 31.2 C 6.47 g/m*3 31.2 C 0 km/h
1413 08-09-2009 18:40:02 31 C 6.4 g/m*3 31 C 0 km/h
1414 08-09-2009 18:52:01 30.5 C 6.23 g/m*3 30.5 C 0 km/h
1415 08-09-2009 19:04:02 29.8 C 6.3 g/m*3 29.8 C 0 km/h
1416 08-09-2009 19:16:01 28.9 C 6.57 g/m*3 28.9 C 0 km/h
1417 08-09-2009 19:28:01 27.9 C 6.76 g/m*3 27.9 C 0 km/h
1418 08-09-2009 19:40:02 26.9 C 6.65 g/m*3 26.9 C 0 km/h
1419 08-09-2009 19:52:01 25.8 C 6.74 g/m*3 25.8 C 0 km/h
1420 08-09-2009 20:04:02 24.9 C 7.1 g/m*3 24.9 C 0 km/h
1421 08-09-2009 20:16:01 24.6 C 6.98 g/m*3 24.6 C 0 km/h
1422 08-09-2009 20:28:01 24.2 C 7.04 g/m*3 24.2 C 0 km/h
1423 08-09-2009 20:40:02 23.9 C 7.36 g/m*3 23.9 C 0 km/h
1424 08-09-2009 20:52:01 23.6 C 7.44 g/m*3 23.6 C 0 km/h
1425 08-09-2009 21:04:01 23.2 C 7.48 g/m*3 23.2 C 0 km/h
Sensor: Nr:Datum:Temp:Abs-Feuchte:Windchill:Wind:
Aussen-T/F 1426 08-09-2009 21:16:02 22.6 C 7.63 g/m*3 22.6 C 0 km/h
1427 08-09-2009 21:28:02 22.1 C 8 g/m*3 22.1 C 0 km/h
1428 08-09-2009 21:40:02 21.5 C 8.3 g/m*3 21.5 C 0 km/h
1429 08-09-2009 21:52:01 21 C 8.24 g/m*3 21 C 0 km/h
1430 08-09-2009 22:04:01 20.7 C 8.28 g/m*3 20.7 C 0 km/h
1431 08-09-2009 22:16:01 20.4 C 8.14 g/m*3 20.4 C 0 km/h
1432 08-09-2009 22:28:01 19.8 C 8.2 g/m*3 19.8 C 0 km/h
1433 08-09-2009 22:41:02 19.6 C 8.44 g/m*3 19.6 C 0 km/h
1434 08-09-2009 22:53:02 19.2 C 8.74 g/m*3 19.2 C 0 km/h
1435 08-09-2009 23:05:02 18.8 C 8.86 g/m*3 18.8 C 0 km/h
1436 08-09-2009 23:17:02 18.5 C 8.54 g/m*3 18.5 C 0 km/h
1437 08-09-2009 23:29:02 18.3 C 8.44 g/m*3 18.3 C 0 km/h
1438 08-09-2009 23:41:02 18 C 8.29 g/m*3 18 C 0 km/h
1439 08-09-2009 23:53:03 17.7 C 8.45 g/m*3 17.7 C 0 km/h
1440 09-09-2009 00:05:03 17.5 C 8.35 g/m*3 17.5 C 0 km/h
1441 09-09-2009 00:17:03 17.3 C 8.4 g/m*3 17.3 C 0 km/h
1442 09-09-2009 00:29:03 17.1 C 8.44 g/m*3 17.1 C 0 km/h
1443 09-09-2009 00:41:03 16.9 C 8.49 g/m*3 16.9 C 0 km/h
1444 09-09-2009 00:53:03 16.6 C 8.33 g/m*3 16.6 C 0 km/h
1445 09-09-2009 01:05:03 16.4 C 8.51 g/m*3 16.4 C 0 km/h
1446 09-09-2009 01:17:03 16.2 C 8.55 g/m*3 16.2 C 0 km/h
1447 09-09-2009 01:29:03 16 C 8.45 g/m*3 16 C 0 km/h
1448 09-09-2009 01:41:03 15.8 C 8.48 g/m*3 15.8 C 0 km/h
1449 09-09-2009 01:53:03 15.6 C 8.64 g/m*3 15.6 C 0 km/h
1450 09-09-2009 02:05:03 15.2 C 8.57 g/m*3 15.2 C 0 km/h
Sensor: Nr:Datum:Temp:Abs-Feuchte:Windchill:Wind:
Aussen-T/F 1451 09-09-2009 02:17:03 15 C 8.59 g/m*3 15 C 0 km/h
1452 09-09-2009 02:29:03 14.8 C 8.61 g/m*3 14.8 C 0 km/h
1453 09-09-2009 02:41:03 14.7 C 8.69 g/m*3 14.7 C 0 km/h
1454 09-09-2009 02:53:03 14.6 C 8.63 g/m*3 14.6 C 0 km/h
1455 09-09-2009 03:05:03 14.3 C 8.6 g/m*3 14.3 C 0 km/h
1456 09-09-2009 03:17:03 14.1 C 8.62 g/m*3 14.1 C 0 km/h
1457 09-09-2009 03:29:03 14.1 C 8.74 g/m*3 14.1 C 0 km/h
1458 09-09-2009 03:41:03 13.9 C 8.75 g/m*3 13.9 C 0 km/h
1459 09-09-2009 03:53:03 13.7 C 8.64 g/m*3 13.7 C 0 km/h
1460 09-09-2009 04:05:04 13.5 C 8.66 g/m*3 13.5 C 0 km/h
1461 09-09-2009 04:17:04 13.4 C 8.6 g/m*3 13.4 C 0 km/h
1462 09-09-2009 04:29:04 13.3 C 8.55 g/m*3 13.3 C 0 km/h
1463 09-09-2009 04:41:04 13.2 C 8.61 g/m*3 13.2 C 0 km/h
1464 09-09-2009 04:53:04 13 C 8.62 g/m*3 13 C 0 km/h
1465 09-09-2009 05:05:04 12.9 C 8.68 g/m*3 12.9 C 0 km/h
1466 09-09-2009 05:17:04 12.7 C 8.57 g/m*3 12.7 C 0 km/h
1467 09-09-2009 05:29:04 12.6 C 8.63 g/m*3 12.6 C 0 km/h
1468 09-09-2009 05:41:04 12.4 C 8.52 g/m*3 12.4 C 0 km/h
1469 09-09-2009 05:53:04 12.2 C 8.42 g/m*3 12.2 C 0 km/h
1470 09-09-2009 06:05:04 12.1 C 8.36 g/m*3 12.1 C 0 km/h
1471 09-09-2009 06:17:04 12 C 8.42 g/m*3 12 C 0 km/h
1472 09-09-2009 06:29:04 11.8 C 8.42 g/m*3 11.8 C 0 km/h
1473 09-09-2009 06:41:04 11.8 C 8.42 g/m*3 11.8 C 0 km/h
1474 09-09-2009 06:53:04 11.7 C 8.47 g/m*3 11.7 C 0 km/h
1475 09-09-2009 07:05:02 11.6 C 8.42 g/m*3 11.6 C 0 km/h
Sensor: Nr:Datum:Temp:Abs-Feuchte:Windchill:Wind:
Aussen-T/F 1476 09-09-2009 07:17:01 11.5 C 8.37 g/m*3 11.5 C 0 km/h
1477 09-09-2009 07:29:01 11.6 C 8.42 g/m*3 11.6 C 0 km/h
1478 09-09-2009 07:41:02 11.7 C 8.47 g/m*3 11.7 C 0 km/h
1479 09-09-2009 07:53:02 11.8 C 8.53 g/m*3 11.8 C 0 km/h
1480 09-09-2009 08:05:02 11.9 C 8.58 g/m*3 11.9 C 0 km/h
1481 09-09-2009 08:17:02 12 C 8.53 g/m*3 12 C 0 km/h
1482 09-09-2009 08:29:02 12.3 C 8.69 g/m*3 12.3 C 0 km/h
1483 09-09-2009 08:41:02 12.4 C 8.74 g/m*3 12.4 C 0 km/h
1484 09-09-2009 08:53:01 12.6 C 8.85 g/m*3 12.6 C 0 km/h
1485 09-09-2009 09:05:02 12.7 C 8.79 g/m*3 12.7 C 0 km/h
1486 09-09-2009 09:17:02 12.8 C 8.85 g/m*3 12.8 C 0 km/h
1487 09-09-2009 09:29:02 13.1 C 8.9 g/m*3 13.1 C 0 km/h
1488 09-09-2009 09:41:02 13.6 C 9.18 g/m*3 13.6 C 0 km/h
1489 09-09-2009 09:53:02 14.3 C 9.21 g/m*3 14.3 C 0 km/h
1490 09-09-2009 10:05:02 15 C 9.1 g/m*3 15 C 0 km/h
1491 09-09-2009 10:17:02 15.2 C 8.96 g/m*3 15.2 C 0 km/h
1492 09-09-2009 10:29:03 15.8 C 9.02 g/m*3 15.8 C 0 km/h
1493 09-09-2009 10:41:01 16.6 C 9.18 g/m*3 16.6 C 0 km/h
1494 09-09-2009 10:53:02 17 C 9.12 g/m*3 17 C 0 km/h
1495 09-09-2009 11:05:01 17.7 C 9.35 g/m*3 17.7 C 0 km/h
1496 09-09-2009 11:17:01 18.2 C 9.17 g/m*3 18.2 C 0 km/h
1497 09-09-2009 11:29:01 18.9 C 9.07 g/m*3 18.9 C 0 km/h
1498 09-09-2009 11:41:02 19.4 C 8.84 g/m*3 19.4 C 0 km/h
1499 09-09-2009 11:53:02 20.2 C 9.09 g/m*3 20.2 C 0 km/h
1500 09-09-2009 12:05:02 20.8 C 9.23 g/m*3 20.8 C 0 km/h
Sensor: Nr:Datum:Temp:Abs-Feuchte:Windchill:Wind:
Aussen-T/F 1501 09-09-2009 12:17:02 21.2 C 9.27 g/m*3 21.2 C 0 km/h
1502 09-09-2009 12:29:02 21.8 C 9.4 g/m*3 21.8 C 0 km/h
1503 09-09-2009 12:41:02 22.4 C 9.73 g/m*3 22.4 C 0 km/h
1504 09-09-2009 12:53:01 22.7 C 10.1 g/m*3 22.7 C 0 km/h
1505 09-09-2009 13:05:02 23.8 C 9.68 g/m*3 23.8 C 0 km/h
1506 09-09-2009 13:17:01 24.5 C 9.4 g/m*3 24.5 C 0 km/h
1507 09-09-2009 13:29:01 25.2 C 8.61 g/m*3 25.2 C 0 km/h
1508 09-09-2009 13:41:02 26 C 8.76 g/m*3 26 C 0 km/h
1509 09-09-2009 13:53:02 26.5 C 8.76 g/m*3 26.5 C 0 km/h
1510 09-09-2009 14:05:02 27.4 C 7.1 g/m*3 27.4 C 0 km/h
1511 09-09-2009 14:17:01 27.7 C 6.95 g/m*3 27.7 C 0 km/h
1512 09-09-2009 14:29:01 27.6 C 7.98 g/m*3 27.6 C 0 km/h
1513 09-09-2009 14:41:02 27.9 C 7.3 g/m*3 27.9 C 0 km/h
1514 09-09-2009 14:53:02 28.6 C 7.03 g/m*3 28.6 C 0 km/h
1515 09-09-2009 15:05:02 28.5 C 7.83 g/m*3 28.5 C 0 km/h
1516 09-09-2009 15:17:02 28.8 C 7.1 g/m*3 28.8 C 0 km/h
1517 09-09-2009 15:29:02 28.7 C 7.63 g/m*3 28.7 C 0 km/h
1518 09-09-2009 15:41:02 28.3 C 7.74 g/m*3 28.3 C 0 km/h
1519 09-09-2009 15:53:01 28.5 C 8.11 g/m*3 28.5 C 0 km/h
1520 09-09-2009 16:05:02 28.8 C 7.67 g/m*3 28.8 C 0 km/h
1521 09-09-2009 16:17:02 28.7 C 7.91 g/m*3 28.7 C 0 km/h
1522 09-09-2009 16:29:02 29 C 7.18 g/m*3 29 C 0 km/h
1523 09-09-2009 16:41:02 29.1 C 6.35 g/m*3 29.1 C 0 km/h
1524 09-09-2009 16:53:02 28.5 C 7.27 g/m*3 28.5 C 0 km/h
1525 09-09-2009 17:05:01 27.3 C 7.33 g/m*3 27.3 C 0 km/h
Sensor: Nr:Datum:Temp:Abs-Feuchte:Windchill:Wind:
Aussen-T/F 1526 09-09-2009 17:17:02 27.7 C 8.02 g/m*3 27.7 C 0 km/h
1527 09-09-2009 17:29:03 28.1 C 7.66 g/m*3 28.1 C 0 km/h
1528 09-09-2009 17:41:01 29.3 C 7.88 g/m*3 29.3 C 0 km/h
1529 09-09-2009 17:53:02 30.4 C 7.75 g/m*3 30.4 C 0 km/h
1530 09-09-2009 18:05:01 30 C 7.58 g/m*3 30 C 0 km/h
1531 09-09-2009 18:17:02 30 C 7.58 g/m*3 30 C 0 km/h
1532 09-09-2009 18:29:02 29.7 C 7.46 g/m*3 29.7 C 0 km/h
1533 09-09-2009 18:41:01 28.5 C 8.11 g/m*3 28.5 C 0 km/h
1534 09-09-2009 18:53:02 27.3 C 7.85 g/m*3 27.3 C 0 km/h
1535 09-09-2009 19:05:02 26.2 C 7.88 g/m*3 26.2 C 0 km/h
1536 09-09-2009 19:17:02 25.5 C 8.29 g/m*3 25.5 C 0 km/h
1537 09-09-2009 19:29:02 24.7 C 8.15 g/m*3 24.7 C 0 km/h
1538 09-09-2009 19:41:02 23.9 C 8 g/m*3 23.9 C 0 km/h
1539 09-09-2009 19:53:02 23.4 C 7.99 g/m*3 23.4 C 0 km/h
1540 09-09-2009 20:05:02 23.1 C 7.86 g/m*3 23.1 C 0 km/h
1541 09-09-2009 20:17:01 22.8 C 7.72 g/m*3 22.8 C 0 km/h
1542 09-09-2009 20:29:01 22.7 C 8.08 g/m*3 22.7 C 0 km/h
1543 09-09-2009 20:41:02 22.6 C 8.44 g/m*3 22.6 C 0 km/h
1544 09-09-2009 20:53:02 22.3 C 8.89 g/m*3 22.3 C 0 km/h
1545 09-09-2009 21:05:02 22 C 9.12 g/m*3 22 C 0 km/h
1546 09-09-2009 21:17:02 22.2 C 9.62 g/m*3 22.2 C 0 km/h
1547 09-09-2009 21:29:02 22.4 C 10.13 g/m*3 22.4 C 0 km/h
1548 09-09-2009 21:41:01 22.7 C 10.71 g/m*3 22.7 C 0 km/h
1549 09-09-2009 21:53:02 22.4 C 10.72 g/m*3 22.4 C 0 km/h
1550 09-09-2009 22:05:01 22.5 C 11.19 g/m*3 22.5 C 0 km/h
Sensor: Nr:Datum:Temp:Abs-Feuchte:Windchill:Wind:
Aussen-T/F 1551 09-09-2009 22:17:02 22.3 C 11.45 g/m*3 22.3 C 0 km/h
1552 09-09-2009 22:29:02 22 C 11.84 g/m*3 22 C 0 km/h
1553 09-09-2009 22:41:02 21.7 C 12.4 g/m*3 21.7 C 0 km/h
1554 09-09-2009 22:53:02 21.4 C 12.37 g/m*3 21.4 C 0 km/h
1555 09-09-2009 23:05:02 21.1 C 12.53 g/m*3 21.1 C 0 km/h
1556 09-09-2009 23:18:02 20.8 C 12.49 g/m*3 20.8 C 0 km/h
1557 09-09-2009 23:30:02 20.6 C 12.53 g/m*3 20.6 C 0 km/h
1558 09-09-2009 23:42:02 20.5 C 12.46 g/m*3 20.5 C 0 km/h
1559 09-09-2009 23:54:02 20.3 C 12.31 g/m*3 20.3 C 0 km/h
1560 10-09-2009 00:06:02 20.2 C 12.41 g/m*3 20.2 C 0 km/h
1561 10-09-2009 00:18:02 20.1 C 12.34 g/m*3 20.1 C 0 km/h
1562 10-09-2009 00:30:02 20.1 C 12.17 g/m*3 20.1 C 0 km/h
1563 10-09-2009 00:42:02 20.2 C 12.06 g/m*3 20.2 C 0 km/h
1564 10-09-2009 00:54:02 20.2 C 11.89 g/m*3 20.2 C 0 km/h
1565 10-09-2009 01:06:02 20.2 C 11.89 g/m*3 20.2 C 0 km/h
1566 10-09-2009 01:18:02 20.2 C 11.89 g/m*3 20.2 C 0 km/h
1567 10-09-2009 01:30:02 20.1 C 11.82 g/m*3 20.1 C 0 km/h
1568 10-09-2009 01:42:02 20 C 11.75 g/m*3 20 C 0 km/h
1569 10-09-2009 01:54:02 19.9 C 11.85 g/m*3 19.9 C 0 km/h
1570 10-09-2009 02:06:02 19.9 C 11.68 g/m*3 19.9 C 0 km/h
1571 10-09-2009 02:18:02 19.9 C 11.68 g/m*3 19.9 C 0 km/h
1572 10-09-2009 02:30:03 19.8 C 11.61 g/m*3 19.8 C 0 km/h
1573 10-09-2009 02:42:03 19.5 C 11.41 g/m*3 19.5 C 0 km/h
1574 10-09-2009 02:54:03 19.5 C 11.58 g/m*3 19.5 C 0 km/h
1575 10-09-2009 03:06:03 19.5 C 11.58 g/m*3 19.5 C 0 km/h
Sensor: Nr:Datum:Temp:Abs-Feuchte:Windchill:Wind:
Aussen-T/F 1576 10-09-2009 03:18:03 19.4 C 11.51 g/m*3 19.4 C 0 km/h
1577 10-09-2009 03:30:03 19.4 C 11.51 g/m*3 19.4 C 0 km/h
1578 10-09-2009 03:42:03 19.2 C 11.54 g/m*3 19.2 C 0 km/h
1579 10-09-2009 03:54:03 19.1 C 11.47 g/m*3 19.1 C 0 km/h
1580 10-09-2009 04:06:03 19.1 C 11.47 g/m*3 19.1 C 0 km/h
1581 10-09-2009 04:18:03 18.9 C 11.66 g/m*3 18.9 C 0 km/h
1582 10-09-2009 04:30:03 18.8 C 11.6 g/m*3 18.8 C 0 km/h
1583 10-09-2009 04:42:03 18.6 C 11.62 g/m*3 18.6 C 0 km/h
1584 10-09-2009 04:54:03 18.6 C 11.62 g/m*3 18.6 C 0 km/h
1585 10-09-2009 05:06:03 18.8 C 11.76 g/m*3 18.8 C 0 km/h
1586 10-09-2009 05:18:03 18.7 C 11.53 g/m*3 18.7 C 0 km/h
1587 10-09-2009 05:30:03 18.4 C 11.48 g/m*3 18.4 C 0 km/h
1588 10-09-2009 05:42:03 18.2 C 11.5 g/m*3 18.2 C 0 km/h
1589 10-09-2009 05:54:03 18.1 C 11.43 g/m*3 18.1 C 0 km/h
1590 10-09-2009 06:06:03 18.3 C 11.41 g/m*3 18.3 C 0 km/h
1591 10-09-2009 06:18:03 18.3 C 11.26 g/m*3 18.3 C 0 km/h
1592 10-09-2009 06:30:03 18.2 C 11.19 g/m*3 18.2 C 0 km/h
1593 10-09-2009 06:42:04 18 C 11.06 g/m*3 18 C 0 km/h
1594 10-09-2009 06:54:04 17.9 C 11.15 g/m*3 17.9 C 0 km/h
1595 10-09-2009 07:06:02 17.9 C 11.15 g/m*3 17.9 C 0 km/h
1596 10-09-2009 07:18:02 18 C 11.06 g/m*3 18 C 0 km/h
1597 10-09-2009 07:30:02 18.2 C 11.04 g/m*3 18.2 C 0 km/h
1598 10-09-2009 07:42:02 18.2 C 10.88 g/m*3 18.2 C 0 km/h
1599 10-09-2009 07:54:02 18.1 C 10.66 g/m*3 18.1 C 0 km/h
1600 10-09-2009 08:06:02 18.1 C 10.66 g/m*3 18.1 C 0 km/h
Sensor: Nr:Datum:Temp:Abs-Feuchte:Windchill:Wind:
Aussen-T/F 1601 10-09-2009 08:18:02 18.1 C 10.66 g/m*3 18.1 C 0 km/h
1602 10-09-2009 08:30:02 18 C 10.44 g/m*3 18 C 0 km/h
1603 10-09-2009 08:42:01 18.1 C 10.51 g/m*3 18.1 C 0 km/h
1604 10-09-2009 08:54:02 18 C 10.29 g/m*3 18 C 0 km/h
1605 10-09-2009 09:06:01 18 C 10.29 g/m*3 18 C 0 km/h
1606 10-09-2009 09:18:01 18.1 C 10.35 g/m*3 18.1 C 0 km/h
1607 10-09-2009 09:30:01 18.3 C 10.32 g/m*3 18.3 C 0 km/h
1608 10-09-2009 09:42:02 18.5 C 10.28 g/m*3 18.5 C 0 km/h
1609 10-09-2009 09:54:02 18 C 9.98 g/m*3 18 C 0 km/h
1610 10-09-2009 10:06:02 18 C 10.14 g/m*3 18 C 0 km/h
1611 10-09-2009 10:18:02 18.3 C 10.32 g/m*3 18.3 C 0 km/h
1612 10-09-2009 10:30:02 18.1 C 10.04 g/m*3 18.1 C 0 km/h
1613 10-09-2009 10:42:02 18.2 C 10.26 g/m*3 18.2 C 0 km/h
1614 10-09-2009 10:54:02 18.2 C 10.1 g/m*3 18.2 C 0 km/h
1615 10-09-2009 11:06:02 18.4 C 10.22 g/m*3 18.4 C 0 km/h
1616 10-09-2009 11:18:02 18.4 C 10.22 g/m*3 18.4 C 0 km/h
1617 10-09-2009 11:30:02 18.3 C 10.16 g/m*3 18.3 C 0 km/h
1618 10-09-2009 11:42:02 18.6 C 10.35 g/m*3 18.6 C 0 km/h
1619 10-09-2009 11:54:01 18.8 C 10.31 g/m*3 18.8 C 0 km/h
1620 10-09-2009 12:06:02 18.9 C 10.37 g/m*3 18.9 C 0 km/h
1621 10-09-2009 12:18:01 18.7 C 10.25 g/m*3 18.7 C 0 km/h
1622 10-09-2009 12:30:01 18.9 C 10.37 g/m*3 18.9 C 0 km/h
1623 10-09-2009 12:42:01 19.1 C 10.33 g/m*3 19.1 C 0 km/h
1624 10-09-2009 12:54:01 18.8 C 10.31 g/m*3 18.8 C 0 km/h
1625 10-09-2009 13:06:02 18.9 C 10.37 g/m*3 18.9 C 0 km/h
Sensor: Nr:Datum:Temp:Abs-Feuchte:Windchill:Wind:
Aussen-T/F 1626 10-09-2009 13:18:02 19.1 C 10.16 g/m*3 19.1 C 0 km/h
1627 10-09-2009 13:30:02 19.1 C 10.16 g/m*3 19.1 C 0 km/h
1628 10-09-2009 13:42:01 19.1 C 10.33 g/m*3 19.1 C 0 km/h
1629 10-09-2009 13:54:01 18.8 C 10.31 g/m*3 18.8 C 0 km/h
1630 10-09-2009 14:06:01 18.5 C 10.28 g/m*3 18.5 C 0 km/h
1631 10-09-2009 14:18:02 18.6 C 10.5 g/m*3 18.6 C 0 km/h
1632 10-09-2009 14:30:02 18.8 C 10.47 g/m*3 18.8 C 0 km/h
1633 10-09-2009 14:42:01 19 C 10.27 g/m*3 19 C 0 km/h
1634 10-09-2009 14:54:03 18.8 C 10.47 g/m*3 18.8 C 0 km/h
1635 10-09-2009 15:06:02 18.9 C 10.53 g/m*3 18.9 C 0 km/h
1636 10-09-2009 15:18:02 18.7 C 10.41 g/m*3 18.7 C 0 km/h
1637 10-09-2009 15:30:03 18.8 C 10.47 g/m*3 18.8 C 0 km/h
1638 10-09-2009 15:42:02 18.9 C 10.53 g/m*3 18.9 C 0 km/h
1639 10-09-2009 15:54:02 18.6 C 10.35 g/m*3 18.6 C 0 km/h
1640 10-09-2009 16:06:01 18.6 C 10.5 g/m*3 18.6 C 0 km/h
1641 10-09-2009 16:18:02 18.5 C 10.44 g/m*3 18.5 C 0 km/h
1642 10-09-2009 16:30:02 18.6 C 10.5 g/m*3 18.6 C 0 km/h
1643 10-09-2009 16:42:02 18.6 C 10.5 g/m*3 18.6 C 0 km/h
1644 10-09-2009 16:54:02 18.7 C 10.57 g/m*3 18.7 C 0 km/h
1645 10-09-2009 17:06:03 18.7 C 10.41 g/m*3 18.7 C 0 km/h
1646 10-09-2009 17:18:02 18.7 C 10.41 g/m*3 18.7 C 0 km/h
1647 10-09-2009 17:30:02 18.6 C 10.35 g/m*3 18.6 C 0 km/h
1648 10-09-2009 17:42:02 18.5 C 10.28 g/m*3 18.5 C 0 km/h
1649 10-09-2009 17:54:02 18.5 C 10.28 g/m*3 18.5 C 0 km/h
1650 10-09-2009 18:06:02 18.3 C 10.16 g/m*3 18.3 C 0 km/h
Sensor: Nr:Datum:Temp:Abs-Feuchte:Windchill:Wind:
Aussen-T/F 1651 10-09-2009 18:18:01 18.3 C 10.16 g/m*3 18.3 C 0 km/h
1652 10-09-2009 18:30:01 18.1 C 10.04 g/m*3 18.1 C 0 km/h
1653 10-09-2009 18:42:02 18 C 9.98 g/m*3 18 C 0 km/h
1654 10-09-2009 18:54:02 18 C 9.98 g/m*3 18 C 0 km/h
1655 10-09-2009 19:06:02 18 C 9.98 g/m*3 18 C 0 km/h
1656 10-09-2009 19:18:01 17.9 C 9.92 g/m*3 17.9 C 0 km/h
1657 10-09-2009 19:30:01 17.9 C 9.92 g/m*3 17.9 C 0 km/h
1658 10-09-2009 19:42:02 17.8 C 9.87 g/m*3 17.8 C 0 km/h
1659 10-09-2009 19:54:01 17.7 C 9.66 g/m*3 17.7 C 0 km/h
1660 10-09-2009 20:06:02 17.6 C 9.6 g/m*3 17.6 C 0 km/h
1661 10-09-2009 20:18:02 17.5 C 9.39 g/m*3 17.5 C 0 km/h
1662 10-09-2009 20:30:02 17.4 C 9.19 g/m*3 17.4 C 0 km/h
1663 10-09-2009 20:42:02 17.3 C 8.99 g/m*3 17.3 C 0 km/h
1664 10-09-2009 20:54:01 17.3 C 8.69 g/m*3 17.3 C 0 km/h
1665 10-09-2009 21:06:01 17.4 C 8.6 g/m*3 17.4 C 0 km/h
1666 10-09-2009 21:18:02 17.4 C 8.45 g/m*3 17.4 C 0 km/h
1667 10-09-2009 21:30:02 17.2 C 8.2 g/m*3 17.2 C 0 km/h
1668 10-09-2009 21:42:02 17.1 C 8.15 g/m*3 17.1 C 0 km/h
1669 10-09-2009 21:54:02 17 C 7.96 g/m*3 17 C 0 km/h
1670 10-09-2009 22:06:03 17 C 7.96 g/m*3 17 C 0 km/h
1671 10-09-2009 22:18:02 17 C 7.96 g/m*3 17 C 0 km/h
1672 10-09-2009 22:30:02 16.9 C 7.91 g/m*3 16.9 C 0 km/h
1673 10-09-2009 22:42:02 16.9 C 7.77 g/m*3 16.9 C 0 km/h
1674 10-09-2009 22:55:03 16.9 C 7.91 g/m*3 16.9 C 0 km/h
1675 10-09-2009 23:07:03 16.8 C 7.72 g/m*3 16.8 C 0 km/h
Sensor: Nr:Datum:Temp:Abs-Feuchte:Windchill:Wind:
Aussen-T/F 1676 10-09-2009 23:19:03 16.8 C 7.58 g/m*3 16.8 C 0 km/h
1677 10-09-2009 23:31:03 16.7 C 7.53 g/m*3 16.7 C 0 km/h
1678 10-09-2009 23:43:03 16.7 C 7.67 g/m*3 16.7 C 0 km/h
1679 10-09-2009 23:55:03 16.6 C 7.77 g/m*3 16.6 C 0 km/h
1680 11-09-2009 00:07:03 16.5 C 7.72 g/m*3 16.5 C 0 km/h
1681 11-09-2009 00:19:04 16.4 C 7.96 g/m*3 16.4 C 0 km/h
1682 11-09-2009 00:31:04 16.4 C 7.96 g/m*3 16.4 C 0 km/h
1683 11-09-2009 00:43:04 16.4 C 7.96 g/m*3 16.4 C 0 km/h
1684 11-09-2009 00:55:04 16.3 C 7.77 g/m*3 16.3 C 0 km/h
1685 11-09-2009 01:07:04 16.2 C 7.86 g/m*3 16.2 C 0 km/h
1686 11-09-2009 01:19:04 16.2 C 7.86 g/m*3 16.2 C 0 km/h
1687 11-09-2009 01:31:04 16.2 C 7.86 g/m*3 16.2 C 0 km/h
1688 11-09-2009 01:43:04 16.1 C 7.68 g/m*3 16.1 C 0 km/h
1689 11-09-2009 01:55:04 16.1 C 7.81 g/m*3 16.1 C 0 km/h
1690 11-09-2009 02:07:04 16.1 C 7.81 g/m*3 16.1 C 0 km/h
1691 11-09-2009 02:19:04 16 C 7.77 g/m*3 16 C 0 km/h
1692 11-09-2009 02:31:04 16 C 7.77 g/m*3 16 C 0 km/h
1693 11-09-2009 02:43:04 15.9 C 7.85 g/m*3 15.9 C 0 km/h
1694 11-09-2009 02:55:04 15.9 C 7.85 g/m*3 15.9 C 0 km/h
1695 11-09-2009 03:07:04 15.9 C 7.99 g/m*3 15.9 C 0 km/h
1696 11-09-2009 03:19:04 15.9 C 7.99 g/m*3 15.9 C 0 km/h
1697 11-09-2009 03:31:04 15.8 C 7.94 g/m*3 15.8 C 0 km/h
1698 11-09-2009 03:43:04 15.8 C 7.94 g/m*3 15.8 C 0 km/h
1699 11-09-2009 03:55:04 15.7 C 8.03 g/m*3 15.7 C 0 km/h
1700 11-09-2009 04:07:05 15.6 C 7.98 g/m*3 15.6 C 0 km/h
Sensor: Nr:Datum:Temp:Abs-Feuchte:Windchill:Wind:
Aussen-T/F 1701 11-09-2009 04:19:05 15.5 C 8.06 g/m*3 15.5 C 0 km/h
1702 11-09-2009 04:31:05 15.3 C 8.1 g/m*3 15.3 C 0 km/h
1703 11-09-2009 04:43:05 15.2 C 8.18 g/m*3 15.2 C 0 km/h
1704 11-09-2009 04:55:05 15.1 C 8.13 g/m*3 15.1 C 0 km/h
1705 11-09-2009 05:07:05 15.1 C 8.13 g/m*3 15.1 C 0 km/h
1706 11-09-2009 05:19:05 15 C 8.08 g/m*3 15 C 0 km/h
1707 11-09-2009 05:31:05 14.9 C 8.28 g/m*3 14.9 C 0 km/h
1708 11-09-2009 05:43:05 14.8 C 8.23 g/m*3 14.8 C 0 km/h
1709 11-09-2009 05:55:05 14.7 C 8.18 g/m*3 14.7 C 0 km/h
1710 11-09-2009 06:07:05 14.6 C 8.13 g/m*3 14.6 C 0 km/h
1711 11-09-2009 06:19:05 14.6 C 8.26 g/m*3 14.6 C 0 km/h
1712 11-09-2009 06:31:04 14.4 C 8.16 g/m*3 14.4 C 0 km/h
1713 11-09-2009 06:43:04 14 C 8.08 g/m*3 14 C 0 km/h
1714 11-09-2009 06:55:02 13.9 C 8.15 g/m*3 13.9 C 0 km/h
1715 11-09-2009 07:07:02 13.5 C 8.19 g/m*3 13.5 C 0 km/h
1716 11-09-2009 07:19:02 13.2 C 8.15 g/m*3 13.2 C 0 km/h
1717 11-09-2009 07:31:02 13 C 8.17 g/m*3 13 C 0 km/h
1718 11-09-2009 07:43:02 12.9 C 8.34 g/m*3 12.9 C 0 km/h
1719 11-09-2009 07:55:02 12.9 C 8.34 g/m*3 12.9 C 0 km/h
1720 11-09-2009 08:07:02 13.1 C 8.33 g/m*3 13.1 C 0 km/h
1721 11-09-2009 08:19:02 13.1 C 8.33 g/m*3 13.1 C 0 km/h
1722 11-09-2009 08:31:01 13.3 C 8.43 g/m*3 13.3 C 0 km/h
1723 11-09-2009 08:43:01 13.4 C 8.37 g/m*3 13.4 C 0 km/h
1724 11-09-2009 08:55:02 13.5 C 8.3 g/m*3 13.5 C 0 km/h
1725 11-09-2009 09:07:01 13.7 C 8.29 g/m*3 13.7 C 0 km/h
Sensor: Nr:Datum:Temp:Abs-Feuchte:Windchill:Wind:
Aussen-T/F 1726 11-09-2009 09:19:02 14.2 C 8.3 g/m*3 14.2 C 0 km/h
1727 11-09-2009 09:31:02 14.4 C 8.16 g/m*3 14.4 C 0 km/h
1728 11-09-2009 09:43:02 14.7 C 8.18 g/m*3 14.7 C 0 km/h
1729 11-09-2009 09:55:02 14.9 C 8.28 g/m*3 14.9 C 0 km/h
1730 11-09-2009 10:07:02 15.3 C 8.1 g/m*3 15.3 C 0 km/h
1731 11-09-2009 10:19:02 16.2 C 8.14 g/m*3 16.2 C 0 km/h
1732 11-09-2009 10:31:02 16.9 C 7.91 g/m*3 16.9 C 0 km/h
1733 11-09-2009 10:43:02 17.2 C 7.32 g/m*3 17.2 C 0 km/h
1734 11-09-2009 10:55:02 17.6 C 7.35 g/m*3 17.6 C 0 km/h
1735 11-09-2009 11:07:02 18 C 7.22 g/m*3 18 C 0 km/h
1736 11-09-2009 11:19:03 18.2 C 7.15 g/m*3 18.2 C 0 km/h
1737 11-09-2009 11:31:02 18.4 C 7.08 g/m*3 18.4 C 0 km/h
1738 11-09-2009 11:43:02 19 C 7.01 g/m*3 19 C 0 km/h
1739 11-09-2009 11:55:02 18.5 C 6.8 g/m*3 18.5 C 0 km/h
1740 11-09-2009 12:07:02 18.3 C 6.88 g/m*3 18.3 C 0 km/h
1741 11-09-2009 12:19:03 18.1 C 6.49 g/m*3 18.1 C 0 km/h
1742 11-09-2009 12:31:02 18.8 C 6.6 g/m*3 18.8 C 0 km/h
1743 11-09-2009 12:43:02 19.1 C 6.56 g/m*3 19.1 C 0 km/h
1744 11-09-2009 12:55:03 19.6 C 6.75 g/m*3 19.6 C 0 km/h
1745 11-09-2009 13:07:02 20.2 C 6.64 g/m*3 20.2 C 0 km/h
1746 11-09-2009 13:19:02 20 C 6.39 g/m*3 20 C 0 km/h
1747 11-09-2009 13:31:02 20.6 C 6.44 g/m*3 20.6 C 0 km/h
1748 11-09-2009 13:43:02 20.8 C 6.34 g/m*3 20.8 C 0 km/h
1749 11-09-2009 13:55:02 21.2 C 6.3 g/m*3 21.2 C 0 km/h
1750 11-09-2009 14:07:01 22.1 C 6.05 g/m*3 22.1 C 0 km/h
Sensor: Nr:Datum:Temp:Abs-Feuchte:Windchill:Wind:
Aussen-T/F 1751 11-09-2009 14:19:02 22.3 C 5.92 g/m*3 22.3 C 0 km/h
1752 11-09-2009 14:31:02 22.9 C 5.72 g/m*3 22.9 C 0 km/h
1753 11-09-2009 14:43:02 22.5 C 5.79 g/m*3 22.5 C 0 km/h
1754 11-09-2009 14:55:02 22.7 C 5.66 g/m*3 22.7 C 0 km/h
1755 11-09-2009 15:07:02 23.7 C 5.78 g/m*3 23.7 C 0 km/h
1756 11-09-2009 15:19:02 24.1 C 5.69 g/m*3 24.1 C 0 km/h
1757 11-09-2009 15:31:02 23.6 C 5.53 g/m*3 23.6 C 0 km/h
1758 11-09-2009 15:43:02 23.5 C 5.5 g/m*3 23.5 C 0 km/h
1759 11-09-2009 15:55:02 24.3 C 5.53 g/m*3 24.3 C 0 km/h
1760 11-09-2009 16:07:02 24.2 C 5.5 g/m*3 24.2 C 0 km/h
1761 11-09-2009 16:19:01 24.2 C 5.5 g/m*3 24.2 C 0 km/h
1762 11-09-2009 16:31:02 23.8 C 5.81 g/m*3 23.8 C 0 km/h
1763 11-09-2009 16:43:03 24.5 C 5.82 g/m*3 24.5 C 0 km/h
1764 11-09-2009 16:55:02 24.4 C 5.56 g/m*3 24.4 C 0 km/h
1765 11-09-2009 17:07:02 23.2 C 5.61 g/m*3 23.2 C 0 km/h
1766 11-09-2009 17:19:01 22.9 C 5.93 g/m*3 22.9 C 0 km/h
1767 11-09-2009 17:31:02 22.6 C 5.62 g/m*3 22.6 C 0 km/h
1768 11-09-2009 17:43:02 23.1 C 5.79 g/m*3 23.1 C 0 km/h
1769 11-09-2009 17:55:02 23.7 C 5.78 g/m*3 23.7 C 0 km/h
1770 11-09-2009 18:07:02 23.8 C 5.81 g/m*3 23.8 C 0 km/h
1771 11-09-2009 18:19:02 23.5 C 5.5 g/m*3 23.5 C 0 km/h
1772 11-09-2009 18:31:02 23.2 C 5.61 g/m*3 23.2 C 0 km/h
1773 11-09-2009 18:43:02 22.7 C 5.66 g/m*3 22.7 C 0 km/h
1774 11-09-2009 18:55:01 22.3 C 5.53 g/m*3 22.3 C 0 km/h
1775 11-09-2009 19:07:02 21.8 C 5.76 g/m*3 21.8 C 0 km/h
Sensor: Nr:Datum:Temp:Abs-Feuchte:Windchill:Wind:
Aussen-T/F 1776 11-09-2009 19:19:02 20.6 C 5.73 g/m*3 20.6 C 0 km/h
1777 11-09-2009 19:31:02 20.1 C 5.91 g/m*3 20.1 C 0 km/h
1778 11-09-2009 19:43:02 19.7 C 5.94 g/m*3 19.7 C 0 km/h
1779 11-09-2009 19:55:02 19.1 C 6.07 g/m*3 19.1 C 0 km/h
1780 11-09-2009 20:07:02 18.5 C 6.17 g/m*3 18.5 C 0 km/h
1781 11-09-2009 20:19:02 18 C 6.14 g/m*3 18 C 0 km/h
1782 11-09-2009 20:31:01 17.6 C 6.15 g/m*3 17.6 C 0 km/h
1783 11-09-2009 20:43:01 17.2 C 6.3 g/m*3 17.2 C 0 km/h
1784 11-09-2009 20:55:02 16.7 C 6.4 g/m*3 16.7 C 0 km/h
1785 11-09-2009 21:07:01 16.4 C 6.28 g/m*3 16.4 C 0 km/h
1786 11-09-2009 21:19:02 16.2 C 6.34 g/m*3 16.2 C 0 km/h
1787 11-09-2009 21:31:02 16 C 6.4 g/m*3 16 C 0 km/h
1788 11-09-2009 21:43:02 15.7 C 6.42 g/m*3 15.7 C 0 km/h
1789 11-09-2009 21:55:02 15.5 C 6.48 g/m*3 15.5 C 0 km/h
1790 11-09-2009 22:07:02 15.3 C 6.53 g/m*3 15.3 C 0 km/h
1791 11-09-2009 22:19:02 15 C 6.41 g/m*3 15 C 0 km/h
1792 11-09-2009 22:31:02 14.9 C 6.5 g/m*3 14.9 C 0 km/h
1793 11-09-2009 22:43:02 14.7 C 6.67 g/m*3 14.7 C 0 km/h
1794 11-09-2009 22:56:03 14.7 C 6.67 g/m*3 14.7 C 0 km/h
1795 11-09-2009 23:08:03 14.7 C 6.8 g/m*3 14.7 C 0 km/h
1796 11-09-2009 23:20:03 14.7 C 6.67 g/m*3 14.7 C 0 km/h
1797 11-09-2009 23:32:04 14.7 C 6.8 g/m*3 14.7 C 0 km/h
1798 11-09-2009 23:44:04 14.6 C 6.76 g/m*3 14.6 C 0 km/h
1799 11-09-2009 23:56:04 14.2 C 6.72 g/m*3 14.2 C 0 km/h
1800 12-09-2009 00:08:04 14.1 C 6.67 g/m*3 14.1 C 0 km/h
Sensor: Nr:Datum:Temp:Abs-Feuchte:Windchill:Wind:
Aussen-T/F 1801 12-09-2009 00:20:04 14.3 C 6.76 g/m*3 14.3 C 0 km/h
1802 12-09-2009 00:32:04 14.2 C 6.84 g/m*3 14.2 C 0 km/h
1803 12-09-2009 00:44:04 14.2 C 6.84 g/m*3 14.2 C 0 km/h
1804 12-09-2009 00:56:04 14.1 C 6.8 g/m*3 14.1 C 0 km/h
1805 12-09-2009 01:08:04 14 C 6.88 g/m*3 14 C 0 km/h
1806 12-09-2009 01:20:04 13.9 C 6.95 g/m*3 13.9 C 0 km/h
1807 12-09-2009 01:32:04 13.8 C 7.03 g/m*3 13.8 C 0 km/h
1808 12-09-2009 01:44:04 13.6 C 6.94 g/m*3 13.6 C 0 km/h
1809 12-09-2009 01:56:04 13.5 C 7.02 g/m*3 13.5 C 0 km/h
1810 12-09-2009 02:08:04 13.5 C 7.02 g/m*3 13.5 C 0 km/h
1811 12-09-2009 02:20:04 13.4 C 6.97 g/m*3 13.4 C 0 km/h
1812 12-09-2009 02:32:04 13.4 C 7.09 g/m*3 13.4 C 0 km/h
1813 12-09-2009 02:44:04 13.4 C 7.09 g/m*3 13.4 C 0 km/h
1814 12-09-2009 02:56:04 13.5 C 7.25 g/m*3 13.5 C 0 km/h
1815 12-09-2009 03:08:04 13.4 C 7.21 g/m*3 13.4 C 0 km/h
1816 12-09-2009 03:20:04 13.4 C 7.21 g/m*3 13.4 C 0 km/h
1817 12-09-2009 03:32:05 13.4 C 7.44 g/m*3 13.4 C 0 km/h
1818 12-09-2009 03:44:05 13.4 C 7.44 g/m*3 13.4 C 0 km/h
1819 12-09-2009 03:56:05 13.4 C 7.44 g/m*3 13.4 C 0 km/h
1820 12-09-2009 04:08:05 13.4 C 7.56 g/m*3 13.4 C 0 km/h
1821 12-09-2009 04:20:05 13.4 C 7.56 g/m*3 13.4 C 0 km/h
1822 12-09-2009 04:32:05 13.4 C 7.67 g/m*3 13.4 C 0 km/h
1823 12-09-2009 04:44:05 13.3 C 7.63 g/m*3 13.3 C 0 km/h
1824 12-09-2009 04:56:05 13.3 C 7.63 g/m*3 13.3 C 0 km/h
1825 12-09-2009 05:08:05 13.2 C 7.69 g/m*3 13.2 C 0 km/h
Sensor: Nr:Datum:Temp:Abs-Feuchte:Windchill:Wind:
Aussen-T/F 1826 12-09-2009 05:20:05 13.1 C 7.65 g/m*3 13.1 C 0 km/h
1827 12-09-2009 05:32:05 13 C 7.71 g/m*3 13 C 0 km/h
1828 12-09-2009 05:44:05 13.1 C 7.76 g/m*3 13.1 C 0 km/h
1829 12-09-2009 05:56:05 13.1 C 7.76 g/m*3 13.1 C 0 km/h
1830 12-09-2009 06:08:05 12.9 C 7.89 g/m*3 12.9 C 0 km/h
1831 12-09-2009 06:20:05 12.7 C 7.9 g/m*3 12.7 C 0 km/h
1832 12-09-2009 06:32:05 12.5 C 8.03 g/m*3 12.5 C 0 km/h
1833 12-09-2009 06:44:05 12.4 C 7.98 g/m*3 12.4 C 0 km/h
1834 12-09-2009 06:56:05 12.4 C 8.09 g/m*3 12.4 C 0 km/h
1835 12-09-2009 07:08:05 12.3 C 8.04 g/m*3 12.3 C 0 km/h
1836 12-09-2009 07:20:06 12.2 C 8.09 g/m*3 12.2 C 0 km/h
1837 12-09-2009 07:32:06 12.2 C 8.2 g/m*3 12.2 C 0 km/h
1838 12-09-2009 07:44:06 12.2 C 8.31 g/m*3 12.2 C 0 km/h
1839 12-09-2009 07:56:02 12.2 C 8.31 g/m*3 12.2 C 0 km/h
1840 12-09-2009 08:08:02 12.2 C 8.31 g/m*3 12.2 C 0 km/h
1841 12-09-2009 08:20:02 12.2 C 8.31 g/m*3 12.2 C 0 km/h
1842 12-09-2009 08:32:01 12.2 C 8.31 g/m*3 12.2 C 0 km/h
1843 12-09-2009 08:44:01 12.2 C 8.31 g/m*3 12.2 C 0 km/h
1844 12-09-2009 08:56:02 12.4 C 8.41 g/m*3 12.4 C 0 km/h
1845 12-09-2009 09:08:01 12.8 C 8.51 g/m*3 12.8 C 0 km/h
1846 12-09-2009 09:20:02 13 C 8.39 g/m*3 13 C 0 km/h
1847 12-09-2009 09:32:02 13.3 C 8.55 g/m*3 13.3 C 0 km/h
1848 12-09-2009 09:44:02 14.5 C 8.33 g/m*3 14.5 C 0 km/h
1849 12-09-2009 09:56:02 15.4 C 8.15 g/m*3 15.4 C 0 km/h
1850 12-09-2009 10:08:03 15.8 C 7.94 g/m*3 15.8 C 0 km/h
Sensor: Nr:Datum:Temp:Abs-Feuchte:Windchill:Wind:
Aussen-T/F 1851 12-09-2009 10:20:02 15.9 C 7.85 g/m*3 15.9 C 0 km/h
1852 12-09-2009 10:32:02 16 C 7.77 g/m*3 16 C 0 km/h
1853 12-09-2009 10:44:02 16 C 7.77 g/m*3 16 C 0 km/h
1854 12-09-2009 10:56:01 16.8 C 7.86 g/m*3 16.8 C 0 km/h
1855 12-09-2009 11:08:02 17.3 C 7.51 g/m*3 17.3 C 0 km/h
1856 12-09-2009 11:20:01 17.1 C 7.28 g/m*3 17.1 C 0 km/h
1857 12-09-2009 11:32:02 17.5 C 7.45 g/m*3 17.5 C 0 km/h
1858 12-09-2009 11:44:02 17.9 C 7.33 g/m*3 17.9 C 0 km/h
1859 12-09-2009 11:56:01 18.6 C 7.32 g/m*3 18.6 C 0 km/h
1860 12-09-2009 12:08:02 19.2 C 7.09 g/m*3 19.2 C 0 km/h
1861 12-09-2009 12:20:01 18.6 C 7 g/m*3 18.6 C 0 km/h
1862 12-09-2009 12:32:02 19 C 7.01 g/m*3 19 C 0 km/h
1863 12-09-2009 12:44:02 19.4 C 7.01 g/m*3 19.4 C 0 km/h
1864 12-09-2009 12:56:01 19.7 C 7.3 g/m*3 19.7 C 0 km/h
1865 12-09-2009 13:08:02 19.7 C 6.79 g/m*3 19.7 C 0 km/h
1866 12-09-2009 13:20:02 19.6 C 6.58 g/m*3 19.6 C 0 km/h
1867 12-09-2009 13:32:02 20.3 C 6.68 g/m*3 20.3 C 0 km/h
1868 12-09-2009 13:44:02 20.9 C 6.56 g/m*3 20.9 C 0 km/h
1869 12-09-2009 13:56:01 21.5 C 6.6 g/m*3 21.5 C 0 km/h
1870 12-09-2009 14:08:02 21 C 6.05 g/m*3 21 C 0 km/h
1871 12-09-2009 14:20:02 20.8 C 6.34 g/m*3 20.8 C 0 km/h
1872 12-09-2009 14:32:01 20.6 C 6.44 g/m*3 20.6 C 0 km/h
1873 12-09-2009 14:44:01 21.7 C 6.1 g/m*3 21.7 C 0 km/h
1874 12-09-2009 14:56:02 22 C 6.02 g/m*3 22 C 0 km/h
1875 12-09-2009 15:08:02 22.3 C 5.92 g/m*3 22.3 C 0 km/h
Sensor: Nr:Datum:Temp:Abs-Feuchte:Windchill:Wind:
Aussen-T/F 1876 12-09-2009 15:20:02 23.3 C 5.85 g/m*3 23.3 C 0 km/h
1877 12-09-2009 15:32:02 21.8 C 5.95 g/m*3 21.8 C 0 km/h
1878 12-09-2009 15:44:02 23.5 C 5.71 g/m*3 23.5 C 0 km/h
1879 12-09-2009 15:56:02 23.2 C 5.61 g/m*3 23.2 C 0 km/h
1880 12-09-2009 16:08:02 21.6 C 5.88 g/m*3 21.6 C 0 km/h
1881 12-09-2009 16:20:02 22 C 5.43 g/m*3 22 C 0 km/h
1882 12-09-2009 16:32:01 24.3 C 5.75 g/m*3 24.3 C 0 km/h
1883 12-09-2009 16:44:01 23.4 C 5.47 g/m*3 23.4 C 0 km/h
1884 12-09-2009 16:56:02 24.8 C 5.46 g/m*3 24.8 C 0 km/h
1885 12-09-2009 17:08:01 23.4 C 5.26 g/m*3 23.4 C 0 km/h
1886 12-09-2009 17:20:02 24.1 C 5.03 g/m*3 24.1 C 0 km/h
1887 12-09-2009 17:32:01 24.5 C 5.15 g/m*3 24.5 C 0 km/h
1888 12-09-2009 17:44:01 24.7 C 4.75 g/m*3 24.7 C 0 km/h
1889 12-09-2009 17:56:02 25.2 C 4.89 g/m*3 25.2 C 0 km/h
1890 12-09-2009 18:08:02 24.9 C 5.04 g/m*3 24.9 C 0 km/h
1891 12-09-2009 18:20:02 24.4 C 4.67 g/m*3 24.4 C 0 km/h
1892 12-09-2009 18:32:03 23.4 C 5.26 g/m*3 23.4 C 0 km/h
1893 12-09-2009 18:44:03 22 C 5.43 g/m*3 22 C 0 km/h
1894 12-09-2009 18:56:02 20.8 C 5.98 g/m*3 20.8 C 0 km/h
1895 12-09-2009 19:08:02 20.4 C 6.19 g/m*3 20.4 C 0 km/h
1896 12-09-2009 19:20:02 20 C 6.05 g/m*3 20 C 0 km/h
1897 12-09-2009 19:32:02 20 C 6.05 g/m*3 20 C 0 km/h
1898 12-09-2009 19:44:02 19.5 C 6.04 g/m*3 19.5 C 0 km/h
1899 12-09-2009 19:56:02 19.3 C 5.97 g/m*3 19.3 C 0 km/h
1900 12-09-2009 20:08:02 18.9 C 5.99 g/m*3 18.9 C 0 km/h
Sensor: Nr:Datum:Temp:Abs-Feuchte:Windchill:Wind:
Aussen-T/F 1901 12-09-2009 20:20:02 18.7 C 6.08 g/m*3 18.7 C 0 km/h
1902 12-09-2009 20:32:02 18.3 C 6.25 g/m*3 18.3 C 0 km/h
1903 12-09-2009 20:44:02 18 C 6.3 g/m*3 18 C 0 km/h
1904 12-09-2009 20:56:01 17.7 C 6.49 g/m*3 17.7 C 0 km/h
1905 12-09-2009 21:08:01 17.5 C 6.41 g/m*3 17.5 C 0 km/h
1906 12-09-2009 21:20:01 17.4 C 6.67 g/m*3 17.4 C 0 km/h
1907 12-09-2009 21:32:02 17.1 C 6.55 g/m*3 17.1 C 0 km/h
1908 12-09-2009 21:44:02 17 C 6.51 g/m*3 17 C 0 km/h
1909 12-09-2009 21:56:02 16.8 C 6.72 g/m*3 16.8 C 0 km/h
1910 12-09-2009 22:08:02 16.7 C 6.68 g/m*3 16.7 C 0 km/h
1911 12-09-2009 22:20:01 16.7 C 6.68 g/m*3 16.7 C 0 km/h
1912 12-09-2009 22:32:02 16.6 C 6.78 g/m*3 16.6 C 0 km/h
1913 12-09-2009 22:44:02 16.5 C 6.88 g/m*3 16.5 C 0 km/h
1914 12-09-2009 22:56:01 16.4 C 6.84 g/m*3 16.4 C 0 km/h
1915 12-09-2009 23:08:02 16.2 C 6.9 g/m*3 16.2 C 0 km/h
1916 12-09-2009 23:20:02 16 C 6.95 g/m*3 16 C 0 km/h
1917 12-09-2009 23:32:02 15.8 C 7 g/m*3 15.8 C 0 km/h
1918 12-09-2009 23:44:02 15.5 C 7.14 g/m*3 15.5 C 0 km/h
1919 12-09-2009 23:56:02 15 C 7.05 g/m*3 15 C 0 km/h
1920 13-09-2009 00:09:03 14.7 C 7.18 g/m*3 14.7 C 0 km/h
1921 13-09-2009 00:21:03 14.6 C 7.51 g/m*3 14.6 C 0 km/h
1922 13-09-2009 00:33:03 14.3 C 7.49 g/m*3 14.3 C 0 km/h
1923 13-09-2009 00:45:03 14.2 C 7.57 g/m*3 14.2 C 0 km/h
1924 13-09-2009 00:57:03 14 C 7.48 g/m*3 14 C 0 km/h
1925 13-09-2009 01:09:03 13.7 C 7.58 g/m*3 13.7 C 0 km/h
Sensor: Nr:Datum:Temp:Abs-Feuchte:Windchill:Wind:
Aussen-T/F 1926 13-09-2009 01:21:04 13.7 C 7.7 g/m*3 13.7 C 0 km/h
1927 13-09-2009 01:33:04 13.4 C 7.79 g/m*3 13.4 C 0 km/h
1928 13-09-2009 01:45:04 13.2 C 7.81 g/m*3 13.2 C 0 km/h
1929 13-09-2009 01:57:04 13.1 C 7.87 g/m*3 13.1 C 0 km/h
1930 13-09-2009 02:09:04 13.1 C 7.99 g/m*3 13.1 C 0 km/h
1931 13-09-2009 02:21:04 13.1 C 7.99 g/m*3 13.1 C 0 km/h
1932 13-09-2009 02:33:04 13.1 C 7.99 g/m*3 13.1 C 0 km/h
1933 13-09-2009 02:45:04 13.1 C 7.99 g/m*3 13.1 C 0 km/h
1934 13-09-2009 02:57:04 12.8 C 8.06 g/m*3 12.8 C 0 km/h
1935 13-09-2009 03:09:04 12.6 C 8.08 g/m*3 12.6 C 0 km/h
1936 13-09-2009 03:21:04 12.4 C 8.09 g/m*3 12.4 C 0 km/h
1937 13-09-2009 03:33:04 12.3 C 8.04 g/m*3 12.3 C 0 km/h
1938 13-09-2009 03:45:04 12.4 C 8.19 g/m*3 12.4 C 0 km/h
1939 13-09-2009 03:57:04 12.7 C 8.35 g/m*3 12.7 C 0 km/h
1940 13-09-2009 04:09:04 12.8 C 8.4 g/m*3 12.8 C 0 km/h
1941 13-09-2009 04:21:04 13 C 8.39 g/m*3 13 C 0 km/h
1942 13-09-2009 04:33:04 12.7 C 8.35 g/m*3 12.7 C 0 km/h
1943 13-09-2009 04:45:04 13 C 8.73 g/m*3 13 C 0 km/h
1944 13-09-2009 04:57:04 13.1 C 8.67 g/m*3 13.1 C 0 km/h
1945 13-09-2009 05:09:05 13.2 C 8.73 g/m*3 13.2 C 0 km/h
1946 13-09-2009 05:21:05 13.4 C 8.83 g/m*3 13.4 C 0 km/h
1947 13-09-2009 05:33:05 13.4 C 8.72 g/m*3 13.4 C 0 km/h
1948 13-09-2009 05:45:05 13.5 C 8.77 g/m*3 13.5 C 0 km/h
1949 13-09-2009 05:57:05 13.5 C 8.77 g/m*3 13.5 C 0 km/h
1950 13-09-2009 06:09:05 13.6 C 8.83 g/m*3 13.6 C 0 km/h
Sensor: Nr:Datum:Temp:Abs-Feuchte:Windchill:Wind:
Aussen-T/F 1951 13-09-2009 06:21:05 13.7 C 8.88 g/m*3 13.7 C 0 km/h
1952 13-09-2009 06:33:05 13.7 C 8.88 g/m*3 13.7 C 0 km/h
1953 13-09-2009 06:45:05 13.7 C 8.88 g/m*3 13.7 C 0 km/h
1954 13-09-2009 06:57:05 13.7 C 8.76 g/m*3 13.7 C 0 km/h
1955 13-09-2009 07:09:05 13.6 C 8.71 g/m*3 13.6 C 0 km/h
1956 13-09-2009 07:21:05 13.1 C 8.56 g/m*3 13.1 C 0 km/h
1957 13-09-2009 07:33:05 12.8 C 8.62 g/m*3 12.8 C 0 km/h
1958 13-09-2009 07:45:01 12.7 C 8.57 g/m*3 12.7 C 0 km/h
1959 13-09-2009 07:57:01 12.7 C 8.57 g/m*3 12.7 C 0 km/h
1960 13-09-2009 08:09:02 13 C 8.51 g/m*3 13 C 0 km/h
1961 13-09-2009 08:21:01 13.2 C 8.5 g/m*3 13.2 C 0 km/h
1962 13-09-2009 08:33:01 13.1 C 8.33 g/m*3 13.1 C 0 km/h
1963 13-09-2009 08:45:01 12.9 C 8.45 g/m*3 12.9 C 0 km/h
1964 13-09-2009 08:57:01 13.1 C 8.56 g/m*3 13.1 C 0 km/h
1965 13-09-2009 09:09:02 13.9 C 8.51 g/m*3 13.9 C 0 km/h
1966 13-09-2009 09:21:01 14.2 C 8.18 g/m*3 14.2 C 0 km/h
1967 13-09-2009 09:33:01 14.4 C 8.03 g/m*3 14.4 C 0 km/h
1968 13-09-2009 09:45:01 14.3 C 7.99 g/m*3 14.3 C 0 km/h
1969 13-09-2009 09:57:01 14.5 C 8.08 g/m*3 14.5 C 0 km/h
1970 13-09-2009 10:09:02 14.7 C 8.18 g/m*3 14.7 C 0 km/h
1971 13-09-2009 10:21:02 15 C 7.95 g/m*3 15 C 0 km/h
1972 13-09-2009 10:33:01 14.7 C 7.68 g/m*3 14.7 C 0 km/h
1973 13-09-2009 10:45:02 15 C 7.82 g/m*3 15 C 0 km/h
1974 13-09-2009 10:57:02 15.2 C 7.79 g/m*3 15.2 C 0 km/h
1975 13-09-2009 11:09:01 15 C 7.82 g/m*3 15 C 0 km/h
Sensor: Nr:Datum:Temp:Abs-Feuchte:Windchill:Wind:
Aussen-T/F 1976 13-09-2009 11:21:02 14.4 C 8.16 g/m*3 14.4 C 0 km/h
1977 13-09-2009 11:33:01 13.8 C 8.58 g/m*3 13.8 C 0 km/h
1978 13-09-2009 11:45:02 13.7 C 9.12 g/m*3 13.7 C 0 km/h
1979 13-09-2009 11:57:02 13.6 C 9.06 g/m*3 13.6 C 0 km/h
1980 13-09-2009 12:09:02 14.3 C 9.09 g/m*3 14.3 C 0 km/h
1981 13-09-2009 12:21:02 15.2 C 8.7 g/m*3 15.2 C 0 km/h
1982 13-09-2009 12:33:02 15.6 C 8.64 g/m*3 15.6 C 0 km/h
1983 13-09-2009 12:45:02 15.5 C 8.46 g/m*3 15.5 C 0 km/h
1984 13-09-2009 12:57:02 15.8 C 8.48 g/m*3 15.8 C 0 km/h
1985 13-09-2009 13:09:01 15 C 8.21 g/m*3 15 C 0 km/h
1986 13-09-2009 13:21:02 14.7 C 9.07 g/m*3 14.7 C 0 km/h
1987 13-09-2009 13:33:02 15 C 8.85 g/m*3 15 C 0 km/h
1988 13-09-2009 13:45:02 15.7 C 8.7 g/m*3 15.7 C 0 km/h
1989 13-09-2009 13:57:02 16.2 C 8.27 g/m*3 16.2 C 0 km/h
1990 13-09-2009 14:09:03 16.8 C 8.44 g/m*3 16.8 C 0 km/h
1991 13-09-2009 14:21:02 17.3 C 7.96 g/m*3 17.3 C 0 km/h
1992 13-09-2009 14:33:02 17.4 C 7.56 g/m*3 17.4 C 0 km/h
1993 13-09-2009 14:45:01 17.6 C 7.5 g/m*3 17.6 C 0 km/h
1994 13-09-2009 14:57:01 17.4 C 7.26 g/m*3 17.4 C 0 km/h
1995 13-09-2009 15:09:02 17.7 C 7.24 g/m*3 17.7 C 0 km/h
1996 13-09-2009 15:21:01 17 C 7.23 g/m*3 17 C 0 km/h
1997 13-09-2009 15:33:02 16.3 C 7.49 g/m*3 16.3 C 0 km/h
1998 13-09-2009 15:45:02 15.5 C 8.06 g/m*3 15.5 C 0 km/h
1999 13-09-2009 15:57:02 15.7 C 8.03 g/m*3 15.7 C 0 km/h
2000 13-09-2009 16:09:02 16.4 C 7.68 g/m*3 16.4 C 0 km/h
Sensor: Nr:Datum:Temp:Abs-Feuchte:Windchill:Wind:
Aussen-T/F 2001 13-09-2009 16:21:01 16.9 C 7.48 g/m*3 16.9 C 0 km/h
2002 13-09-2009 16:33:02 17 C 7.52 g/m*3 17 C 0 km/h
2003 13-09-2009 16:45:02 16.8 C 7.29 g/m*3 16.8 C 0 km/h
2004 13-09-2009 16:57:02 17.2 C 7.32 g/m*3 17.2 C 0 km/h
2005 13-09-2009 17:09:02 18.2 C 7.31 g/m*3 18.2 C 0 km/h
2006 13-09-2009 17:21:01 17.8 C 7.13 g/m*3 17.8 C 0 km/h
2007 13-09-2009 17:33:02 17.4 C 7.26 g/m*3 17.4 C 0 km/h
2008 13-09-2009 17:45:01 17.3 C 7.22 g/m*3 17.3 C 0 km/h
2009 13-09-2009 17:57:01 16.7 C 7.25 g/m*3 16.7 C 0 km/h
2010 13-09-2009 18:09:02 16.4 C 7.54 g/m*3 16.4 C 0 km/h
2011 13-09-2009 18:21:02 16.4 C 7.4 g/m*3 16.4 C 0 km/h
2012 13-09-2009 18:33:01 16.2 C 7.58 g/m*3 16.2 C 0 km/h
2013 13-09-2009 18:45:02 14.7 C 8.44 g/m*3 14.7 C 0 km/h
2014 13-09-2009 18:57:02 14.2 C 8.91 g/m*3 14.2 C 0 km/h
2015 13-09-2009 19:09:02 13.9 C 9.47 g/m*3 13.9 C 0 km/h
2016 13-09-2009 19:21:02 13.6 C 9.77 g/m*3 13.6 C 0 km/h
2017 13-09-2009 19:33:01 13.5 C 9.94 g/m*3 13.5 C 0 km/h
2018 13-09-2009 19:45:02 13.4 C 10 g/m*3 13.4 C 0 km/h
2019 13-09-2009 19:57:02 13.1 C 9.93 g/m*3 13.1 C 0 km/h
2020 13-09-2009 20:09:01 13 C 9.87 g/m*3 13 C 0 km/h
2021 13-09-2009 20:21:02 13.1 C 10.04 g/m*3 13.1 C 0 km/h
2022 13-09-2009 20:33:01 13 C 10.09 g/m*3 13 C 0 km/h
2023 13-09-2009 20:45:03 12.9 C 10.03 g/m*3 12.9 C 0 km/h
2024 13-09-2009 20:57:03 12.8 C 9.97 g/m*3 12.8 C 0 km/h
2025 13-09-2009 21:09:02 12.5 C 9.78 g/m*3 12.5 C 0 km/h
Sensor: Nr:Datum:Temp:Abs-Feuchte:Windchill:Wind:
Aussen-T/F 2026 13-09-2009 21:21:03 12.6 C 9.96 g/m*3 12.6 C 0 km/h
2027 13-09-2009 21:33:03 12.8 C 10.08 g/m*3 12.8 C 0 km/h
2028 13-09-2009 21:45:02 12.9 C 10.26 g/m*3 12.9 C 0 km/h
2029 13-09-2009 21:57:02 13.1 C 10.27 g/m*3 13.1 C 0 km/h
2030 13-09-2009 22:09:02 13.2 C 10.33 g/m*3 13.2 C 0 km/h
2031 13-09-2009 22:21:02 13.3 C 10.4 g/m*3 13.3 C 0 km/h
2032 13-09-2009 22:33:03 13.3 C 10.28 g/m*3 13.3 C 0 km/h
2033 13-09-2009 22:45:02 13.3 C 10.28 g/m*3 13.3 C 0 km/h
2034 13-09-2009 22:57:02 13.3 C 10.28 g/m*3 13.3 C 0 km/h
2035 13-09-2009 23:09:02 12.6 C 9.96 g/m*3 12.6 C 0 km/h
2036 13-09-2009 23:21:02 12.2 C 9.71 g/m*3 12.2 C 0 km/h
2037 13-09-2009 23:34:03 11.8 C 9.58 g/m*3 11.8 C 0 km/h
2038 13-09-2009 23:46:03 11.9 C 9.74 g/m*3 11.9 C 0 km/h
2039 13-09-2009 23:58:03 12.1 C 9.87 g/m*3 12.1 C 0 km/h
2040 14-09-2009 00:10:03 12.1 C 9.87 g/m*3 12.1 C 0 km/h
2041 14-09-2009 00:22:03 12.2 C 10.04 g/m*3 12.2 C 0 km/h
2042 14-09-2009 00:34:03 12 C 9.91 g/m*3 12 C 0 km/h
2043 14-09-2009 00:46:03 11.9 C 9.85 g/m*3 11.9 C 0 km/h
2044 14-09-2009 00:58:03 11.5 C 9.61 g/m*3 11.5 C 0 km/h
2045 14-09-2009 01:10:03 11.3 C 9.49 g/m*3 11.3 C 0 km/h
2046 14-09-2009 01:22:03 11.3 C 9.59 g/m*3 11.3 C 0 km/h
2047 14-09-2009 01:34:03 11.2 C 9.53 g/m*3 11.2 C 0 km/h
2048 14-09-2009 01:46:03 11.3 C 9.59 g/m*3 11.3 C 0 km/h
2049 14-09-2009 01:58:03 11.3 C 9.59 g/m*3 11.3 C 0 km/h
2050 14-09-2009 02:10:03 11.2 C 9.53 g/m*3 11.2 C 0 km/h
Sensor: Nr:Datum:Temp:Abs-Feuchte:Windchill:Wind:
Aussen-T/F 2051 14-09-2009 02:22:03 11.2 C 9.63 g/m*3 11.2 C 0 km/h
2052 14-09-2009 02:34:03 11 C 9.51 g/m*3 11 C 0 km/h
2053 14-09-2009 02:46:03 10.9 C 9.45 g/m*3 10.9 C 0 km/h
2054 14-09-2009 02:58:03 10.8 C 9.39 g/m*3 10.8 C 0 km/h
2055 14-09-2009 03:10:03 10.7 C 9.33 g/m*3 10.7 C 0 km/h
2056 14-09-2009 03:22:04 10.7 C 9.33 g/m*3 10.7 C 0 km/h
2057 14-09-2009 03:34:04 10.8 C 9.39 g/m*3 10.8 C 0 km/h
2058 14-09-2009 03:46:04 10.7 C 9.33 g/m*3 10.7 C 0 km/h
2059 14-09-2009 03:58:04 10.8 C 9.39 g/m*3 10.8 C 0 km/h
2060 14-09-2009 04:10:04 11 C 9.51 g/m*3 11 C 0 km/h
2061 14-09-2009 04:22:04 11.1 C 9.57 g/m*3 11.1 C 0 km/h
2062 14-09-2009 04:34:04 11.1 C 9.57 g/m*3 11.1 C 0 km/h
2063 14-09-2009 04:46:04 11.1 C 9.57 g/m*3 11.1 C 0 km/h
2064 14-09-2009 04:58:04 10.9 C 9.45 g/m*3 10.9 C 0 km/h
2065 14-09-2009 05:10:04 10.7 C 9.33 g/m*3 10.7 C 0 km/h
2066 14-09-2009 05:22:04 10.7 C 9.33 g/m*3 10.7 C 0 km/h
2067 14-09-2009 05:34:04 10.9 C 9.45 g/m*3 10.9 C 0 km/h
2068 14-09-2009 05:46:04 10.9 C 9.45 g/m*3 10.9 C 0 km/h
2069 14-09-2009 05:58:04 10.9 C 9.45 g/m*3 10.9 C 0 km/h
2070 14-09-2009 06:10:04 10.9 C 9.45 g/m*3 10.9 C 0 km/h
2071 14-09-2009 06:22:04 10.9 C 9.45 g/m*3 10.9 C 0 km/h
2072 14-09-2009 06:34:04 10.9 C 9.45 g/m*3 10.9 C 0 km/h
2073 14-09-2009 06:46:04 11 C 9.51 g/m*3 11 C 0 km/h
2074 14-09-2009 06:58:04 11 C 9.51 g/m*3 11 C 0 km/h
2075 14-09-2009 07:10:05 11 C 9.51 g/m*3 11 C 0 km/h
Sensor: Nr:Datum:Temp:Abs-Feuchte:Windchill:Wind:
Aussen-T/F 2076 14-09-2009 07:22:05 11 C 9.51 g/m*3 11 C 0 km/h
2077 14-09-2009 07:34:03 11.1 C 9.57 g/m*3 11.1 C 0 km/h
2078 14-09-2009 07:46:02 11.1 C 9.57 g/m*3 11.1 C 0 km/h
2079 14-09-2009 07:58:03 11.1 C 9.57 g/m*3 11.1 C 0 km/h
2080 14-09-2009 08:10:01 11.3 C 9.69 g/m*3 11.3 C 0 km/h
2081 14-09-2009 08:22:02 11.5 C 9.81 g/m*3 11.5 C 0 km/h
2082 14-09-2009 08:34:02 11.7 C 9.94 g/m*3 11.7 C 0 km/h
2083 14-09-2009 08:46:02 11.8 C 10 g/m*3 11.8 C 0 km/h
2084 14-09-2009 08:58:02 12.2 C 10.25 g/m*3 12.2 C 0 km/h
2085 14-09-2009 09:10:02 12.2 C 10.25 g/m*3 12.2 C 0 km/h
2086 14-09-2009 09:22:02 12.3 C 10.32 g/m*3 12.3 C 0 km/h
2087 14-09-2009 09:34:02 12.4 C 10.38 g/m*3 12.4 C 0 km/h
2088 14-09-2009 09:46:01 12.4 C 10.38 g/m*3 12.4 C 0 km/h
2089 14-09-2009 09:58:01 12.3 C 10.32 g/m*3 12.3 C 0 km/h
2090 14-09-2009 10:10:02 12.3 C 10.21 g/m*3 12.3 C 0 km/h
2091 14-09-2009 10:22:01 12.1 C 10.08 g/m*3 12.1 C 0 km/h
2092 14-09-2009 10:34:01 12.1 C 9.97 g/m*3 12.1 C 0 km/h
2093 14-09-2009 10:46:01 12.2 C 10.04 g/m*3 12.2 C 0 km/h
2094 14-09-2009 10:58:01 12.3 C 10.1 g/m*3 12.3 C 0 km/h
2095 14-09-2009 11:10:01 12.4 C 10.16 g/m*3 12.4 C 0 km/h
2096 14-09-2009 11:22:01 12.6 C 10.29 g/m*3 12.6 C 0 km/h
2097 14-09-2009 11:34:01 12.6 C 10.29 g/m*3 12.6 C 0 km/h
2098 14-09-2009 11:46:01 12.5 C 10.22 g/m*3 12.5 C 0 km/h
2099 14-09-2009 11:58:01 12.4 C 10.27 g/m*3 12.4 C 0 km/h
2100 14-09-2009 12:10:01 12.5 C 10.33 g/m*3 12.5 C 0 km/h
Sensor: Nr:Datum:Temp:Abs-Feuchte:Windchill:Wind:
Aussen-T/F 2101 14-09-2009 12:22:02 13.5 C 10.99 g/m*3 13.5 C 0 km/h
2102 14-09-2009 12:34:01 13.9 C 11.27 g/m*3 13.9 C 0 km/h
2103 14-09-2009 12:46:03 14.3 C 11.43 g/m*3 14.3 C 0 km/h
2104 14-09-2009 12:58:03 14.4 C 11.37 g/m*3 14.4 C 0 km/h
2105 14-09-2009 13:10:02 13.9 C 10.91 g/m*3 13.9 C 0 km/h
2106 14-09-2009 13:22:02 13.8 C 10.84 g/m*3 13.8 C 0 km/h
2107 14-09-2009 13:34:02 13.3 C 10.51 g/m*3 13.3 C 0 km/h
2108 14-09-2009 13:46:02 13.4 C 10.69 g/m*3 13.4 C 0 km/h
2109 14-09-2009 13:58:02 13.2 C 10.56 g/m*3 13.2 C 0 km/h
2110 14-09-2009 14:10:02 13 C 10.55 g/m*3 13 C 0 km/h
2111 14-09-2009 14:22:02 13.1 C 10.61 g/m*3 13.1 C 0 km/h
2112 14-09-2009 14:34:01 13.4 C 10.93 g/m*3 13.4 C 0 km/h
2113 14-09-2009 14:46:02 13.4 C 10.93 g/m*3 13.4 C 0 km/h
2114 14-09-2009 14:58:02 13.8 C 11.2 g/m*3 13.8 C 0 km/h
2115 14-09-2009 15:10:01 13.9 C 11.27 g/m*3 13.9 C 0 km/h
2116 14-09-2009 15:22:01 14.5 C 11.57 g/m*3 14.5 C 0 km/h
2117 14-09-2009 15:34:02 14.4 C 11.5 g/m*3 14.4 C 0 km/h
2118 14-09-2009 15:46:02 15.2 C 11.94 g/m*3 15.2 C 0 km/h
2119 14-09-2009 15:58:02 15.5 C 12.16 g/m*3 15.5 C 0 km/h
2120 14-09-2009 16:10:02 15 C 11.54 g/m*3 15 C 0 km/h
2121 14-09-2009 16:22:02 14.7 C 11.46 g/m*3 14.7 C 0 km/h
2122 14-09-2009 16:34:02 13.8 C 10.72 g/m*3 13.8 C 0 km/h
2123 14-09-2009 16:46:01 13.4 C 10.46 g/m*3 13.4 C 0 km/h
2124 14-09-2009 16:58:01 13.6 C 10.59 g/m*3 13.6 C 0 km/h
2125 14-09-2009 17:10:02 13.7 C 10.66 g/m*3 13.7 C 0 km/h
Sensor: Nr:Datum:Temp:Abs-Feuchte:Windchill:Wind:
Aussen-T/F 2126 14-09-2009 17:22:01 13.5 C 10.41 g/m*3 13.5 C 0 km/h
2127 14-09-2009 17:34:02 13.6 C 10.59 g/m*3 13.6 C 0 km/h
2128 14-09-2009 17:46:02 13.7 C 10.66 g/m*3 13.7 C 0 km/h
2129 14-09-2009 17:58:03 13.8 C 10.84 g/m*3 13.8 C 0 km/h
2130 14-09-2009 18:10:02 13.6 C 10.71 g/m*3 13.6 C 0 km/h
2131 14-09-2009 18:22:02 13.2 C 10.45 g/m*3 13.2 C 0 km/h
2132 14-09-2009 18:34:02 13 C 10.32 g/m*3 13 C 0 km/h
2133 14-09-2009 18:46:02 12.6 C 10.18 g/m*3 12.6 C 0 km/h
2134 14-09-2009 18:58:02 12.2 C 9.93 g/m*3 12.2 C 0 km/h
2135 14-09-2009 19:10:01 12.1 C 9.87 g/m*3 12.1 C 0 km/h
2136 14-09-2009 19:22:02 12 C 9.91 g/m*3 12 C 0 km/h
2137 14-09-2009 19:34:01 11.9 C 9.96 g/m*3 11.9 C 0 km/h
2138 14-09-2009 19:46:01 11.8 C 9.89 g/m*3 11.8 C 0 km/h
2139 14-09-2009 19:58:01 11.7 C 9.94 g/m*3 11.7 C 0 km/h
2140 14-09-2009 20:10:02 11.7 C 9.94 g/m*3 11.7 C 0 km/h
2141 14-09-2009 20:22:02 11.8 C 10 g/m*3 11.8 C 0 km/h
2142 14-09-2009 20:34:02 11.8 C 10 g/m*3 11.8 C 0 km/h
2143 14-09-2009 20:46:02 11.6 C 9.87 g/m*3 11.6 C 0 km/h
2144 14-09-2009 20:58:02 11.7 C 9.94 g/m*3 11.7 C 0 km/h
2145 14-09-2009 21:10:02 11.8 C 10 g/m*3 11.8 C 0 km/h
2146 14-09-2009 21:22:02 11.9 C 10.06 g/m*3 11.9 C 0 km/h
2147 14-09-2009 21:34:02 11.9 C 10.06 g/m*3 11.9 C 0 km/h
2148 14-09-2009 21:46:02 11.9 C 10.06 g/m*3 11.9 C 0 km/h
2149 14-09-2009 21:58:02 11.9 C 10.06 g/m*3 11.9 C 0 km/h
2150 14-09-2009 22:10:02 11.8 C 10 g/m*3 11.8 C 0 km/h
Sensor: Nr:Datum:Temp:Abs-Feuchte:Windchill:Wind:
Aussen-T/F 2151 14-09-2009 22:22:03 11.7 C 9.94 g/m*3 11.7 C 0 km/h
2152 14-09-2009 22:34:02 11.7 C 9.94 g/m*3 11.7 C 0 km/h
2153 14-09-2009 22:46:02 11.7 C 9.94 g/m*3 11.7 C 0 km/h
2154 14-09-2009 22:58:02 11.6 C 9.87 g/m*3 11.6 C 0 km/h
2155 14-09-2009 23:11:03 11.5 C 9.81 g/m*3 11.5 C 0 km/h
2156 14-09-2009 23:23:03 11.4 C 9.75 g/m*3 11.4 C 0 km/h
2157 14-09-2009 23:35:03 11.4 C 9.75 g/m*3 11.4 C 0 km/h
2158 14-09-2009 23:47:03 11.5 C 9.81 g/m*3 11.5 C 0 km/h
2159 14-09-2009 23:59:03 11.5 C 9.81 g/m*3 11.5 C 0 km/h
2160 15-09-2009 00:11:03 11.6 C 9.87 g/m*3 11.6 C 0 km/h
2161 15-09-2009 00:23:03 11.4 C 9.75 g/m*3 11.4 C 0 km/h
2162 15-09-2009 00:35:03 11.4 C 9.75 g/m*3 11.4 C 0 km/h
2163 15-09-2009 00:47:03 11.3 C 9.69 g/m*3 11.3 C 0 km/h
2164 15-09-2009 00:59:03 11.3 C 9.69 g/m*3 11.3 C 0 km/h
2165 15-09-2009 01:11:03 11.2 C 9.63 g/m*3 11.2 C 0 km/h
2166 15-09-2009 01:23:04 11.1 C 9.57 g/m*3 11.1 C 0 km/h
2167 15-09-2009 01:35:04 11.1 C 9.57 g/m*3 11.1 C 0 km/h
2168 15-09-2009 01:47:04 11.1 C 9.57 g/m*3 11.1 C 0 km/h
2169 15-09-2009 01:59:04 11.1 C 9.57 g/m*3 11.1 C 0 km/h
2170 15-09-2009 02:11:04 11.1 C 9.57 g/m*3 11.1 C 0 km/h
2171 15-09-2009 02:23:04 11.2 C 9.63 g/m*3 11.2 C 0 km/h
2172 15-09-2009 02:35:04 11.2 C 9.63 g/m*3 11.2 C 0 km/h
2173 15-09-2009 02:47:04 11.2 C 9.63 g/m*3 11.2 C 0 km/h
2174 15-09-2009 02:59:04 11.1 C 9.57 g/m*3 11.1 C 0 km/h
2175 15-09-2009 03:11:04 11.2 C 9.63 g/m*3 11.2 C 0 km/h
Sensor: Nr:Datum:Temp:Abs-Feuchte:Windchill:Wind:
Aussen-T/F 2176 15-09-2009 03:23:04 11.1 C 9.57 g/m*3 11.1 C 0 km/h
2177 15-09-2009 03:35:04 11.1 C 9.57 g/m*3 11.1 C 0 km/h
2178 15-09-2009 03:47:04 11.1 C 9.57 g/m*3 11.1 C 0 km/h
2179 15-09-2009 03:59:04 11.1 C 9.57 g/m*3 11.1 C 0 km/h
2180 15-09-2009 04:11:04 11.1 C 9.57 g/m*3 11.1 C 0 km/h
2181 15-09-2009 04:23:04 11.1 C 9.57 g/m*3 11.1 C 0 km/h
2182 15-09-2009 04:35:04 11.2 C 9.63 g/m*3 11.2 C 0 km/h
2183 15-09-2009 04:47:04 11.2 C 9.63 g/m*3 11.2 C 0 km/h
2184 15-09-2009 04:59:04 11.3 C 9.69 g/m*3 11.3 C 0 km/h
2185 15-09-2009 05:11:04 11.3 C 9.69 g/m*3 11.3 C 0 km/h
2186 15-09-2009 05:23:04 11.4 C 9.75 g/m*3 11.4 C 0 km/h
2187 15-09-2009 05:35:05 11.4 C 9.75 g/m*3 11.4 C 0 km/h
2188 15-09-2009 05:47:05 11.4 C 9.75 g/m*3 11.4 C 0 km/h
2189 15-09-2009 05:59:05 11.3 C 9.69 g/m*3 11.3 C 0 km/h
2190 15-09-2009 06:11:05 11.3 C 9.69 g/m*3 11.3 C 0 km/h
2191 15-09-2009 06:23:05 11.4 C 9.75 g/m*3 11.4 C 0 km/h
2192 15-09-2009 06:35:05 11.4 C 9.75 g/m*3 11.4 C 0 km/h
2193 15-09-2009 06:47:05 11.4 C 9.75 g/m*3 11.4 C 0 km/h
2194 15-09-2009 06:59:05 11.5 C 9.81 g/m*3 11.5 C 0 km/h
2195 15-09-2009 07:11:05 11.5 C 9.81 g/m*3 11.5 C 0 km/h
2196 15-09-2009 07:23:05 11.5 C 9.81 g/m*3 11.5 C 0 km/h
2197 15-09-2009 07:35:05 11.6 C 9.87 g/m*3 11.6 C 0 km/h
2198 15-09-2009 07:47:03 11.6 C 9.87 g/m*3 11.6 C 0 km/h
2199 15-09-2009 07:59:03 11.7 C 9.94 g/m*3 11.7 C 0 km/h
2200 15-09-2009 08:11:02 11.9 C 10.06 g/m*3 11.9 C 0 km/h
Sensor: Nr:Datum:Temp:Abs-Feuchte:Windchill:Wind:
Aussen-T/F 2201 15-09-2009 08:23:02 12 C 10.12 g/m*3 12 C 0 km/h
2202 15-09-2009 08:35:03 11.9 C 10.06 g/m*3 11.9 C 0 km/h
2203 15-09-2009 08:47:02 12.3 C 10.32 g/m*3 12.3 C 0 km/h
2204 15-09-2009 08:59:03 12.6 C 10.51 g/m*3 12.6 C 0 km/h
2205 15-09-2009 09:11:01 12.8 C 10.64 g/m*3 12.8 C 0 km/h
2206 15-09-2009 09:23:02 13.1 C 10.84 g/m*3 13.1 C 0 km/h
2207 15-09-2009 09:35:02 13.5 C 11.11 g/m*3 13.5 C 0 km/h
2208 15-09-2009 09:47:01 13.3 C 10.98 g/m*3 13.3 C 0 km/h
2209 15-09-2009 09:59:01 13.7 C 11.25 g/m*3 13.7 C 0 km/h
2210 15-09-2009 10:11:02 13.8 C 11.32 g/m*3 13.8 C 0 km/h
2211 15-09-2009 10:23:01 14.2 C 11.6 g/m*3 14.2 C 0 km/h
2212 15-09-2009 10:35:02 14.2 C 11.36 g/m*3 14.2 C 0 km/h
2213 15-09-2009 10:47:01 14.1 C 11.04 g/m*3 14.1 C 0 km/h
2214 15-09-2009 10:59:01 14.4 C 11.13 g/m*3 14.4 C 0 km/h
2215 15-09-2009 11:11:02 15.1 C 11.35 g/m*3 15.1 C 0 km/h
2216 15-09-2009 11:23:01 15 C 10.39 g/m*3 15 C 0 km/h
2217 15-09-2009 11:35:02 15.4 C 10.51 g/m*3 15.4 C 0 km/h
2218 15-09-2009 11:47:01 15.8 C 10.63 g/m*3 15.8 C 0 km/h
2219 15-09-2009 11:59:01 16 C 10.22 g/m*3 16 C 0 km/h
2220 15-09-2009 12:11:02 16.3 C 10.41 g/m*3 16.3 C 0 km/h
2221 15-09-2009 12:23:01 16.5 C 10.25 g/m*3 16.5 C 0 km/h
2222 15-09-2009 12:35:02 16.6 C 10.17 g/m*3 16.6 C 0 km/h
2223 15-09-2009 12:47:01 16.3 C 10.13 g/m*3 16.3 C 0 km/h
2224 15-09-2009 12:59:01 16.2 C 10.2 g/m*3 16.2 C 0 km/h
2225 15-09-2009 13:11:02 15.9 C 10.29 g/m*3 15.9 C 0 km/h
Sensor: Nr:Datum:Temp:Abs-Feuchte:Windchill:Wind:
Aussen-T/F 2226 15-09-2009 13:23:02 15.9 C 10.7 g/m*3 15.9 C 0 km/h
2227 15-09-2009 13:35:01 16 C 10.76 g/m*3 16 C 0 km/h
2228 15-09-2009 13:47:02 16.2 C 11.03 g/m*3 16.2 C 0 km/h
2229 15-09-2009 13:59:02 16.5 C 11.09 g/m*3 16.5 C 0 km/h
2230 15-09-2009 14:11:01 16.5 C 10.67 g/m*3 16.5 C 0 km/h
2231 15-09-2009 14:23:02 16.3 C 10.68 g/m*3 16.3 C 0 km/h
2232 15-09-2009 14:35:01 16.1 C 10.69 g/m*3 16.1 C 0 km/h
2233 15-09-2009 14:47:02 15.8 C 10.9 g/m*3 15.8 C 0 km/h
2234 15-09-2009 14:59:02 15.5 C 10.84 g/m*3 15.5 C 0 km/h
2235 15-09-2009 15:11:02 15.2 C 11.03 g/m*3 15.2 C 0 km/h
2236 15-09-2009 15:23:02 15.3 C 11.23 g/m*3 15.3 C 0 km/h
2237 15-09-2009 15:35:03 15.4 C 11.3 g/m*3 15.4 C 0 km/h
2238 15-09-2009 15:47:02 15.3 C 11.36 g/m*3 15.3 C 0 km/h
2239 15-09-2009 15:59:02 15.2 C 11.29 g/m*3 15.2 C 0 km/h
2240 15-09-2009 16:11:02 15.1 C 11.35 g/m*3 15.1 C 0 km/h
2241 15-09-2009 16:23:01 15 C 11.41 g/m*3 15 C 0 km/h
2242 15-09-2009 16:35:02 15 C 11.41 g/m*3 15 C 0 km/h
2243 15-09-2009 16:47:02 15 C 11.54 g/m*3 15 C 0 km/h
2244 15-09-2009 16:59:02 15 C 11.54 g/m*3 15 C 0 km/h
2245 15-09-2009 17:11:02 15 C 11.54 g/m*3 15 C 0 km/h
2246 15-09-2009 17:23:02 15 C 11.54 g/m*3 15 C 0 km/h
2247 15-09-2009 17:35:02 15.2 C 11.81 g/m*3 15.2 C 0 km/h
2248 15-09-2009 17:47:02 15.4 C 11.96 g/m*3 15.4 C 0 km/h
2249 15-09-2009 17:59:02 15.7 C 12.18 g/m*3 15.7 C 0 km/h
2250 15-09-2009 18:11:02 15.7 C 12.18 g/m*3 15.7 C 0 km/h
Sensor: Nr:Datum:Temp:Abs-Feuchte:Windchill:Wind:
Aussen-T/F 2251 15-09-2009 18:23:02 15.8 C 12.25 g/m*3 15.8 C 0 km/h
2252 15-09-2009 18:35:02 15.9 C 12.32 g/m*3 15.9 C 0 km/h
2253 15-09-2009 18:47:02 15.9 C 12.32 g/m*3 15.9 C 0 km/h
2254 15-09-2009 18:59:02 15.8 C 12.25 g/m*3 15.8 C 0 km/h
2255 15-09-2009 19:11:02 15.7 C 12.18 g/m*3 15.7 C 0 km/h
2256 15-09-2009 19:23:03 15.6 C 12.1 g/m*3 15.6 C 0 km/h
2257 15-09-2009 19:35:02 15.4 C 11.96 g/m*3 15.4 C 0 km/h
2258 15-09-2009 19:47:02 15.3 C 11.88 g/m*3 15.3 C 0 km/h
2259 15-09-2009 19:59:02 15.2 C 11.81 g/m*3 15.2 C 0 km/h
2260 15-09-2009 20:11:02 15.2 C 11.81 g/m*3 15.2 C 0 km/h
2261 15-09-2009 20:23:02 15.2 C 11.94 g/m*3 15.2 C 0 km/h
2262 15-09-2009 20:35:02 15.2 C 11.94 g/m*3 15.2 C 0 km/h
2263 15-09-2009 20:47:02 15.1 C 11.87 g/m*3 15.1 C 0 km/h
2264 15-09-2009 20:59:02 15.1 C 11.87 g/m*3 15.1 C 0 km/h
2265 15-09-2009 21:11:01 15.1 C 11.87 g/m*3 15.1 C 0 km/h
2266 15-09-2009 21:23:02 15.1 C 11.87 g/m*3 15.1 C 0 km/h
2267 15-09-2009 21:35:02 15 C 11.8 g/m*3 15 C 0 km/h
2268 15-09-2009 21:47:02 15 C 11.8 g/m*3 15 C 0 km/h
2269 15-09-2009 21:59:03 15 C 11.8 g/m*3 15 C 0 km/h
2270 15-09-2009 22:11:01 14.9 C 11.85 g/m*3 14.9 C 0 km/h
2271 15-09-2009 22:23:01 14.8 C 11.78 g/m*3 14.8 C 0 km/h
2272 15-09-2009 22:35:02 14.8 C 11.78 g/m*3 14.8 C 0 km/h
2273 15-09-2009 22:47:02 14.8 C 11.78 g/m*3 14.8 C 0 km/h
2274 15-09-2009 22:59:02 14.7 C 11.71 g/m*3 14.7 C 0 km/h
2275 15-09-2009 23:11:01 14.7 C 11.71 g/m*3 14.7 C 0 km/h
Sensor: Nr:Datum:Temp:Abs-Feuchte:Windchill:Wind:
Aussen-T/F 2276 15-09-2009 23:23:02 14.7 C 11.71 g/m*3 14.7 C 0 km/h
2277 15-09-2009 23:36:02 14.6 C 11.64 g/m*3 14.6 C 0 km/h
2278 15-09-2009 23:48:02 14.6 C 11.64 g/m*3 14.6 C 0 km/h
2279 16-09-2009 00:00:02 14.6 C 11.64 g/m*3 14.6 C 0 km/h
2280 16-09-2009 00:12:02 14.6 C 11.64 g/m*3 14.6 C 0 km/h
2281 16-09-2009 00:24:02 14.6 C 11.64 g/m*3 14.6 C 0 km/h
2282 16-09-2009 00:36:02 14.6 C 11.64 g/m*3 14.6 C 0 km/h
2283 16-09-2009 00:48:02 14.6 C 11.64 g/m*3 14.6 C 0 km/h
2284 16-09-2009 01:00:02 14.6 C 11.64 g/m*3 14.6 C 0 km/h
2285 16-09-2009 01:12:02 14.6 C 11.64 g/m*3 14.6 C 0 km/h
2286 16-09-2009 01:24:02 14.6 C 11.64 g/m*3 14.6 C 0 km/h
2287 16-09-2009 01:36:02 14.6 C 11.64 g/m*3 14.6 C 0 km/h
2288 16-09-2009 01:48:02 14.6 C 11.51 g/m*3 14.6 C 0 km/h
2289 16-09-2009 02:00:02 14.4 C 11.37 g/m*3 14.4 C 0 km/h
2290 16-09-2009 02:12:02 14.4 C 11.37 g/m*3 14.4 C 0 km/h
2291 16-09-2009 02:24:02 14.2 C 11.23 g/m*3 14.2 C 0 km/h
2292 16-09-2009 02:36:02 14.6 C 11.51 g/m*3 14.6 C 0 km/h
2293 16-09-2009 02:48:02 14.4 C 11.37 g/m*3 14.4 C 0 km/h
2294 16-09-2009 03:00:02 14.4 C 11.37 g/m*3 14.4 C 0 km/h
2295 16-09-2009 03:12:02 14.4 C 11.37 g/m*3 14.4 C 0 km/h
2296 16-09-2009 03:24:02 14.4 C 11.37 g/m*3 14.4 C 0 km/h
2297 16-09-2009 03:36:03 14.4 C 11.37 g/m*3 14.4 C 0 km/h
2298 16-09-2009 03:48:03 14.4 C 11.37 g/m*3 14.4 C 0 km/h
2299 16-09-2009 04:00:03 14.3 C 11.3 g/m*3 14.3 C 0 km/h
2300 16-09-2009 04:12:03 14.3 C 11.3 g/m*3 14.3 C 0 km/h
Sensor: Nr:Datum:Temp:Abs-Feuchte:Windchill:Wind:
Aussen-T/F 2301 16-09-2009 04:24:03 14.1 C 11.04 g/m*3 14.1 C 0 km/h
2302 16-09-2009 04:36:03 14.4 C 11.25 g/m*3 14.4 C 0 km/h
2303 16-09-2009 04:48:03 14.4 C 11.13 g/m*3 14.4 C 0 km/h
2304 16-09-2009 05:00:03 14.3 C 11.06 g/m*3 14.3 C 0 km/h
2305 16-09-2009 05:12:03 14.3 C 11.06 g/m*3 14.3 C 0 km/h
2306 16-09-2009 05:24:03 14.3 C 11.06 g/m*3 14.3 C 0 km/h
2307 16-09-2009 05:36:03 14.3 C 11.06 g/m*3 14.3 C 0 km/h
2308 16-09-2009 05:48:03 14.2 C 10.99 g/m*3 14.2 C 0 km/h
2309 16-09-2009 06:00:03 14.3 C 11.06 g/m*3 14.3 C 0 km/h
2310 16-09-2009 06:12:03 14.3 C 11.06 g/m*3 14.3 C 0 km/h
2311 16-09-2009 06:24:03 14.3 C 10.93 g/m*3 14.3 C 0 km/h
2312 16-09-2009 06:36:03 14.3 C 10.93 g/m*3 14.3 C 0 km/h
2313 16-09-2009 06:48:03 14.3 C 10.93 g/m*3 14.3 C 0 km/h
2314 16-09-2009 07:00:03 14.3 C 10.93 g/m*3 14.3 C 0 km/h
2315 16-09-2009 07:12:03 14.4 C 11 g/m*3 14.4 C 0 km/h
2316 16-09-2009 07:24:03 14.4 C 11 g/m*3 14.4 C 0 km/h
2317 16-09-2009 07:36:03 14.5 C 11.07 g/m*3 14.5 C 0 km/h
2318 16-09-2009 07:48:04 14.5 C 11.07 g/m*3 14.5 C 0 km/h
2319 16-09-2009 08:00:04 14.5 C 10.94 g/m*3 14.5 C 0 km/h
2320 16-09-2009 08:12:04 14.5 C 10.94 g/m*3 14.5 C 0 km/h
2321 16-09-2009 08:24:04 14.6 C 11.01 g/m*3 14.6 C 0 km/h
2322 16-09-2009 08:36:04 14.8 C 11.15 g/m*3 14.8 C 0 km/h
2323 16-09-2009 08:48:04 14.8 C 11.15 g/m*3 14.8 C 0 km/h
2324 16-09-2009 09:00:04 14.8 C 11.15 g/m*3 14.8 C 0 km/h
2325 16-09-2009 09:12:02 15 C 11.16 g/m*3 15 C 0 km/h
Sensor: Nr:Datum:Temp:Abs-Feuchte:Windchill:Wind:
Aussen-T/F 2326 16-09-2009 09:24:02 15.1 C 11.22 g/m*3 15.1 C 0 km/h
2327 16-09-2009 09:36:02 15.2 C 11.29 g/m*3 15.2 C 0 km/h
2328 16-09-2009 09:48:01 15.4 C 11.3 g/m*3 15.4 C 0 km/h
2329 16-09-2009 10:00:01 15.6 C 11.44 g/m*3 15.6 C 0 km/h
2330 16-09-2009 10:12:02 15.7 C 11.37 g/m*3 15.7 C 0 km/h
2331 16-09-2009 10:24:01 15.9 C 11.51 g/m*3 15.9 C 0 km/h
2332 16-09-2009 10:36:02 16 C 11.44 g/m*3 16 C 0 km/h
2333 16-09-2009 10:48:01 16.2 C 11.58 g/m*3 16.2 C 0 km/h
2334 16-09-2009 11:00:01 16.4 C 11.72 g/m*3 16.4 C 0 km/h
2335 16-09-2009 11:12:02 16.5 C 11.65 g/m*3 16.5 C 0 km/h
2336 16-09-2009 11:24:02 16.8 C 11.87 g/m*3 16.8 C 0 km/h
2337 16-09-2009 11:36:02 17 C 11.87 g/m*3 17 C 0 km/h
2338 16-09-2009 11:48:02 17.1 C 11.94 g/m*3 17.1 C 0 km/h
2339 16-09-2009 12:00:02 17.3 C 11.93 g/m*3 17.3 C 0 km/h
2340 16-09-2009 12:12:01 17.5 C 11.78 g/m*3 17.5 C 0 km/h
2341 16-09-2009 12:24:02 17.7 C 11.92 g/m*3 17.7 C 0 km/h
2342 16-09-2009 12:36:01 18.1 C 11.9 g/m*3 18.1 C 0 km/h
2343 16-09-2009 12:48:02 18.3 C 11.88 g/m*3 18.3 C 0 km/h
2344 16-09-2009 13:00:02 18.7 C 12.01 g/m*3 18.7 C 0 km/h
2345 16-09-2009 13:12:01 19.1 C 11.8 g/m*3 19.1 C 0 km/h
2346 16-09-2009 13:24:01 19.5 C 11.24 g/m*3 19.5 C 0 km/h
2347 16-09-2009 13:36:02 20 C 10.89 g/m*3 20 C 0 km/h
2348 16-09-2009 13:48:02 19.9 C 10.82 g/m*3 19.9 C 0 km/h
2349 16-09-2009 14:00:02 19.6 C 10.8 g/m*3 19.6 C 0 km/h
2350 16-09-2009 14:12:01 19.6 C 10.8 g/m*3 19.6 C 0 km/h
Sensor: Nr:Datum:Temp:Abs-Feuchte:Windchill:Wind:
Aussen-T/F 2351 16-09-2009 14:24:02 20 C 10.71 g/m*3 20 C 0 km/h
2352 16-09-2009 14:36:02 20.4 C 10.44 g/m*3 20.4 C 0 km/h
2353 16-09-2009 14:48:02 20.4 C 10.44 g/m*3 20.4 C 0 km/h
2354 16-09-2009 15:00:02 20 C 10.54 g/m*3 20 C 0 km/h
2355 16-09-2009 15:12:03 20.2 C 10.84 g/m*3 20.2 C 0 km/h
2356 16-09-2009 15:24:02 20.3 C 10.73 g/m*3 20.3 C 0 km/h
2357 16-09-2009 15:36:02 20.1 C 10.78 g/m*3 20.1 C 0 km/h
2358 16-09-2009 15:48:01 20 C 10.89 g/m*3 20 C 0 km/h
2359 16-09-2009 16:00:01 19.8 C 11.44 g/m*3 19.8 C 0 km/h
2360 16-09-2009 16:12:02 19.6 C 11.48 g/m*3 19.6 C 0 km/h
2361 16-09-2009 16:24:01 19.7 C 11.38 g/m*3 19.7 C 0 km/h
2362 16-09-2009 16:36:01 19.7 C 11.38 g/m*3 19.7 C 0 km/h
2363 16-09-2009 16:48:01 19.7 C 11.38 g/m*3 19.7 C 0 km/h
2364 16-09-2009 17:00:01 19.6 C 11.48 g/m*3 19.6 C 0 km/h
2365 16-09-2009 17:12:01 19.7 C 11.38 g/m*3 19.7 C 0 km/h
2366 16-09-2009 17:24:02 19.7 C 11.21 g/m*3 19.7 C 0 km/h
2367 16-09-2009 17:36:01 19.6 C 11.31 g/m*3 19.6 C 0 km/h
2368 16-09-2009 17:48:02 19.5 C 11.08 g/m*3 19.5 C 0 km/h
2369 16-09-2009 18:00:02 19.4 C 11.35 g/m*3 19.4 C 0 km/h
2370 16-09-2009 18:12:02 19.5 C 11.41 g/m*3 19.5 C 0 km/h
2371 16-09-2009 18:24:02 19.4 C 11.35 g/m*3 19.4 C 0 km/h
2372 16-09-2009 18:36:03 19.3 C 11.28 g/m*3 19.3 C 0 km/h
2373 16-09-2009 18:48:03 19.1 C 11.47 g/m*3 19.1 C 0 km/h
2374 16-09-2009 19:00:03 18.8 C 11.6 g/m*3 18.8 C 0 km/h
2375 16-09-2009 19:12:02 18.7 C 11.69 g/m*3 18.7 C 0 km/h
Sensor: Nr:Datum:Temp:Abs-Feuchte:Windchill:Wind:
Aussen-T/F 2376 16-09-2009 19:24:02 18.3 C 11.57 g/m*3 18.3 C 0 km/h
2377 16-09-2009 19:36:02 18.1 C 11.59 g/m*3 18.1 C 0 km/h
2378 16-09-2009 19:48:02 18.1 C 11.59 g/m*3 18.1 C 0 km/h
2379 16-09-2009 20:00:02 17.9 C 11.91 g/m*3 17.9 C 0 km/h
2380 16-09-2009 20:12:02 18 C 11.83 g/m*3 18 C 0 km/h
2381 16-09-2009 20:24:02 17.8 C 11.84 g/m*3 17.8 C 0 km/h
2382 16-09-2009 20:36:01 17.3 C 11.79 g/m*3 17.3 C 0 km/h
2383 16-09-2009 20:48:02 17 C 11.72 g/m*3 17 C 0 km/h
2384 16-09-2009 21:00:02 16.9 C 11.94 g/m*3 16.9 C 0 km/h
2385 16-09-2009 21:12:02 17.2 C 12.15 g/m*3 17.2 C 0 km/h
2386 16-09-2009 21:24:01 17.3 C 12.08 g/m*3 17.3 C 0 km/h
2387 16-09-2009 21:36:01 17.4 C 12.15 g/m*3 17.4 C 0 km/h
2388 16-09-2009 21:48:01 17.4 C 12.15 g/m*3 17.4 C 0 km/h
2389 16-09-2009 22:00:01 17.4 C 12 g/m*3 17.4 C 0 km/h
2390 16-09-2009 22:12:01 17.3 C 11.79 g/m*3 17.3 C 0 km/h
2391 16-09-2009 22:24:01 17.3 C 11.79 g/m*3 17.3 C 0 km/h
2392 16-09-2009 22:36:02 17.3 C 11.79 g/m*3 17.3 C 0 km/h
2393 16-09-2009 22:48:02 17.3 C 11.64 g/m*3 17.3 C 0 km/h
2394 16-09-2009 23:00:02 17.3 C 11.49 g/m*3 17.3 C 0 km/h
2395 16-09-2009 23:12:03 17.2 C 11.42 g/m*3 17.2 C 0 km/h
2396 16-09-2009 23:24:02 17.1 C 11.5 g/m*3 17.1 C 0 km/h
2397 16-09-2009 23:36:02 17.2 C 11.57 g/m*3 17.2 C 0 km/h
2398 16-09-2009 23:48:01 17 C 11.43 g/m*3 17 C 0 km/h
2399 17-09-2009 00:00:01 16.7 C 11.37 g/m*3 16.7 C 0 km/h
2400 17-09-2009 00:12:02 16.7 C 11.51 g/m*3 16.7 C 0 km/h
Sensor: Nr:Datum:Temp:Abs-Feuchte:Windchill:Wind:
Aussen-T/F 2401 17-09-2009 00:24:01 16.6 C 11.44 g/m*3 16.6 C 0 km/h
2402 17-09-2009 00:36:02 16.6 C 11.44 g/m*3 16.6 C 0 km/h
2403 17-09-2009 00:48:01 16.6 C 11.44 g/m*3 16.6 C 0 km/h
2404 17-09-2009 01:00:01 16.6 C 11.44 g/m*3 16.6 C 0 km/h
2405 17-09-2009 01:12:02 16.6 C 11.44 g/m*3 16.6 C 0 km/h
2406 17-09-2009 01:24:01 16.7 C 11.37 g/m*3 16.7 C 0 km/h
2407 17-09-2009 01:36:02 16.7 C 11.23 g/m*3 16.7 C 0 km/h
2408 17-09-2009 01:48:01 16.5 C 11.23 g/m*3 16.5 C 0 km/h
2409 17-09-2009 02:00:01 16.5 C 11.23 g/m*3 16.5 C 0 km/h
2410 17-09-2009 02:12:02 16.6 C 11.16 g/m*3 16.6 C 0 km/h
2411 17-09-2009 02:24:02 16.6 C 11.16 g/m*3 16.6 C 0 km/h
2412 17-09-2009 02:36:02 16.6 C 11.02 g/m*3 16.6 C 0 km/h
2413 17-09-2009 02:48:02 16.6 C 11.02 g/m*3 16.6 C 0 km/h
2414 17-09-2009 03:00:02 16.6 C 11.02 g/m*3 16.6 C 0 km/h
2415 17-09-2009 03:12:01 16.5 C 11.09 g/m*3 16.5 C 0 km/h
2416 17-09-2009 03:24:01 16.5 C 11.09 g/m*3 16.5 C 0 km/h
2417 17-09-2009 03:36:01 16.5 C 10.95 g/m*3 16.5 C 0 km/h
2418 17-09-2009 03:48:01 16.5 C 10.95 g/m*3 16.5 C 0 km/h
2419 17-09-2009 04:00:01 16.4 C 10.89 g/m*3 16.4 C 0 km/h
2420 17-09-2009 04:12:01 16.4 C 10.89 g/m*3 16.4 C 0 km/h
2421 17-09-2009 04:24:01 16.4 C 10.89 g/m*3 16.4 C 0 km/h
2422 17-09-2009 04:36:01 16.3 C 10.68 g/m*3 16.3 C 0 km/h
2423 17-09-2009 04:48:01 16.3 C 10.41 g/m*3 16.3 C 0 km/h
2424 17-09-2009 05:00:01 16.2 C 10.34 g/m*3 16.2 C 0 km/h
2425 17-09-2009 05:12:01 16 C 10.08 g/m*3 16 C 0 km/h
Sensor: Nr:Datum:Temp:Abs-Feuchte:Windchill:Wind:
Aussen-T/F 2426 17-09-2009 05:24:02 16 C 10.08 g/m*3 16 C 0 km/h
2427 17-09-2009 05:36:01 15.9 C 10.16 g/m*3 15.9 C 0 km/h
2428 17-09-2009 05:48:02 15.8 C 10.1 g/m*3 15.8 C 0 km/h
2429 17-09-2009 06:00:02 15.8 C 10.1 g/m*3 15.8 C 0 km/h
2430 17-09-2009 06:12:01 15.6 C 9.97 g/m*3 15.6 C 0 km/h
2431 17-09-2009 06:24:02 15.4 C 9.85 g/m*3 15.4 C 0 km/h
2432 17-09-2009 06:36:01 15.4 C 9.85 g/m*3 15.4 C 0 km/h
2433 17-09-2009 06:48:02 15.4 C 9.72 g/m*3 15.4 C 0 km/h
2434 17-09-2009 07:00:02 15.3 C 9.79 g/m*3 15.3 C 0 km/h
2435 17-09-2009 07:12:01 15.3 C 9.79 g/m*3 15.3 C 0 km/h
2436 17-09-2009 07:24:01 15.3 C 9.66 g/m*3 15.3 C 0 km/h
2437 17-09-2009 07:36:02 15.2 C 9.61 g/m*3 15.2 C 0 km/h
2438 17-09-2009 07:48:01 15.2 C 9.48 g/m*3 15.2 C 0 km/h
2439 17-09-2009 08:00:01 15.2 C 9.35 g/m*3 15.2 C 0 km/h
2440 17-09-2009 08:12:01 15.1 C 9.42 g/m*3 15.1 C 0 km/h
2441 17-09-2009 08:24:01 15.2 C 9.48 g/m*3 15.2 C 0 km/h
2442 17-09-2009 08:36:02 15.3 C 9.27 g/m*3 15.3 C 0 km/h
2443 17-09-2009 08:48:01 15.2 C 9.09 g/m*3 15.2 C 0 km/h
2444 17-09-2009 09:00:01 15.4 C 9.07 g/m*3 15.4 C 0 km/h
2445 17-09-2009 09:12:02 15.5 C 8.99 g/m*3 15.5 C 0 km/h
2446 17-09-2009 09:24:01 15.7 C 9.1 g/m*3 15.7 C 0 km/h
2447 17-09-2009 09:36:01 15.9 C 9.07 g/m*3 15.9 C 0 km/h
2448 17-09-2009 09:48:01 16.1 C 8.77 g/m*3 16.1 C 0 km/h
2449 17-09-2009 10:00:01 16.2 C 8.69 g/m*3 16.2 C 0 km/h
2450 17-09-2009 10:12:02 16.4 C 8.79 g/m*3 16.4 C 0 km/h
Sensor: Nr:Datum:Temp:Abs-Feuchte:Windchill:Wind:
Aussen-T/F 2451 17-09-2009 10:24:01 16.6 C 8.76 g/m*3 16.6 C 0 km/h
2452 17-09-2009 10:36:01 17 C 8.54 g/m*3 17 C 0 km/h
2453 17-09-2009 10:48:01 17.3 C 8.84 g/m*3 17.3 C 0 km/h
2454 17-09-2009 11:00:01 17 C 8.68 g/m*3 17 C 0 km/h
2455 17-09-2009 11:12:01 17.3 C 8.69 g/m*3 17.3 C 0 km/h
2456 17-09-2009 11:24:01 17.4 C 8.6 g/m*3 17.4 C 0 km/h
2457 17-09-2009 11:36:01 17.7 C 8.75 g/m*3 17.7 C 0 km/h
2458 17-09-2009 11:48:01 18.1 C 8.65 g/m*3 18.1 C 0 km/h
2459 17-09-2009 12:00:01 18.2 C 8.7 g/m*3 18.2 C 0 km/h
2460 17-09-2009 12:12:01 18.7 C 8.81 g/m*3 18.7 C 0 km/h
2461 17-09-2009 12:24:02 18.8 C 9.02 g/m*3 18.8 C 0 km/h
2462 17-09-2009 12:36:01 19.3 C 8.96 g/m*3 19.3 C 0 km/h
2463 17-09-2009 12:48:02 20.4 C 8.67 g/m*3 20.4 C 0 km/h
2464 17-09-2009 13:00:02 20.9 C 9.11 g/m*3 20.9 C 0 km/h
2465 17-09-2009 13:12:01 20.8 C 8.87 g/m*3 20.8 C 0 km/h
2466 17-09-2009 13:24:02 21 C 8.43 g/m*3 21 C 0 km/h
2467 17-09-2009 13:36:01 21.6 C 8.53 g/m*3 21.6 C 0 km/h
2468 17-09-2009 13:48:02 22 C 8.73 g/m*3 22 C 0 km/h
2469 17-09-2009 14:00:02 22.9 C 8.38 g/m*3 22.9 C 0 km/h
2470 17-09-2009 14:12:01 23.8 C 7.96 g/m*3 23.8 C 0 km/h
2471 17-09-2009 14:24:01 23.3 C 8.36 g/m*3 23.3 C 0 km/h
2472 17-09-2009 14:36:02 23.1 C 8.68 g/m*3 23.1 C 0 km/h
2473 17-09-2009 14:48:01 23.2 C 8.52 g/m*3 23.2 C 0 km/h
2474 17-09-2009 15:00:01 23 C 9.25 g/m*3 23 C 0 km/h
2475 17-09-2009 15:12:01 22.7 C 9.09 g/m*3 22.7 C 0 km/h
Sensor: Nr:Datum:Temp:Abs-Feuchte:Windchill:Wind:
Aussen-T/F 2476 17-09-2009 15:24:01 23.2 C 8.94 g/m*3 23.2 C 0 km/h
2477 17-09-2009 15:36:02 23.7 C 9.2 g/m*3 23.7 C 0 km/h
2478 17-09-2009 15:48:01 23.2 C 8.94 g/m*3 23.2 C 0 km/h
2479 17-09-2009 16:00:01 24.2 C 9.24 g/m*3 24.2 C 0 km/h
2480 17-09-2009 16:12:02 25.1 C 8.33 g/m*3 25.1 C 0 km/h
2481 17-09-2009 16:24:01 25.6 C 9.05 g/m*3 25.6 C 0 km/h
2482 17-09-2009 16:36:01 26.3 C 8.66 g/m*3 26.3 C 0 km/h
2483 17-09-2009 16:48:01 26.7 C 8.35 g/m*3 26.7 C 0 km/h
2484 17-09-2009 17:00:01 26.4 C 7.97 g/m*3 26.4 C 0 km/h
2485 17-09-2009 17:12:02 26.1 C 8.81 g/m*3 26.1 C 0 km/h
2486 17-09-2009 17:24:01 24.5 C 9.4 g/m*3 24.5 C 0 km/h
2487 17-09-2009 17:36:01 24.2 C 9.46 g/m*3 24.2 C 0 km/h
2488 17-09-2009 17:48:01 24.5 C 9.4 g/m*3 24.5 C 0 km/h
2489 17-09-2009 18:00:01 24.8 C 9.56 g/m*3 24.8 C 0 km/h
2490 17-09-2009 18:12:01 24.4 C 9.35 g/m*3 24.4 C 0 km/h
2491 17-09-2009 18:24:02 23.1 C 9.72 g/m*3 23.1 C 0 km/h
2492 17-09-2009 18:36:01 22.1 C 9.76 g/m*3 22.1 C 0 km/h
2493 17-09-2009 18:48:01 21.3 C 10.07 g/m*3 21.3 C 0 km/h
2494 17-09-2009 19:00:01 20.5 C 10.14 g/m*3 20.5 C 0 km/h
2495 17-09-2009 19:12:01 19.8 C 10.08 g/m*3 19.8 C 0 km/h
2496 17-09-2009 19:24:02 19.4 C 10.01 g/m*3 19.4 C 0 km/h
2497 17-09-2009 19:36:01 18.9 C 10.04 g/m*3 18.9 C 0 km/h
2498 17-09-2009 19:48:02 18.6 C 10.03 g/m*3 18.6 C 0 km/h
2499 17-09-2009 20:00:02 18.2 C 9.95 g/m*3 18.2 C 0 km/h
2500 17-09-2009 20:12:01 17.9 C 10.08 g/m*3 17.9 C 0 km/h
Sensor: Nr:Datum:Temp:Abs-Feuchte:Windchill:Wind:
Aussen-T/F 2501 17-09-2009 20:24:02 17.6 C 10.05 g/m*3 17.6 C 0 km/h
2502 17-09-2009 20:36:01 17.3 C 10.02 g/m*3 17.3 C 0 km/h
2503 17-09-2009 20:48:02 17.1 C 9.9 g/m*3 17.1 C 0 km/h
2504 17-09-2009 21:00:02 16.8 C 9.87 g/m*3 16.8 C 0 km/h
2505 17-09-2009 21:12:01 16.9 C 10.21 g/m*3 16.9 C 0 km/h
2506 17-09-2009 21:24:02 17 C 9.98 g/m*3 17 C 0 km/h
2507 17-09-2009 21:36:01 16.9 C 10.21 g/m*3 16.9 C 0 km/h
2508 17-09-2009 21:48:02 17 C 10.27 g/m*3 17 C 0 km/h
2509 17-09-2009 22:00:02 17.3 C 10.31 g/m*3 17.3 C 0 km/h
2510 17-09-2009 22:12:01 17.2 C 10.25 g/m*3 17.2 C 0 km/h
2511 17-09-2009 22:24:01 17.2 C 9.96 g/m*3 17.2 C 0 km/h
2512 17-09-2009 22:37:02 17.1 C 9.75 g/m*3 17.1 C 0 km/h
2513 17-09-2009 22:49:03 17.2 C 9.81 g/m*3 17.2 C 0 km/h
2514 17-09-2009 23:01:03 17 C 9.12 g/m*3 17 C 0 km/h
2515 17-09-2009 23:13:03 17 C 8.83 g/m*3 17 C 0 km/h
2516 17-09-2009 23:25:03 17.1 C 9.32 g/m*3 17.1 C 0 km/h
2517 17-09-2009 23:37:03 17 C 8.97 g/m*3 17 C 0 km/h
2518 17-09-2009 23:49:03 17 C 9.12 g/m*3 17 C 0 km/h
2519 18-09-2009 00:01:03 16.8 C 9.15 g/m*3 16.8 C 0 km/h
2520 18-09-2009 00:13:03 16.5 C 9.13 g/m*3 16.5 C 0 km/h
2521 18-09-2009 00:25:03 16.3 C 9.02 g/m*3 16.3 C 0 km/h
2522 18-09-2009 00:37:03 16.2 C 8.96 g/m*3 16.2 C 0 km/h
2523 18-09-2009 00:49:03 16.1 C 8.91 g/m*3 16.1 C 0 km/h
2524 18-09-2009 01:01:03 16 C 8.99 g/m*3 16 C 0 km/h
2525 18-09-2009 01:13:03 16 C 8.86 g/m*3 16 C 0 km/h
Sensor: Nr:Datum:Temp:Abs-Feuchte:Windchill:Wind:
Aussen-T/F 2526 18-09-2009 01:25:03 16.2 C 8.96 g/m*3 16.2 C 0 km/h
2527 18-09-2009 01:37:03 16.2 C 8.83 g/m*3 16.2 C 0 km/h
2528 18-09-2009 01:49:03 16.2 C 8.96 g/m*3 16.2 C 0 km/h
2529 18-09-2009 02:01:03 15.9 C 8.94 g/m*3 15.9 C 0 km/h
2530 18-09-2009 02:13:03 15.4 C 8.8 g/m*3 15.4 C 0 km/h
2531 18-09-2009 02:25:03 15 C 8.72 g/m*3 15 C 0 km/h
2532 18-09-2009 02:37:03 14.5 C 8.71 g/m*3 14.5 C 0 km/h
2533 18-09-2009 02:49:04 14.3 C 8.85 g/m*3 14.3 C 0 km/h
2534 18-09-2009 03:01:04 14 C 8.68 g/m*3 14 C 0 km/h
2535 18-09-2009 03:13:04 13.7 C 8.76 g/m*3 13.7 C 0 km/h
2536 18-09-2009 03:25:04 13.6 C 8.83 g/m*3 13.6 C 0 km/h
2537 18-09-2009 03:37:04 13.6 C 8.94 g/m*3 13.6 C 0 km/h
2538 18-09-2009 03:49:04 13.4 C 8.83 g/m*3 13.4 C 0 km/h
2539 18-09-2009 04:01:04 13.2 C 8.73 g/m*3 13.2 C 0 km/h
2540 18-09-2009 04:13:04 13 C 8.73 g/m*3 13 C 0 km/h
2541 18-09-2009 04:25:04 13 C 8.85 g/m*3 13 C 0 km/h
2542 18-09-2009 04:37:04 13.1 C 8.9 g/m*3 13.1 C 0 km/h
2543 18-09-2009 04:49:04 13.3 C 9.13 g/m*3 13.3 C 0 km/h
2544 18-09-2009 05:01:04 13.5 C 9.24 g/m*3 13.5 C 0 km/h
2545 18-09-2009 05:13:04 13.5 C 9.24 g/m*3 13.5 C 0 km/h
2546 18-09-2009 05:25:04 13.3 C 9.13 g/m*3 13.3 C 0 km/h
2547 18-09-2009 05:37:04 13 C 9.07 g/m*3 13 C 0 km/h
2548 18-09-2009 05:49:04 12.7 C 9.02 g/m*3 12.7 C 0 km/h
2549 18-09-2009 06:01:04 12.5 C 9.02 g/m*3 12.5 C 0 km/h
2550 18-09-2009 06:13:04 12.5 C 9.02 g/m*3 12.5 C 0 km/h
Sensor: Nr:Datum:Temp:Abs-Feuchte:Windchill:Wind:
Aussen-T/F 2551 18-09-2009 06:25:05 12.6 C 9.18 g/m*3 12.6 C 0 km/h
2552 18-09-2009 06:37:05 12.7 C 9.24 g/m*3 12.7 C 0 km/h
2553 18-09-2009 06:49:05 12.8 C 9.18 g/m*3 12.8 C 0 km/h
2554 18-09-2009 07:01:02 12.7 C 9.13 g/m*3 12.7 C 0 km/h
2555 18-09-2009 07:13:02 12.8 C 9.3 g/m*3 12.8 C 0 km/h
2556 18-09-2009 07:25:02 12.9 C 9.35 g/m*3 12.9 C 0 km/h
2557 18-09-2009 07:37:02 13 C 9.41 g/m*3 13 C 0 km/h
2558 18-09-2009 07:49:02 13.3 C 9.47 g/m*3 13.3 C 0 km/h
2559 18-09-2009 08:01:02 13.4 C 9.53 g/m*3 13.4 C 0 km/h
2560 18-09-2009 08:13:02 13.3 C 9.36 g/m*3 13.3 C 0 km/h
2561 18-09-2009 08:25:02 13.4 C 9.42 g/m*3 13.4 C 0 km/h
2562 18-09-2009 08:37:02 13.5 C 9.47 g/m*3 13.5 C 0 km/h
2563 18-09-2009 08:49:02 13.7 C 9.47 g/m*3 13.7 C 0 km/h
2564 18-09-2009 09:01:02 13.6 C 9.3 g/m*3 13.6 C 0 km/h
2565 18-09-2009 09:13:02 13.8 C 9.53 g/m*3 13.8 C 0 km/h
2566 18-09-2009 09:25:03 14 C 9.53 g/m*3 14 C 0 km/h
2567 18-09-2009 09:37:02 14 C 9.29 g/m*3 14 C 0 km/h
2568 18-09-2009 09:49:03 14 C 9.29 g/m*3 14 C 0 km/h
2569 18-09-2009 10:01:02 14.4 C 9.39 g/m*3 14.4 C 0 km/h
2570 18-09-2009 10:13:02 14.7 C 9.32 g/m*3 14.7 C 0 km/h
2571 18-09-2009 10:25:02 15 C 9.23 g/m*3 15 C 0 km/h
2572 18-09-2009 10:37:02 15.8 C 9.29 g/m*3 15.8 C 0 km/h
2573 18-09-2009 10:49:02 16.4 C 9.49 g/m*3 16.4 C 0 km/h
2574 18-09-2009 11:01:02 17 C 9.55 g/m*3 17 C 0 km/h
2575 18-09-2009 11:13:02 17.5 C 9.69 g/m*3 17.5 C 0 km/h
Sensor: Nr:Datum:Temp:Abs-Feuchte:Windchill:Wind:
Aussen-T/F 2576 18-09-2009 11:25:02 17.7 C 9.66 g/m*3 17.7 C 0 km/h
2577 18-09-2009 11:37:01 18.6 C 9.39 g/m*3 18.6 C 0 km/h
2578 18-09-2009 11:49:02 19.1 C 8.85 g/m*3 19.1 C 0 km/h
2579 18-09-2009 12:01:01 19.5 C 8.73 g/m*3 19.5 C 0 km/h
2580 18-09-2009 12:13:01 19.7 C 8.83 g/m*3 19.7 C 0 km/h
2581 18-09-2009 12:25:01 20 C 8.81 g/m*3 20 C 0 km/h
2582 18-09-2009 12:37:02 20.3 C 8.97 g/m*3 20.3 C 0 km/h
2583 18-09-2009 12:49:02 20.6 C 9.13 g/m*3 20.6 C 0 km/h
2584 18-09-2009 13:01:02 21 C 9.16 g/m*3 21 C 0 km/h
2585 18-09-2009 13:13:02 21.5 C 9.24 g/m*3 21.5 C 0 km/h
2586 18-09-2009 13:25:02 21.9 C 9.26 g/m*3 21.9 C 0 km/h
2587 18-09-2009 13:37:02 22.7 C 9.29 g/m*3 22.7 C 0 km/h
2588 18-09-2009 13:49:01 23 C 8.84 g/m*3 23 C 0 km/h
2589 18-09-2009 14:01:02 23.6 C 8.93 g/m*3 23.6 C 0 km/h
2590 18-09-2009 14:13:02 24.1 C 8.75 g/m*3 24.1 C 0 km/h
2591 18-09-2009 14:25:01 24.7 C 9.05 g/m*3 24.7 C 0 km/h
2592 18-09-2009 14:37:01 24.4 C 8.46 g/m*3 24.4 C 0 km/h
2593 18-09-2009 14:49:01 23.7 C 8.98 g/m*3 23.7 C 0 km/h
2594 18-09-2009 15:01:02 23.6 C 9.15 g/m*3 23.6 C 0 km/h
2595 18-09-2009 15:13:02 23.9 C 9.3 g/m*3 23.9 C 0 km/h
2596 18-09-2009 15:25:02 24.9 C 8.7 g/m*3 24.9 C 0 km/h
2597 18-09-2009 15:37:01 25.8 C 8.91 g/m*3 25.8 C 0 km/h
2598 18-09-2009 15:49:01 25.5 C 9.47 g/m*3 25.5 C 0 km/h
2599 18-09-2009 16:01:01 25 C 9.44 g/m*3 25 C 0 km/h
2600 18-09-2009 16:13:01 24 C 10.01 g/m*3 24 C 0 km/h
Sensor: Nr:Datum:Temp:Abs-Feuchte:Windchill:Wind:
Aussen-T/F 2601 18-09-2009 16:25:02 23.4 C 10.72 g/m*3 23.4 C 0 km/h
2602 18-09-2009 16:37:01 23.3 C 10.66 g/m*3 23.3 C 0 km/h
2603 18-09-2009 16:49:02 23.1 C 10.54 g/m*3 23.1 C 0 km/h
2604 18-09-2009 17:01:01 23.2 C 11.02 g/m*3 23.2 C 0 km/h
2605 18-09-2009 17:13:01 22.9 C 11.24 g/m*3 22.9 C 0 km/h
2606 18-09-2009 17:25:02 24.5 C 10.97 g/m*3 24.5 C 0 km/h
2607 18-09-2009 17:37:01 25.7 C 10.53 g/m*3 25.7 C 0 km/h
2608 18-09-2009 17:49:02 26.7 C 9.87 g/m*3 26.7 C 0 km/h
2609 18-09-2009 18:01:02 26.6 C 9.57 g/m*3 26.6 C 0 km/h
2610 18-09-2009 18:13:02 26.3 C 9.16 g/m*3 26.3 C 0 km/h
2611 18-09-2009 18:25:02 25.7 C 9.58 g/m*3 25.7 C 0 km/h
2612 18-09-2009 18:37:02 24.4 C 10.01 g/m*3 24.4 C 0 km/h
2613 18-09-2009 18:49:02 23.2 C 10.19 g/m*3 23.2 C 0 km/h
2614 18-09-2009 19:01:02 22.4 C 10.72 g/m*3 22.4 C 0 km/h
2615 18-09-2009 19:13:02 21.7 C 10.68 g/m*3 21.7 C 0 km/h
2616 18-09-2009 19:25:01 21.1 C 10.69 g/m*3 21.1 C 0 km/h
2617 18-09-2009 19:37:02 20.8 C 10.68 g/m*3 20.8 C 0 km/h
2618 18-09-2009 19:49:02 20.4 C 10.79 g/m*3 20.4 C 0 km/h
2619 18-09-2009 20:01:02 20.1 C 10.78 g/m*3 20.1 C 0 km/h
2620 18-09-2009 20:13:02 20 C 10.71 g/m*3 20 C 0 km/h
2621 18-09-2009 20:25:02 19.9 C 10.82 g/m*3 19.9 C 0 km/h
2622 18-09-2009 20:37:02 20 C 10.89 g/m*3 20 C 0 km/h
2623 18-09-2009 20:49:02 20.1 C 10.95 g/m*3 20.1 C 0 km/h
2624 18-09-2009 21:01:02 20 C 11.06 g/m*3 20 C 0 km/h
2625 18-09-2009 21:13:02 19.9 C 11.17 g/m*3 19.9 C 0 km/h
Sensor: Nr:Datum:Temp:Abs-Feuchte:Windchill:Wind:
Aussen-T/F 2626 18-09-2009 21:25:02 19.8 C 11.27 g/m*3 19.8 C 0 km/h
2627 18-09-2009 21:37:02 19.6 C 11.14 g/m*3 19.6 C 0 km/h
2628 18-09-2009 21:49:01 19.5 C 10.91 g/m*3 19.5 C 0 km/h
2629 18-09-2009 22:01:01 19.5 C 10.74 g/m*3 19.5 C 0 km/h
2630 18-09-2009 22:13:01 19.5 C 10.74 g/m*3 19.5 C 0 km/h
2631 18-09-2009 22:25:01 19.5 C 10.57 g/m*3 19.5 C 0 km/h
2632 18-09-2009 22:37:02 19.6 C 10.47 g/m*3 19.6 C 0 km/h
2633 18-09-2009 22:50:01 19.6 C 10.64 g/m*3 19.6 C 0 km/h
2634 18-09-2009 23:02:01 19.6 C 10.47 g/m*3 19.6 C 0 km/h
2635 18-09-2009 23:14:01 19.6 C 10.47 g/m*3 19.6 C 0 km/h
2636 18-09-2009 23:26:01 19.5 C 10.41 g/m*3 19.5 C 0 km/h
2637 18-09-2009 23:38:02 19.5 C 10.24 g/m*3 19.5 C 0 km/h
2638 18-09-2009 23:50:02 19.5 C 10.24 g/m*3 19.5 C 0 km/h
2639 19-09-2009 00:02:02 19.5 C 10.24 g/m*3 19.5 C 0 km/h
2640 19-09-2009 00:14:02 19.4 C 10.18 g/m*3 19.4 C 0 km/h
2641 19-09-2009 00:26:02 19.3 C 10.28 g/m*3 19.3 C 0 km/h
2642 19-09-2009 00:38:02 19.2 C 10.39 g/m*3 19.2 C 0 km/h
2643 19-09-2009 00:50:02 18.9 C 10.69 g/m*3 18.9 C 0 km/h
2644 19-09-2009 01:02:02 18.7 C 10.73 g/m*3 18.7 C 0 km/h
2645 19-09-2009 01:14:02 18.7 C 10.73 g/m*3 18.7 C 0 km/h
2646 19-09-2009 01:26:02 18.6 C 10.82 g/m*3 18.6 C 0 km/h
2647 19-09-2009 01:38:02 18.5 C 10.92 g/m*3 18.5 C 0 km/h
2648 19-09-2009 01:50:02 18.4 C 10.85 g/m*3 18.4 C 0 km/h
2649 19-09-2009 02:02:02 18.3 C 10.79 g/m*3 18.3 C 0 km/h
2650 19-09-2009 02:14:02 18.1 C 10.66 g/m*3 18.1 C 0 km/h
Sensor: Nr:Datum:Temp:Abs-Feuchte:Windchill:Wind:
Aussen-T/F 2651 19-09-2009 02:26:02 18.1 C 10.82 g/m*3 18.1 C 0 km/h
2652 19-09-2009 02:38:02 18.1 C 10.97 g/m*3 18.1 C 0 km/h
2653 19-09-2009 02:50:02 18.1 C 10.97 g/m*3 18.1 C 0 km/h
2654 19-09-2009 03:02:02 17.9 C 10.99 g/m*3 17.9 C 0 km/h
2655 19-09-2009 03:14:02 17.9 C 10.99 g/m*3 17.9 C 0 km/h
2656 19-09-2009 03:26:03 17.9 C 10.69 g/m*3 17.9 C 0 km/h
2657 19-09-2009 03:38:03 17.9 C 10.69 g/m*3 17.9 C 0 km/h
2658 19-09-2009 03:50:03 17.9 C 10.54 g/m*3 17.9 C 0 km/h
2659 19-09-2009 04:02:03 17.9 C 10.54 g/m*3 17.9 C 0 km/h
2660 19-09-2009 04:14:03 17.9 C 10.54 g/m*3 17.9 C 0 km/h
2661 19-09-2009 04:26:03 18 C 10.44 g/m*3 18 C 0 km/h
2662 19-09-2009 04:38:03 17.9 C 10.54 g/m*3 17.9 C 0 km/h
2663 19-09-2009 04:50:03 18 C 10.44 g/m*3 18 C 0 km/h
2664 19-09-2009 05:02:03 18 C 10.29 g/m*3 18 C 0 km/h
2665 19-09-2009 05:14:03 18 C 10.6 g/m*3 18 C 0 km/h
2666 19-09-2009 05:26:03 17.9 C 10.69 g/m*3 17.9 C 0 km/h
2667 19-09-2009 05:38:03 17.9 C 10.69 g/m*3 17.9 C 0 km/h
2668 19-09-2009 05:50:03 17.8 C 10.78 g/m*3 17.8 C 0 km/h
2669 19-09-2009 06:02:03 17.7 C 10.71 g/m*3 17.7 C 0 km/h
2670 19-09-2009 06:14:03 17.5 C 10.73 g/m*3 17.5 C 0 km/h
2671 19-09-2009 06:26:03 17.4 C 10.52 g/m*3 17.4 C 0 km/h
2672 19-09-2009 06:38:03 17.3 C 10.61 g/m*3 17.3 C 0 km/h
2673 19-09-2009 06:50:03 17.1 C 10.48 g/m*3 17.1 C 0 km/h
2674 19-09-2009 07:02:03 16.9 C 10.5 g/m*3 16.9 C 0 km/h
2675 19-09-2009 07:14:03 16.6 C 10.45 g/m*3 16.6 C 0 km/h
Sensor: Nr:Datum:Temp:Abs-Feuchte:Windchill:Wind:
Aussen-T/F 2676 19-09-2009 07:26:04 16.6 C 10.45 g/m*3 16.6 C 0 km/h
2677 19-09-2009 07:38:04 16.6 C 10.45 g/m*3 16.6 C 0 km/h
2678 19-09-2009 07:50:04 16.6 C 10.45 g/m*3 16.6 C 0 km/h
2679 19-09-2009 08:02:01 16.8 C 10.58 g/m*3 16.8 C 0 km/h
2680 19-09-2009 08:14:01 17 C 10.56 g/m*3 17 C 0 km/h
2681 19-09-2009 08:26:02 17.2 C 10.69 g/m*3 17.2 C 0 km/h
2682 19-09-2009 08:38:01 17.5 C 10.73 g/m*3 17.5 C 0 km/h
2683 19-09-2009 08:50:02 17.8 C 10.93 g/m*3 17.8 C 0 km/h
2684 19-09-2009 09:02:02 17.9 C 10.69 g/m*3 17.9 C 0 km/h
2685 19-09-2009 09:14:02 18 C 10.29 g/m*3 18 C 0 km/h
2686 19-09-2009 09:26:02 18.2 C 10.26 g/m*3 18.2 C 0 km/h
2687 19-09-2009 09:38:03 18.4 C 10.07 g/m*3 18.4 C 0 km/h
2688 19-09-2009 09:50:02 18.6 C 10.03 g/m*3 18.6 C 0 km/h
2689 19-09-2009 10:02:01 18.8 C 9.99 g/m*3 18.8 C 0 km/h
2690 19-09-2009 10:14:01 19.1 C 9.67 g/m*3 19.1 C 0 km/h
2691 19-09-2009 10:26:02 19.4 C 9.51 g/m*3 19.4 C 0 km/h
2692 19-09-2009 10:38:02 20 C 9.33 g/m*3 20 C 0 km/h
2693 19-09-2009 10:50:02 20.3 C 9.5 g/m*3 20.3 C 0 km/h
2694 19-09-2009 11:02:03 20.2 C 9.62 g/m*3 20.2 C 0 km/h
2695 19-09-2009 11:14:03 21.1 C 9.58 g/m*3 21.1 C 0 km/h
2696 19-09-2009 11:26:02 22.2 C 9.42 g/m*3 22.2 C 0 km/h
2697 19-09-2009 11:38:02 22 C 9.12 g/m*3 22 C 0 km/h
2698 19-09-2009 11:50:01 22.3 C 9.68 g/m*3 22.3 C 0 km/h
2699 19-09-2009 12:02:02 22.8 C 9.55 g/m*3 22.8 C 0 km/h
2700 19-09-2009 12:14:02 22.7 C 9.5 g/m*3 22.7 C 0 km/h
Sensor: Nr:Datum:Temp:Abs-Feuchte:Windchill:Wind:
Aussen-T/F 2701 19-09-2009 12:26:01 22.7 C 9.9 g/m*3 22.7 C 0 km/h
2702 19-09-2009 12:38:02 22.9 C 9.81 g/m*3 22.9 C 0 km/h
2703 19-09-2009 12:50:01 23.4 C 9.46 g/m*3 23.4 C 0 km/h
2704 19-09-2009 13:02:02 23.8 C 9.9 g/m*3 23.8 C 0 km/h
2705 19-09-2009 13:14:02 24 C 10.01 g/m*3 24 C 0 km/h
2706 19-09-2009 13:26:01 24.3 C 9.96 g/m*3 24.3 C 0 km/h
2707 19-09-2009 13:38:02 24.7 C 10.19 g/m*3 24.7 C 0 km/h
2708 19-09-2009 13:50:01 25 C 9.44 g/m*3 25 C 0 km/h
2709 19-09-2009 14:02:02 25.5 C 9.47 g/m*3 25.5 C 0 km/h
2710 19-09-2009 14:14:02 26.1 C 9.55 g/m*3 26.1 C 0 km/h
2711 19-09-2009 14:26:02 26.2 C 9.35 g/m*3 26.2 C 0 km/h
2712 19-09-2009 14:38:02 26.7 C 9.37 g/m*3 26.7 C 0 km/h
2713 19-09-2009 14:50:01 26.2 C 10.34 g/m*3 26.2 C 0 km/h
2714 19-09-2009 15:02:02 27 C 9.26 g/m*3 27 C 0 km/h
2715 19-09-2009 15:14:02 27.6 C 9.31 g/m*3 27.6 C 0 km/h
2716 19-09-2009 15:26:02 27.5 C 9.79 g/m*3 27.5 C 0 km/h
2717 19-09-2009 15:38:01 28.5 C 9.22 g/m*3 28.5 C 0 km/h
2718 19-09-2009 15:50:02 28.5 C 9.22 g/m*3 28.5 C 0 km/h
2719 19-09-2009 16:02:01 27.9 C 10.01 g/m*3 27.9 C 0 km/h
2720 19-09-2009 16:14:01 27.3 C 10.47 g/m*3 27.3 C 0 km/h
2721 19-09-2009 16:26:02 26.6 C 10.82 g/m*3 26.6 C 0 km/h
2722 19-09-2009 16:38:01 25.8 C 11.32 g/m*3 25.8 C 0 km/h
2723 19-09-2009 16:50:02 25.5 C 10.89 g/m*3 25.5 C 0 km/h
2724 19-09-2009 17:02:02 26.4 C 10.7 g/m*3 26.4 C 0 km/h
2725 19-09-2009 17:14:02 28 C 9.52 g/m*3 28 C 0 km/h
Sensor: Nr:Datum:Temp:Abs-Feuchte:Windchill:Wind:
Aussen-T/F 2726 19-09-2009 17:26:02 27.7 C 9.9 g/m*3 27.7 C 0 km/h
2727 19-09-2009 17:38:03 26.5 C 10.26 g/m*3 26.5 C 0 km/h
2728 19-09-2009 17:50:02 25.6 C 10.71 g/m*3 25.6 C 0 km/h
2729 19-09-2009 18:02:01 24.8 C 11.15 g/m*3 24.8 C 0 km/h
2730 19-09-2009 18:14:01 24.2 C 11.44 g/m*3 24.2 C 0 km/h
2731 19-09-2009 18:26:02 23.8 C 11.62 g/m*3 23.8 C 0 km/h
2732 19-09-2009 18:38:02 23.4 C 11.57 g/m*3 23.4 C 0 km/h
2733 19-09-2009 18:50:02 22.9 C 11.65 g/m*3 22.9 C 0 km/h
2734 19-09-2009 19:02:03 22.5 C 11.58 g/m*3 22.5 C 0 km/h
2735 19-09-2009 19:14:03 22.4 C 11.52 g/m*3 22.4 C 0 km/h
2736 19-09-2009 19:26:02 22.2 C 11.39 g/m*3 22.2 C 0 km/h
2737 19-09-2009 19:38:02 21.8 C 11.51 g/m*3 21.8 C 0 km/h
2738 19-09-2009 19:50:01 21.7 C 11.64 g/m*3 21.7 C 0 km/h
2739 19-09-2009 20:02:02 21.6 C 11.76 g/m*3 21.6 C 0 km/h
2740 19-09-2009 20:14:02 21.6 C 11.76 g/m*3 21.6 C 0 km/h
2741 19-09-2009 20:26:01 21.6 C 11.76 g/m*3 21.6 C 0 km/h
2742 19-09-2009 20:38:02 21.2 C 12.42 g/m*3 21.2 C 0 km/h
2743 19-09-2009 20:50:01 19.7 C 13.41 g/m*3 19.7 C 0 km/h
2744 19-09-2009 21:02:01 19.2 C 13.85 g/m*3 19.2 C 0 km/h
2745 19-09-2009 21:14:01 19.3 C 13.93 g/m*3 19.3 C 0 km/h
2746 19-09-2009 21:26:02 19.2 C 13.85 g/m*3 19.2 C 0 km/h
2747 19-09-2009 21:38:02 19 C 13.53 g/m*3 19 C 0 km/h
2748 19-09-2009 21:50:02 19.2 C 13.36 g/m*3 19.2 C 0 km/h
2749 19-09-2009 22:02:02 19.4 C 13.01 g/m*3 19.4 C 0 km/h
2750 19-09-2009 22:14:02 19.5 C 12.92 g/m*3 19.5 C 0 km/h
Sensor: Nr:Datum:Temp:Abs-Feuchte:Windchill:Wind:
Aussen-T/F 2751 19-09-2009 22:26:02 19.3 C 12.94 g/m*3 19.3 C 0 km/h
2752 19-09-2009 22:38:02 19.3 C 12.94 g/m*3 19.3 C 0 km/h
2753 19-09-2009 22:51:02 19 C 12.71 g/m*3 19 C 0 km/h
2754 19-09-2009 23:03:03 18.7 C 12.81 g/m*3 18.7 C 0 km/h
2755 19-09-2009 23:15:03 18.4 C 12.58 g/m*3 18.4 C 0 km/h
2756 19-09-2009 23:27:03 18.2 C 12.59 g/m*3 18.2 C 0 km/h
2757 19-09-2009 23:39:03 18.1 C 12.52 g/m*3 18.1 C 0 km/h
2758 19-09-2009 23:51:03 17.9 C 12.52 g/m*3 17.9 C 0 km/h
2759 20-09-2009 00:03:03 17.7 C 12.52 g/m*3 17.7 C 0 km/h
2760 20-09-2009 00:15:03 17.6 C 12.45 g/m*3 17.6 C 0 km/h
2761 20-09-2009 00:27:03 17.5 C 12.37 g/m*3 17.5 C 0 km/h
2762 20-09-2009 00:39:03 17.4 C 12.45 g/m*3 17.4 C 0 km/h
2763 20-09-2009 00:51:03 17.3 C 12.37 g/m*3 17.3 C 0 km/h
2764 20-09-2009 01:03:03 17.2 C 12.3 g/m*3 17.2 C 0 km/h
2765 20-09-2009 01:15:03 17.1 C 12.23 g/m*3 17.1 C 0 km/h
2766 20-09-2009 01:27:03 17.2 C 12.45 g/m*3 17.2 C 0 km/h
2767 20-09-2009 01:39:03 17.1 C 12.37 g/m*3 17.1 C 0 km/h
2768 20-09-2009 01:51:03 17.2 C 12.45 g/m*3 17.2 C 0 km/h
2769 20-09-2009 02:03:03 17.4 C 12.6 g/m*3 17.4 C 0 km/h
2770 20-09-2009 02:15:03 17.3 C 12.37 g/m*3 17.3 C 0 km/h
2771 20-09-2009 02:27:03 17.1 C 12.23 g/m*3 17.1 C 0 km/h
2772 20-09-2009 02:39:03 17.2 C 12.3 g/m*3 17.2 C 0 km/h
2773 20-09-2009 02:51:04 17.2 C 12.3 g/m*3 17.2 C 0 km/h
2774 20-09-2009 03:03:04 16.9 C 12.23 g/m*3 16.9 C 0 km/h
2775 20-09-2009 03:15:04 16.6 C 12.15 g/m*3 16.6 C 0 km/h
Sensor: Nr:Datum:Temp:Abs-Feuchte:Windchill:Wind:
Aussen-T/F 2776 20-09-2009 03:27:04 16.6 C 12.29 g/m*3 16.6 C 0 km/h
2777 20-09-2009 03:39:04 16.6 C 12.29 g/m*3 16.6 C 0 km/h
2778 20-09-2009 03:51:04 16.7 C 12.36 g/m*3 16.7 C 0 km/h
2779 20-09-2009 04:03:04 16.7 C 12.36 g/m*3 16.7 C 0 km/h
2780 20-09-2009 04:15:04 16.4 C 12 g/m*3 16.4 C 0 km/h
2781 20-09-2009 04:27:04 16.4 C 12 g/m*3 16.4 C 0 km/h
2782 20-09-2009 04:39:04 16.3 C 12.07 g/m*3 16.3 C 0 km/h
2783 20-09-2009 04:51:04 16.2 C 11.86 g/m*3 16.2 C 0 km/h
2784 20-09-2009 05:03:04 16 C 11.72 g/m*3 16 C 0 km/h
2785 20-09-2009 05:15:04 15.8 C 11.85 g/m*3 15.8 C 0 km/h
2786 20-09-2009 05:27:04 15.6 C 11.7 g/m*3 15.6 C 0 km/h
2787 20-09-2009 05:39:04 15.4 C 11.69 g/m*3 15.4 C 0 km/h
2788 20-09-2009 05:51:04 15.3 C 11.62 g/m*3 15.3 C 0 km/h
2789 20-09-2009 06:03:04 15.3 C 11.75 g/m*3 15.3 C 0 km/h
2790 20-09-2009 06:15:04 15.4 C 11.96 g/m*3 15.4 C 0 km/h
2791 20-09-2009 06:27:04 15.2 C 11.68 g/m*3 15.2 C 0 km/h
2792 20-09-2009 06:39:05 15.2 C 11.81 g/m*3 15.2 C 0 km/h
2793 20-09-2009 06:51:05 15.4 C 11.96 g/m*3 15.4 C 0 km/h
2794 20-09-2009 07:03:05 15.3 C 11.88 g/m*3 15.3 C 0 km/h
2795 20-09-2009 07:15:05 15.2 C 11.81 g/m*3 15.2 C 0 km/h
2796 20-09-2009 07:27:05 15.2 C 11.81 g/m*3 15.2 C 0 km/h
2797 20-09-2009 07:39:05 15.4 C 11.96 g/m*3 15.4 C 0 km/h
2798 20-09-2009 07:51:05 15.4 C 11.96 g/m*3 15.4 C 0 km/h
2799 20-09-2009 08:03:05 15.6 C 12.1 g/m*3 15.6 C 0 km/h
2800 20-09-2009 08:15:05 15.8 C 12.25 g/m*3 15.8 C 0 km/h
Sensor: Nr:Datum:Temp:Abs-Feuchte:Windchill:Wind:
Aussen-T/F 2801 20-09-2009 08:27:05 15.9 C 12.19 g/m*3 15.9 C 0 km/h
2802 20-09-2009 08:39:02 15.8 C 12.11 g/m*3 15.8 C 0 km/h
2803 20-09-2009 08:51:02 15.9 C 12.05 g/m*3 15.9 C 0 km/h
2804 20-09-2009 09:03:02 16.1 C 12.06 g/m*3 16.1 C 0 km/h
2805 20-09-2009 09:15:02 16.3 C 12.21 g/m*3 16.3 C 0 km/h
2806 20-09-2009 09:27:03 16.5 C 12.22 g/m*3 16.5 C 0 km/h
2807 20-09-2009 09:39:02 16.6 C 12.15 g/m*3 16.6 C 0 km/h
2808 20-09-2009 09:51:02 16.9 C 12.23 g/m*3 16.9 C 0 km/h
2809 20-09-2009 10:03:01 17.4 C 12.3 g/m*3 17.4 C 0 km/h
2810 20-09-2009 10:15:02 17.7 C 12.22 g/m*3 17.7 C 0 km/h
2811 20-09-2009 10:27:02 18.3 C 12.35 g/m*3 18.3 C 0 km/h
2812 20-09-2009 10:39:01 18.5 C 12.18 g/m*3 18.5 C 0 km/h
2813 20-09-2009 10:51:02 18.8 C 12.24 g/m*3 18.8 C 0 km/h
2814 20-09-2009 11:03:02 18.9 C 12.15 g/m*3 18.9 C 0 km/h
2815 20-09-2009 11:15:02 19.4 C 12.01 g/m*3 19.4 C 0 km/h
2816 20-09-2009 11:27:02 20.2 C 12.06 g/m*3 20.2 C 0 km/h
2817 20-09-2009 11:39:02 20.8 C 11.95 g/m*3 20.8 C 0 km/h
2818 20-09-2009 11:51:02 21.3 C 11.74 g/m*3 21.3 C 0 km/h
2819 20-09-2009 12:03:02 22 C 11.84 g/m*3 22 C 0 km/h
2820 20-09-2009 12:15:01 22 C 11.84 g/m*3 22 C 0 km/h
2821 20-09-2009 12:27:01 22.5 C 12.18 g/m*3 22.5 C 0 km/h
2822 20-09-2009 12:39:02 23.5 C 12.27 g/m*3 23.5 C 0 km/h
2823 20-09-2009 12:51:02 23.8 C 11.83 g/m*3 23.8 C 0 km/h
2824 20-09-2009 13:03:02 24.1 C 11.38 g/m*3 24.1 C 0 km/h
2825 20-09-2009 13:15:02 24.3 C 11.29 g/m*3 24.3 C 0 km/h
Sensor: Nr:Datum:Temp:Abs-Feuchte:Windchill:Wind:
Aussen-T/F 2826 20-09-2009 13:27:02 24.6 C 11.25 g/m*3 24.6 C 0 km/h
2827 20-09-2009 13:39:02 25.4 C 11.06 g/m*3 25.4 C 0 km/h
2828 20-09-2009 13:51:02 26.3 C 10.64 g/m*3 26.3 C 0 km/h
2829 20-09-2009 14:03:02 26.4 C 10.21 g/m*3 26.4 C 0 km/h
2830 20-09-2009 14:15:02 25.9 C 10.41 g/m*3 25.9 C 0 km/h
2831 20-09-2009 14:27:02 26.2 C 9.85 g/m*3 26.2 C 0 km/h
2832 20-09-2009 14:39:02 26 C 9.74 g/m*3 26 C 0 km/h
2833 20-09-2009 14:51:02 25.7 C 10.29 g/m*3 25.7 C 0 km/h
2834 20-09-2009 15:03:02 25.5 C 9.94 g/m*3 25.5 C 0 km/h
2835 20-09-2009 15:15:03 25.2 C 10.48 g/m*3 25.2 C 0 km/h
2836 20-09-2009 15:27:03 26.9 C 9.73 g/m*3 26.9 C 0 km/h
2837 20-09-2009 15:39:02 27.6 C 9.84 g/m*3 27.6 C 0 km/h
2838 20-09-2009 15:51:02 27.3 C 9.16 g/m*3 27.3 C 0 km/h
2839 20-09-2009 16:03:02 27 C 8.75 g/m*3 27 C 0 km/h
2840 20-09-2009 16:15:02 27.4 C 8.95 g/m*3 27.4 C 0 km/h
2841 20-09-2009 16:27:02 27.3 C 8.9 g/m*3 27.3 C 0 km/h
2842 20-09-2009 16:39:02 26.8 C 9.16 g/m*3 26.8 C 0 km/h
2843 20-09-2009 16:51:02 26.7 C 8.61 g/m*3 26.7 C 0 km/h
2844 20-09-2009 17:03:02 26.9 C 8.45 g/m*3 26.9 C 0 km/h
2845 20-09-2009 17:15:02 26.5 C 8.76 g/m*3 26.5 C 0 km/h
2846 20-09-2009 17:27:02 26.1 C 9.06 g/m*3 26.1 C 0 km/h
2847 20-09-2009 17:39:02 26.4 C 9.21 g/m*3 26.4 C 0 km/h
2848 20-09-2009 17:51:02 25.8 C 9.15 g/m*3 25.8 C 0 km/h
2849 20-09-2009 18:03:01 24.7 C 9.51 g/m*3 24.7 C 0 km/h
2850 20-09-2009 18:15:02 24 C 9.57 g/m*3 24 C 0 km/h
Sensor: Nr:Datum:Temp:Abs-Feuchte:Windchill:Wind:
Aussen-T/F 2851 20-09-2009 18:27:02 23.7 C 9.84 g/m*3 23.7 C 0 km/h
2852 20-09-2009 18:39:01 23.7 C 10.48 g/m*3 23.7 C 0 km/h
2853 20-09-2009 18:51:02 23.3 C 10.45 g/m*3 23.3 C 0 km/h
2854 20-09-2009 19:03:01 22.7 C 10.71 g/m*3 22.7 C 0 km/h
2855 20-09-2009 19:15:01 22.1 C 10.74 g/m*3 22.1 C 0 km/h
2856 20-09-2009 19:27:01 21.7 C 11.06 g/m*3 21.7 C 0 km/h
2857 20-09-2009 19:39:02 21.2 C 11.12 g/m*3 21.2 C 0 km/h
2858 20-09-2009 19:51:02 20.9 C 10.93 g/m*3 20.9 C 0 km/h
2859 20-09-2009 20:03:02 20.7 C 10.98 g/m*3 20.7 C 0 km/h
2860 20-09-2009 20:15:02 20.4 C 10.97 g/m*3 20.4 C 0 km/h
2861 20-09-2009 20:27:02 20.1 C 10.95 g/m*3 20.1 C 0 km/h
2862 20-09-2009 20:39:02 19.9 C 11.34 g/m*3 19.9 C 0 km/h
2863 20-09-2009 20:51:01 19.9 C 11.34 g/m*3 19.9 C 0 km/h
2864 20-09-2009 21:03:02 20 C 11.23 g/m*3 20 C 0 km/h
2865 20-09-2009 21:15:01 20.1 C 11.3 g/m*3 20.1 C 0 km/h
2866 20-09-2009 21:27:01 19.7 C 11.55 g/m*3 19.7 C 0 km/h
2867 20-09-2009 21:39:02 19.3 C 11.44 g/m*3 19.3 C 0 km/h
2868 20-09-2009 21:51:02 19.1 C 11.31 g/m*3 19.1 C 0 km/h
2869 20-09-2009 22:03:01 18.8 C 11.6 g/m*3 18.8 C 0 km/h
2870 20-09-2009 22:15:02 18.5 C 11.55 g/m*3 18.5 C 0 km/h
2871 20-09-2009 22:27:02 18.5 C 11.55 g/m*3 18.5 C 0 km/h
2872 20-09-2009 22:39:02 18.4 C 11.48 g/m*3 18.4 C 0 km/h
2873 20-09-2009 22:51:01 18.5 C 11.71 g/m*3 18.5 C 0 km/h
2874 20-09-2009 23:03:02 18.7 C 11.85 g/m*3 18.7 C 0 km/h
2875 20-09-2009 23:15:01 18.9 C 11.83 g/m*3 18.9 C 0 km/h
Sensor: Nr:Datum:Temp:Abs-Feuchte:Windchill:Wind:
Aussen-T/F 2876 20-09-2009 23:27:01 19 C 11.73 g/m*3 19 C 0 km/h
2877 20-09-2009 23:39:02 19 C 11.73 g/m*3 19 C 0 km/h
2878 20-09-2009 23:51:02 19.1 C 11.97 g/m*3 19.1 C 0 km/h
2879 21-09-2009 00:03:02 18.7 C 11.85 g/m*3 18.7 C 0 km/h
2880 21-09-2009 00:15:02 18.5 C 12.02 g/m*3 18.5 C 0 km/h
2881 21-09-2009 00:27:02 18.3 C 12.04 g/m*3 18.3 C 0 km/h
2882 21-09-2009 00:39:02 18.1 C 12.05 g/m*3 18.1 C 0 km/h
2883 21-09-2009 00:51:01 18 C 12.13 g/m*3 18 C 0 km/h
2884 21-09-2009 01:03:02 17.8 C 12.14 g/m*3 17.8 C 0 km/h
2885 21-09-2009 01:15:02 17.8 C 12.29 g/m*3 17.8 C 0 km/h
2886 21-09-2009 01:27:02 17.7 C 12.22 g/m*3 17.7 C 0 km/h
2887 21-09-2009 01:39:01 17.6 C 12.3 g/m*3 17.6 C 0 km/h
2888 21-09-2009 01:51:02 17.5 C 12.23 g/m*3 17.5 C 0 km/h
2889 21-09-2009 02:03:01 17.5 C 12.23 g/m*3 17.5 C 0 km/h
2890 21-09-2009 02:15:02 17.5 C 12.23 g/m*3 17.5 C 0 km/h
2891 21-09-2009 02:27:02 17.5 C 12.23 g/m*3 17.5 C 0 km/h
2892 21-09-2009 02:39:01 17.4 C 12.15 g/m*3 17.4 C 0 km/h
2893 21-09-2009 02:52:04 17.5 C 12.37 g/m*3 17.5 C 0 km/h
2894 21-09-2009 03:04:04 17.5 C 12.37 g/m*3 17.5 C 0 km/h
2895 21-09-2009 03:16:03 17.6 C 12.3 g/m*3 17.6 C 0 km/h
2896 21-09-2009 03:28:03 17.7 C 12.37 g/m*3 17.7 C 0 km/h
2897 21-09-2009 03:40:01 17.8 C 12.29 g/m*3 17.8 C 0 km/h
2898 21-09-2009 03:52:01 17.9 C 12.37 g/m*3 17.9 C 0 km/h
2899 21-09-2009 04:04:01 17.9 C 12.21 g/m*3 17.9 C 0 km/h
2900 21-09-2009 04:16:02 17.9 C 12.21 g/m*3 17.9 C 0 km/h
Sensor: Nr:Datum:Temp:Abs-Feuchte:Windchill:Wind:
Aussen-T/F 2901 21-09-2009 04:28:02 17.9 C 12.21 g/m*3 17.9 C 0 km/h
2902 21-09-2009 04:40:01 17.9 C 12.21 g/m*3 17.9 C 0 km/h
2903 21-09-2009 04:52:03 17.7 C 12.22 g/m*3 17.7 C 0 km/h
2904 21-09-2009 05:04:02 17.7 C 12.07 g/m*3 17.7 C 0 km/h
2905 21-09-2009 05:16:02 17.7 C 12.07 g/m*3 17.7 C 0 km/h
2906 21-09-2009 05:28:02 17.6 C 12 g/m*3 17.6 C 0 km/h
2907 21-09-2009 05:40:02 17.5 C 11.93 g/m*3 17.5 C 0 km/h
2908 21-09-2009 05:52:02 17.4 C 11.86 g/m*3 17.4 C 0 km/h
2909 21-09-2009 06:04:02 17.4 C 11.86 g/m*3 17.4 C 0 km/h
2910 21-09-2009 06:16:02 17.4 C 11.86 g/m*3 17.4 C 0 km/h
2911 21-09-2009 06:28:03 17.5 C 11.78 g/m*3 17.5 C 0 km/h
2912 21-09-2009 06:40:01 17.3 C 11.79 g/m*3 17.3 C 0 km/h
2913 21-09-2009 06:52:02 17.5 C 11.93 g/m*3 17.5 C 0 km/h
2914 21-09-2009 07:04:01 17.3 C 11.64 g/m*3 17.3 C 0 km/h
2915 21-09-2009 07:16:01 17.4 C 11.71 g/m*3 17.4 C 0 km/h
2916 21-09-2009 07:28:01 17.3 C 11.79 g/m*3 17.3 C 0 km/h
2917 21-09-2009 07:40:02 17.4 C 11.86 g/m*3 17.4 C 0 km/h
2918 21-09-2009 07:52:02 17.3 C 11.79 g/m*3 17.3 C 0 km/h
2919 21-09-2009 08:04:02 17.4 C 11.71 g/m*3 17.4 C 0 km/h
2920 21-09-2009 08:16:02 17.2 C 11.57 g/m*3 17.2 C 0 km/h
2921 21-09-2009 08:28:02 16.9 C 11.65 g/m*3 16.9 C 0 km/h
2922 21-09-2009 08:40:02 16.8 C 11.58 g/m*3 16.8 C 0 km/h
2923 21-09-2009 08:52:02 17 C 11.58 g/m*3 17 C 0 km/h
2924 21-09-2009 09:04:03 17.3 C 11.64 g/m*3 17.3 C 0 km/h
2925 21-09-2009 09:16:02 17.1 C 11.35 g/m*3 17.1 C 0 km/h
Sensor: Nr:Datum:Temp:Abs-Feuchte:Windchill:Wind:
Aussen-T/F 2926 21-09-2009 09:28:02 17.1 C 11.35 g/m*3 17.1 C 0 km/h
2927 21-09-2009 09:40:02 17 C 11.29 g/m*3 17 C 0 km/h
2928 21-09-2009 09:52:01 17.1 C 11.35 g/m*3 17.1 C 0 km/h
2929 21-09-2009 10:04:02 17.7 C 11.16 g/m*3 17.7 C 0 km/h
2930 21-09-2009 10:16:01 18.5 C 11.39 g/m*3 18.5 C 0 km/h
2931 21-09-2009 10:28:01 19.5 C 11.08 g/m*3 19.5 C 0 km/h
2932 21-09-2009 10:40:01 19.8 C 10.93 g/m*3 19.8 C 0 km/h
2933 21-09-2009 10:52:01 20.3 C 10.9 g/m*3 20.3 C 0 km/h
2934 21-09-2009 11:04:02 20 C 10.37 g/m*3 20 C 0 km/h
2935 21-09-2009 11:16:01 19.7 C 10.36 g/m*3 19.7 C 0 km/h
2936 21-09-2009 11:28:01 19.6 C 10.47 g/m*3 19.6 C 0 km/h
2937 21-09-2009 11:40:01 19.6 C 10.47 g/m*3 19.6 C 0 km/h
2938 21-09-2009 11:52:01 19.3 C 10.28 g/m*3 19.3 C 0 km/h
2939 21-09-2009 12:04:02 19.2 C 10.39 g/m*3 19.2 C 0 km/h
2940 21-09-2009 12:16:01 19.7 C 10.53 g/m*3 19.7 C 0 km/h
2941 21-09-2009 12:28:01 21.2 C 10.56 g/m*3 21.2 C 0 km/h
2942 21-09-2009 12:40:01 21.6 C 10.43 g/m*3 21.6 C 0 km/h
2943 21-09-2009 12:52:01 21.2 C 10.19 g/m*3 21.2 C 0 km/h
2944 21-09-2009 13:04:02 21.3 C 10.07 g/m*3 21.3 C 0 km/h
2945 21-09-2009 13:16:02 20.8 C 10.14 g/m*3 20.8 C 0 km/h
2946 21-09-2009 13:28:02 20.8 C 9.96 g/m*3 20.8 C 0 km/h
2947 21-09-2009 13:40:01 20.5 C 9.79 g/m*3 20.5 C 0 km/h
2948 21-09-2009 13:52:01 20.1 C 9.56 g/m*3 20.1 C 0 km/h
2949 21-09-2009 14:04:01 20.5 C 9.61 g/m*3 20.5 C 0 km/h
2950 21-09-2009 14:16:02 20.4 C 9.2 g/m*3 20.4 C 0 km/h
Sensor: Nr:Datum:Temp:Abs-Feuchte:Windchill:Wind:
Aussen-T/F 2951 21-09-2009 14:28:02 20.6 C 9.31 g/m*3 20.6 C 0 km/h
2952 21-09-2009 14:40:01 21.3 C 9.32 g/m*3 21.3 C 0 km/h
2953 21-09-2009 14:52:01 22.3 C 9.48 g/m*3 22.3 C 0 km/h
2954 21-09-2009 15:04:01 22.8 C 9.14 g/m*3 22.8 C 0 km/h
2955 21-09-2009 15:16:02 23.4 C 9.25 g/m*3 23.4 C 0 km/h
2956 21-09-2009 15:28:02 23.8 C 9.03 g/m*3 23.8 C 0 km/h
2957 21-09-2009 15:40:01 23.6 C 8.93 g/m*3 23.6 C 0 km/h
2958 21-09-2009 15:52:01 24 C 8.92 g/m*3 24 C 0 km/h
2959 21-09-2009 16:04:01 24.5 C 8.95 g/m*3 24.5 C 0 km/h
2960 21-09-2009 16:16:02 25 C 8.52 g/m*3 25 C 0 km/h
2961 21-09-2009 16:28:02 24.5 C 8.5 g/m*3 24.5 C 0 km/h
2962 21-09-2009 16:40:01 22.8 C 8.74 g/m*3 22.8 C 0 km/h
2963 21-09-2009 16:52:03 22.7 C 8.89 g/m*3 22.7 C 0 km/h
2964 21-09-2009 17:04:02 22.4 C 9.14 g/m*3 22.4 C 0 km/h
2965 21-09-2009 17:16:02 22.6 C 8.84 g/m*3 22.6 C 0 km/h
2966 21-09-2009 17:28:02 22.7 C 8.89 g/m*3 22.7 C 0 km/h
2967 21-09-2009 17:40:02 22.8 C 8.53 g/m*3 22.8 C 0 km/h
2968 21-09-2009 17:52:02 22.5 C 8.39 g/m*3 22.5 C 0 km/h
2969 21-09-2009 18:04:02 22.5 C 8.59 g/m*3 22.5 C 0 km/h
2970 21-09-2009 18:16:02 21.8 C 8.44 g/m*3 21.8 C 0 km/h
2971 21-09-2009 18:28:03 21.2 C 8.52 g/m*3 21.2 C 0 km/h
2972 21-09-2009 18:40:01 21 C 8.61 g/m*3 21 C 0 km/h
2973 21-09-2009 18:52:02 20.8 C 8.69 g/m*3 20.8 C 0 km/h
2974 21-09-2009 19:04:01 20.4 C 8.67 g/m*3 20.4 C 0 km/h
2975 21-09-2009 19:16:02 20 C 8.99 g/m*3 20 C 0 km/h
Sensor: Nr:Datum:Temp:Abs-Feuchte:Windchill:Wind:
Aussen-T/F 2976 21-09-2009 19:28:02 19.4 C 9.34 g/m*3 19.4 C 0 km/h
2977 21-09-2009 19:40:02 19.1 C 9.18 g/m*3 19.1 C 0 km/h
2978 21-09-2009 19:52:02 18.5 C 9.33 g/m*3 18.5 C 0 km/h
2979 21-09-2009 20:04:02 18.3 C 9.38 g/m*3 18.3 C 0 km/h
2980 21-09-2009 20:16:02 18 C 9.22 g/m*3 18 C 0 km/h
2981 21-09-2009 20:28:02 17.8 C 9.11 g/m*3 17.8 C 0 km/h
2982 21-09-2009 20:40:03 17.5 C 9.24 g/m*3 17.5 C 0 km/h
2983 21-09-2009 20:52:02 17.2 C 9.23 g/m*3 17.2 C 0 km/h
2984 21-09-2009 21:05:02 17 C 9.26 g/m*3 17 C 0 km/h
2985 21-09-2009 21:17:02 16.8 C 9.44 g/m*3 16.8 C 0 km/h
2986 21-09-2009 21:29:02 16.7 C 9.52 g/m*3 16.7 C 0 km/h
2987 21-09-2009 21:41:02 16.5 C 9.55 g/m*3 16.5 C 0 km/h
2988 21-09-2009 21:53:02 16.2 C 9.65 g/m*3 16.2 C 0 km/h
2989 21-09-2009 22:05:02 16.1 C 9.6 g/m*3 16.1 C 0 km/h
2990 21-09-2009 22:17:02 15.9 C 9.75 g/m*3 15.9 C 0 km/h
2991 21-09-2009 22:29:02 15.7 C 9.77 g/m*3 15.7 C 0 km/h
2992 21-09-2009 22:41:02 15.5 C 9.65 g/m*3 15.5 C 0 km/h
2993 21-09-2009 22:53:02 15.4 C 9.72 g/m*3 15.4 C 0 km/h
2994 21-09-2009 23:05:02 15.2 C 9.61 g/m*3 15.2 C 0 km/h
2995 21-09-2009 23:17:02 15.1 C 9.55 g/m*3 15.1 C 0 km/h
2996 21-09-2009 23:29:02 14.8 C 9.75 g/m*3 14.8 C 0 km/h
2997 21-09-2009 23:41:02 14.7 C 9.69 g/m*3 14.7 C 0 km/h
2998 21-09-2009 23:53:02 14.5 C 9.7 g/m*3 14.5 C 0 km/h
2999 22-09-2009 00:05:03 14.5 C 9.7 g/m*3 14.5 C 0 km/h
3000 22-09-2009 00:17:03 14.2 C 9.52 g/m*3 14.2 C 0 km/h
Sensor: Nr:Datum:Temp:Abs-Feuchte:Windchill:Wind:
Aussen-T/F 3001 22-09-2009 00:29:03 14 C 9.53 g/m*3 14 C 0 km/h
3002 22-09-2009 00:41:03 14 C 9.41 g/m*3 14 C 0 km/h
3003 22-09-2009 00:53:03 13.9 C 9.47 g/m*3 13.9 C 0 km/h
3004 22-09-2009 01:05:03 13.8 C 9.53 g/m*3 13.8 C 0 km/h
3005 22-09-2009 01:17:03 13.7 C 9.71 g/m*3 13.7 C 0 km/h
3006 22-09-2009 01:29:03 13.5 C 9.59 g/m*3 13.5 C 0 km/h
3007 22-09-2009 01:41:03 13.4 C 9.53 g/m*3 13.4 C 0 km/h
3008 22-09-2009 01:53:03 13.3 C 9.59 g/m*3 13.3 C 0 km/h
3009 22-09-2009 02:05:03 13.1 C 9.47 g/m*3 13.1 C 0 km/h
3010 22-09-2009 02:17:03 13.1 C 9.47 g/m*3 13.1 C 0 km/h
3011 22-09-2009 02:29:03 13 C 9.41 g/m*3 13 C 0 km/h
3012 22-09-2009 02:41:03 12.8 C 9.52 g/m*3 12.8 C 0 km/h
3013 22-09-2009 02:53:03 12.7 C 9.35 g/m*3 12.7 C 0 km/h
3014 22-09-2009 03:05:03 12.6 C 9.4 g/m*3 12.6 C 0 km/h
3015 22-09-2009 03:17:03 12.4 C 9.29 g/m*3 12.4 C 0 km/h
3016 22-09-2009 03:29:03 12.4 C 9.29 g/m*3 12.4 C 0 km/h
3017 22-09-2009 03:41:03 12.3 C 9.34 g/m*3 12.3 C 0 km/h
3018 22-09-2009 03:53:04 12.2 C 9.28 g/m*3 12.2 C 0 km/h
3019 22-09-2009 04:05:04 12.1 C 9.22 g/m*3 12.1 C 0 km/h
3020 22-09-2009 04:17:04 12.1 C 9.22 g/m*3 12.1 C 0 km/h
3021 22-09-2009 04:29:04 11.8 C 9.05 g/m*3 11.8 C 0 km/h
3022 22-09-2009 04:41:04 11.7 C 9.1 g/m*3 11.7 C 0 km/h
3023 22-09-2009 04:53:04 11.6 C 9.04 g/m*3 11.6 C 0 km/h
3024 22-09-2009 05:05:04 11.6 C 9.15 g/m*3 11.6 C 0 km/h
3025 22-09-2009 05:17:04 11.6 C 9.25 g/m*3 11.6 C 0 km/h
Sensor: Nr:Datum:Temp:Abs-Feuchte:Windchill:Wind:
Aussen-T/F 3026 22-09-2009 05:29:04 11.6 C 9.25 g/m*3 11.6 C 0 km/h
3027 22-09-2009 05:41:04 11.7 C 9.2 g/m*3 11.7 C 0 km/h
3028 22-09-2009 05:53:04 11.6 C 9.15 g/m*3 11.6 C 0 km/h
3029 22-09-2009 06:05:04 11.5 C 9.09 g/m*3 11.5 C 0 km/h
3030 22-09-2009 06:17:02 11.4 C 9.03 g/m*3 11.4 C 0 km/h
3031 22-09-2009 06:29:02 11.2 C 8.92 g/m*3 11.2 C 0 km/h
3032 22-09-2009 06:41:02 11.1 C 8.86 g/m*3 11.1 C 0 km/h
3033 22-09-2009 06:53:01 11.1 C 8.86 g/m*3 11.1 C 0 km/h
3034 22-09-2009 07:05:02 11.2 C 8.92 g/m*3 11.2 C 0 km/h
3035 22-09-2009 07:17:01 11.4 C 9.03 g/m*3 11.4 C 0 km/h
3036 22-09-2009 07:29:01 11.4 C 9.03 g/m*3 11.4 C 0 km/h
3037 22-09-2009 07:41:02 11.2 C 8.92 g/m*3 11.2 C 0 km/h
3038 22-09-2009 07:53:01 11.4 C 9.03 g/m*3 11.4 C 0 km/h
3039 22-09-2009 08:05:02 11.3 C 8.87 g/m*3 11.3 C 0 km/h
3040 22-09-2009 08:17:01 11.1 C 8.76 g/m*3 11.1 C 0 km/h
3041 22-09-2009 08:29:01 10.9 C 8.75 g/m*3 10.9 C 0 km/h
3042 22-09-2009 08:41:02 11.1 C 8.86 g/m*3 11.1 C 0 km/h
3043 22-09-2009 08:53:01 11.2 C 8.92 g/m*3 11.2 C 0 km/h
3044 22-09-2009 09:05:02 11.5 C 8.99 g/m*3 11.5 C 0 km/h
3045 22-09-2009 09:17:01 11.6 C 9.04 g/m*3 11.6 C 0 km/h
3046 22-09-2009 09:29:01 11.7 C 9.1 g/m*3 11.7 C 0 km/h
3047 22-09-2009 09:41:02 12 C 9.17 g/m*3 12 C 0 km/h
3048 22-09-2009 09:53:02 12.1 C 9.01 g/m*3 12.1 C 0 km/h
3049 22-09-2009 10:05:02 12.8 C 9.41 g/m*3 12.8 C 0 km/h
3050 22-09-2009 10:17:02 13 C 9.07 g/m*3 13 C 0 km/h
Sensor: Nr:Datum:Temp:Abs-Feuchte:Windchill:Wind:
Aussen-T/F 3051 22-09-2009 10:29:02 13 C 8.96 g/m*3 13 C 0 km/h
3052 22-09-2009 10:41:02 13.2 C 9.19 g/m*3 13.2 C 0 km/h
3053 22-09-2009 10:53:01 13.5 C 9.36 g/m*3 13.5 C 0 km/h
3054 22-09-2009 11:05:02 14 C 9.53 g/m*3 14 C 0 km/h
3055 22-09-2009 11:17:02 14.4 C 9.52 g/m*3 14.4 C 0 km/h
3056 22-09-2009 11:29:02 14.9 C 9.69 g/m*3 14.9 C 0 km/h
3057 22-09-2009 11:41:02 15.6 C 9.71 g/m*3 15.6 C 0 km/h
3058 22-09-2009 11:53:02 16.4 C 10.05 g/m*3 16.4 C 0 km/h
3059 22-09-2009 12:05:02 17.2 C 10.4 g/m*3 17.2 C 0 km/h
3060 22-09-2009 12:17:02 17.8 C 10.02 g/m*3 17.8 C 0 km/h
3061 22-09-2009 12:29:02 18.5 C 9.81 g/m*3 18.5 C 0 km/h
3062 22-09-2009 12:41:02 18.9 C 9.56 g/m*3 18.9 C 0 km/h
3063 22-09-2009 12:53:02 19.6 C 9.79 g/m*3 19.6 C 0 km/h
3064 22-09-2009 13:05:02 20 C 9.68 g/m*3 20 C 0 km/h
3065 22-09-2009 13:17:02 20.5 C 9.25 g/m*3 20.5 C 0 km/h
3066 22-09-2009 13:29:02 21 C 9.34 g/m*3 21 C 0 km/h
3067 22-09-2009 13:41:01 21.7 C 8.77 g/m*3 21.7 C 0 km/h
3068 22-09-2009 13:53:02 22.2 C 8.05 g/m*3 22.2 C 0 km/h
3069 22-09-2009 14:05:01 23.1 C 8.48 g/m*3 23.1 C 0 km/h
3070 22-09-2009 14:17:02 23.7 C 7.91 g/m*3 23.7 C 0 km/h
3071 22-09-2009 14:29:02 24.3 C 8.41 g/m*3 24.3 C 0 km/h
3072 22-09-2009 14:41:01 24.7 C 8.15 g/m*3 24.7 C 0 km/h
3073 22-09-2009 14:53:02 24.7 C 7.47 g/m*3 24.7 C 0 km/h
3074 22-09-2009 15:05:02 25.4 C 7.77 g/m*3 25.4 C 0 km/h
3075 22-09-2009 15:17:02 26.1 C 7.59 g/m*3 26.1 C 0 km/h
Sensor: Nr:Datum:Temp:Abs-Feuchte:Windchill:Wind:
Aussen-T/F 3076 22-09-2009 15:29:02 26.4 C 7.97 g/m*3 26.4 C 0 km/h
3077 22-09-2009 15:41:03 27.1 C 7.76 g/m*3 27.1 C 0 km/h
3078 22-09-2009 15:53:02 27.8 C 7.8 g/m*3 27.8 C 0 km/h
3079 22-09-2009 16:05:01 28.2 C 7.7 g/m*3 28.2 C 0 km/h
3080 22-09-2009 16:17:02 29.1 C 7.22 g/m*3 29.1 C 0 km/h
3081 22-09-2009 16:29:02 29.2 C 7.26 g/m*3 29.2 C 0 km/h
3082 22-09-2009 16:41:02 28 C 8.16 g/m*3 28 C 0 km/h
3083 22-09-2009 16:53:02 26 C 8.52 g/m*3 26 C 0 km/h
3084 22-09-2009 17:05:03 27 C 8.49 g/m*3 27 C 0 km/h
3085 22-09-2009 17:17:02 27.7 C 8.29 g/m*3 27.7 C 0 km/h
3086 22-09-2009 17:29:02 27.6 C 8.51 g/m*3 27.6 C 0 km/h
3087 22-09-2009 17:41:03 27.5 C 8.47 g/m*3 27.5 C 0 km/h
3088 22-09-2009 17:53:02 27.5 C 8.47 g/m*3 27.5 C 0 km/h
3089 22-09-2009 18:05:02 26.7 C 8.61 g/m*3 26.7 C 0 km/h
3090 22-09-2009 18:17:02 26.2 C 8.37 g/m*3 26.2 C 0 km/h
3091 22-09-2009 18:29:02 25.6 C 8.57 g/m*3 25.6 C 0 km/h
3092 22-09-2009 18:41:02 24.9 C 8.7 g/m*3 24.9 C 0 km/h
3093 22-09-2009 18:53:02 24.4 C 8.23 g/m*3 24.4 C 0 km/h
3094 22-09-2009 19:05:02 23.5 C 8.04 g/m*3 23.5 C 0 km/h
3095 22-09-2009 19:17:02 22.5 C 7.99 g/m*3 22.5 C 0 km/h
3096 22-09-2009 19:29:02 21.5 C 8.3 g/m*3 21.5 C 0 km/h
3097 22-09-2009 19:41:02 20.7 C 8.46 g/m*3 20.7 C 0 km/h
3098 22-09-2009 19:53:01 20 C 8.47 g/m*3 20 C 0 km/h
3099 22-09-2009 20:05:02 19.7 C 8.66 g/m*3 19.7 C 0 km/h
3100 22-09-2009 20:17:01 19.2 C 8.24 g/m*3 19.2 C 0 km/h
Sensor: Nr:Datum:Temp:Abs-Feuchte:Windchill:Wind:
Aussen-T/F 3101 22-09-2009 20:29:01 19.1 C 8.03 g/m*3 19.1 C 0 km/h
3102 22-09-2009 20:41:02 19 C 8.15 g/m*3 19 C 0 km/h
3103 22-09-2009 20:53:02 18.8 C 8.05 g/m*3 18.8 C 0 km/h
3104 22-09-2009 21:05:02 18.8 C 7.89 g/m*3 18.8 C 0 km/h
3105 22-09-2009 21:17:02 18.7 C 7.84 g/m*3 18.7 C 0 km/h
3106 22-09-2009 21:29:02 18.3 C 7.97 g/m*3 18.3 C 0 km/h
3107 22-09-2009 21:41:02 18.1 C 8.03 g/m*3 18.1 C 0 km/h
3108 22-09-2009 21:53:01 17.8 C 8.2 g/m*3 17.8 C 0 km/h
3109 22-09-2009 22:05:02 17.4 C 8.45 g/m*3 17.4 C 0 km/h
3110 22-09-2009 22:18:03 17.2 C 8.49 g/m*3 17.2 C 0 km/h
3111 22-09-2009 22:30:03 17 C 8.39 g/m*3 17 C 0 km/h
3112 22-09-2009 22:42:03 16.4 C 9.07 g/m*3 16.4 C 0 km/h
3113 22-09-2009 22:54:03 16.3 C 9.02 g/m*3 16.3 C 0 km/h
3114 22-09-2009 23:06:03 16.1 C 8.91 g/m*3 16.1 C 0 km/h
3115 22-09-2009 23:18:03 16 C 8.99 g/m*3 16 C 0 km/h
3116 22-09-2009 23:30:03 15.9 C 9.07 g/m*3 15.9 C 0 km/h
3117 22-09-2009 23:42:03 15.6 C 9.04 g/m*3 15.6 C 0 km/h
3118 22-09-2009 23:54:03 15.4 C 9.2 g/m*3 15.4 C 0 km/h
3119 23-09-2009 00:06:03 15.1 C 9.16 g/m*3 15.1 C 0 km/h
3120 23-09-2009 00:18:03 14.8 C 9.25 g/m*3 14.8 C 0 km/h
3121 23-09-2009 00:30:03 14.7 C 9.32 g/m*3 14.7 C 0 km/h
3122 23-09-2009 00:42:03 14.6 C 9.26 g/m*3 14.6 C 0 km/h
3123 23-09-2009 00:54:03 14.4 C 9.27 g/m*3 14.4 C 0 km/h
3124 23-09-2009 01:06:03 14.4 C 9.27 g/m*3 14.4 C 0 km/h
3125 23-09-2009 01:18:03 14.2 C 9.28 g/m*3 14.2 C 0 km/h
Sensor: Nr:Datum:Temp:Abs-Feuchte:Windchill:Wind:
Aussen-T/F 3126 23-09-2009 01:30:03 14.4 C 9.27 g/m*3 14.4 C 0 km/h
3127 23-09-2009 01:42:03 14.1 C 9.1 g/m*3 14.1 C 0 km/h
3128 23-09-2009 01:54:03 14 C 9.05 g/m*3 14 C 0 km/h
3129 23-09-2009 02:06:04 13.8 C 9.06 g/m*3 13.8 C 0 km/h
3130 23-09-2009 02:18:04 13.7 C 9.12 g/m*3 13.7 C 0 km/h
3131 23-09-2009 02:30:04 13.4 C 8.95 g/m*3 13.4 C 0 km/h
3132 23-09-2009 02:42:04 13.3 C 9.01 g/m*3 13.3 C 0 km/h
3133 23-09-2009 02:54:04 13.2 C 9.07 g/m*3 13.2 C 0 km/h
3134 23-09-2009 03:06:04 13.1 C 9.01 g/m*3 13.1 C 0 km/h
3135 23-09-2009 03:18:04 12.9 C 9.13 g/m*3 12.9 C 0 km/h
3136 23-09-2009 03:30:04 12.9 C 9.13 g/m*3 12.9 C 0 km/h
3137 23-09-2009 03:42:04 12.8 C 9.18 g/m*3 12.8 C 0 km/h
3138 23-09-2009 03:54:04 12.7 C 9.13 g/m*3 12.7 C 0 km/h
3139 23-09-2009 04:06:04 12.6 C 9.07 g/m*3 12.6 C 0 km/h
3140 23-09-2009 04:18:04 12.5 C 9.13 g/m*3 12.5 C 0 km/h
3141 23-09-2009 04:30:04 12.4 C 9.18 g/m*3 12.4 C 0 km/h
3142 23-09-2009 04:42:04 12.3 C 9.12 g/m*3 12.3 C 0 km/h
3143 23-09-2009 04:54:04 12.3 C 9.12 g/m*3 12.3 C 0 km/h
3144 23-09-2009 05:06:04 12.1 C 9.01 g/m*3 12.1 C 0 km/h
3145 23-09-2009 05:18:04 12.1 C 9.01 g/m*3 12.1 C 0 km/h
3146 23-09-2009 05:30:04 11.9 C 8.9 g/m*3 11.9 C 0 km/h
3147 23-09-2009 05:42:04 11.8 C 8.84 g/m*3 11.8 C 0 km/h
3148 23-09-2009 05:54:04 11.8 C 8.84 g/m*3 11.8 C 0 km/h
3149 23-09-2009 06:06:05 11.6 C 8.83 g/m*3 11.6 C 0 km/h
3150 23-09-2009 06:18:05 11.5 C 8.78 g/m*3 11.5 C 0 km/h
Sensor: Nr:Datum:Temp:Abs-Feuchte:Windchill:Wind:
Aussen-T/F 3151 23-09-2009 06:30:05 11.3 C 8.67 g/m*3 11.3 C 0 km/h
3152 23-09-2009 06:42:05 11.2 C 8.72 g/m*3 11.2 C 0 km/h
3153 23-09-2009 06:54:05 11.1 C 8.66 g/m*3 11.1 C 0 km/h
3154 23-09-2009 07:06:03 11.1 C 8.66 g/m*3 11.1 C 0 km/h
3155 23-09-2009 07:18:03 10.9 C 8.65 g/m*3 10.9 C 0 km/h
3156 23-09-2009 07:30:03 10.9 C 8.65 g/m*3 10.9 C 0 km/h
3157 23-09-2009 07:42:04 11 C 8.71 g/m*3 11 C 0 km/h
3158 23-09-2009 07:54:02 10.9 C 8.75 g/m*3 10.9 C 0 km/h
3159 23-09-2009 08:06:02 10.9 C 8.85 g/m*3 10.9 C 0 km/h
3160 23-09-2009 08:18:02 11 C 8.81 g/m*3 11 C 0 km/h
3161 23-09-2009 08:30:02 11 C 8.81 g/m*3 11 C 0 km/h
3162 23-09-2009 08:42:02 11.1 C 8.86 g/m*3 11.1 C 0 km/h
3163 23-09-2009 08:54:02 11.3 C 8.98 g/m*3 11.3 C 0 km/h
3164 23-09-2009 09:06:02 11.4 C 9.14 g/m*3 11.4 C 0 km/h
3165 23-09-2009 09:18:01 11.5 C 9.19 g/m*3 11.5 C 0 km/h
3166 23-09-2009 09:30:01 11.7 C 9.31 g/m*3 11.7 C 0 km/h
3167 23-09-2009 09:42:02 12.3 C 9.66 g/m*3 12.3 C 0 km/h
3168 23-09-2009 09:54:02 12.9 C 9.92 g/m*3 12.9 C 0 km/h
3169 23-09-2009 10:06:02 13.5 C 9.94 g/m*3 13.5 C 0 km/h
3170 23-09-2009 10:18:02 14.3 C 9.83 g/m*3 14.3 C 0 km/h
3171 23-09-2009 10:30:02 14.8 C 9.75 g/m*3 14.8 C 0 km/h
3172 23-09-2009 10:42:02 15.2 C 9.48 g/m*3 15.2 C 0 km/h
3173 23-09-2009 10:54:02 15.6 C 9.58 g/m*3 15.6 C 0 km/h
3174 23-09-2009 11:06:02 15.9 C 9.48 g/m*3 15.9 C 0 km/h
3175 23-09-2009 11:18:02 16.6 C 9.32 g/m*3 16.6 C 0 km/h
Sensor: Nr:Datum:Temp:Abs-Feuchte:Windchill:Wind:
Aussen-T/F 3176 23-09-2009 11:30:02 17.2 C 9.23 g/m*3 17.2 C 0 km/h
3177 23-09-2009 11:42:02 17.8 C 9.26 g/m*3 17.8 C 0 km/h
3178 23-09-2009 11:54:01 18.3 C 9.22 g/m*3 18.3 C 0 km/h
3179 23-09-2009 12:06:02 19.1 C 9.34 g/m*3 19.1 C 0 km/h
3180 23-09-2009 12:18:01 19.5 C 9.4 g/m*3 19.5 C 0 km/h
3181 23-09-2009 12:30:01 19.6 C 8.95 g/m*3 19.6 C 0 km/h
3182 23-09-2009 12:42:01 19.4 C 8.84 g/m*3 19.4 C 0 km/h
3183 23-09-2009 12:54:01 19.5 C 9.23 g/m*3 19.5 C 0 km/h
3184 23-09-2009 13:06:02 20.4 C 9.2 g/m*3 20.4 C 0 km/h
3185 23-09-2009 13:18:01 21 C 9.16 g/m*3 21 C 0 km/h
3186 23-09-2009 13:30:01 21.6 C 9.1 g/m*3 21.6 C 0 km/h
3187 23-09-2009 13:42:01 22.1 C 8.98 g/m*3 22.1 C 0 km/h
3188 23-09-2009 13:54:01 22.5 C 8.99 g/m*3 22.5 C 0 km/h
3189 23-09-2009 14:06:02 22.7 C 8.69 g/m*3 22.7 C 0 km/h
3190 23-09-2009 14:18:02 23.5 C 8.88 g/m*3 23.5 C 0 km/h
3191 23-09-2009 14:30:02 24.1 C 8.53 g/m*3 24.1 C 0 km/h
3192 23-09-2009 14:42:01 24.3 C 8.63 g/m*3 24.3 C 0 km/h
3193 23-09-2009 14:54:01 24.7 C 8.6 g/m*3 24.7 C 0 km/h
3194 23-09-2009 15:06:02 25.6 C 8.33 g/m*3 25.6 C 0 km/h
3195 23-09-2009 15:18:01 26.1 C 8.32 g/m*3 26.1 C 0 km/h
3196 23-09-2009 15:30:01 26.1 C 8.57 g/m*3 26.1 C 0 km/h
3197 23-09-2009 15:42:02 26.6 C 8.31 g/m*3 26.6 C 0 km/h
3198 23-09-2009 15:54:02 26.6 C 8.56 g/m*3 26.6 C 0 km/h
3199 23-09-2009 16:06:02 27.1 C 8.02 g/m*3 27.1 C 0 km/h
3200 23-09-2009 16:18:02 26.8 C 8.14 g/m*3 26.8 C 0 km/h
Sensor: Nr:Datum:Temp:Abs-Feuchte:Windchill:Wind:
Aussen-T/F 3201 23-09-2009 16:30:02 26.1 C 8.57 g/m*3 26.1 C 0 km/h
3202 23-09-2009 16:42:02 26.4 C 8.71 g/m*3 26.4 C 0 km/h
3203 23-09-2009 16:54:01 27.5 C 8.2 g/m*3 27.5 C 0 km/h
3204 23-09-2009 17:06:02 27.6 C 8.25 g/m*3 27.6 C 0 km/h
3205 23-09-2009 17:18:01 26.2 C 8.62 g/m*3 26.2 C 0 km/h
3206 23-09-2009 17:30:01 25.3 C 9.13 g/m*3 25.3 C 0 km/h
3207 23-09-2009 17:42:02 24.5 C 9.4 g/m*3 24.5 C 0 km/h
3208 23-09-2009 17:54:02 23.7 C 9.63 g/m*3 23.7 C 0 km/h
3209 23-09-2009 18:06:02 23.7 C 9.84 g/m*3 23.7 C 0 km/h
3210 23-09-2009 18:18:01 24 C 9.36 g/m*3 24 C 0 km/h
3211 23-09-2009 18:30:01 24 C 9.57 g/m*3 24 C 0 km/h
3212 23-09-2009 18:42:02 23.8 C 9.68 g/m*3 23.8 C 0 km/h
3213 23-09-2009 18:54:02 23 C 9.66 g/m*3 23 C 0 km/h
3214 23-09-2009 19:06:02 21.6 C 9.48 g/m*3 21.6 C 0 km/h
3215 23-09-2009 19:18:02 21.1 C 9.58 g/m*3 21.1 C 0 km/h
3216 23-09-2009 19:30:02 20.8 C 9.78 g/m*3 20.8 C 0 km/h
3217 23-09-2009 19:42:02 20.3 C 9.67 g/m*3 20.3 C 0 km/h
3218 23-09-2009 19:54:01 20 C 9.85 g/m*3 20 C 0 km/h
3219 23-09-2009 20:06:02 19.7 C 10.02 g/m*3 19.7 C 0 km/h
3220 23-09-2009 20:18:01 19.4 C 9.84 g/m*3 19.4 C 0 km/h
3221 23-09-2009 20:30:01 19.1 C 10 g/m*3 19.1 C 0 km/h
3222 23-09-2009 20:42:01 18.7 C 10.09 g/m*3 18.7 C 0 km/h
3223 23-09-2009 20:54:01 18.4 C 10.07 g/m*3 18.4 C 0 km/h
3224 23-09-2009 21:06:02 18.4 C 10.22 g/m*3 18.4 C 0 km/h
3225 23-09-2009 21:18:01 18.6 C 10.19 g/m*3 18.6 C 0 km/h
Sensor: Nr:Datum:Temp:Abs-Feuchte:Windchill:Wind:
Aussen-T/F 3226 23-09-2009 21:30:01 18.5 C 10.13 g/m*3 18.5 C 0 km/h
3227 23-09-2009 21:42:01 18.3 C 10.16 g/m*3 18.3 C 0 km/h
3228 23-09-2009 21:54:01 18 C 10.14 g/m*3 18 C 0 km/h